Provisional Data: Susquehanna River at Kirkwood, NY


Please select a monitoring station.
Please select start date.
Please select start date.

Toggle Unit: C/F Toggle Unit: C/F
Sample Time Temperature (C) Temperature (F) Specific Conductivity (mS/cm) pH   Turbidity (NTU+) DO (mg/L)
10/20/2020 12:00:00 AM 12.38 54.284 0.023 7.45 5.89 10.65
10/20/2020 12:15:00 AM 12.4 54.32 0.023 7.47 5.79 10.64
10/20/2020 12:30:00 AM 12.46 54.428 0.022 7.47 5.77 10.63
10/20/2020 12:45:00 AM 12.53 54.554 0.022 7.48 5.66 10.61
10/20/2020 1:00:00 AM 12.6 54.68 0.023 7.49 5.67 10.59
10/20/2020 1:15:00 AM 12.64 54.752 0.023 7.48 5.76 10.58
10/20/2020 1:30:00 AM 12.71 54.878 0.022 7.5 5.8 10.56
10/20/2020 1:45:00 AM 12.75 54.95 0.022 7.48 5.72 10.55
10/20/2020 2:00:00 AM 12.77 54.986 0.022 7.48 5.62 10.55
10/20/2020 2:15:00 AM 12.78 55.004 0.022 7.5 5.74 10.54
10/20/2020 2:30:00 AM 12.81 55.058 0.023 7.51 5.72 10.54
10/20/2020 2:45:00 AM 12.84 55.112 0.022 7.52 5.74 10.53
10/20/2020 3:00:00 AM 12.87 55.166 0.024 7.53 5.72 10.52
10/20/2020 3:15:00 AM 12.93 55.274 0.024 7.53 5.62 10.5
10/20/2020 3:30:00 AM 12.98 55.364 0.023 7.53 5.71 10.49
10/20/2020 3:45:00 AM 13 55.4 0.022 7.54 5.76 10.48
10/20/2020 4:00:00 AM 13.02 55.436 0.023 7.55 5.83 10.48
10/20/2020 4:15:00 AM 13.06 55.508 0.025 7.54 5.8 10.46
10/20/2020 4:30:00 AM 13.11 55.598 0.024 7.55 5.75 10.46
10/20/2020 4:45:00 AM 13.15 55.67 0.024 7.55 5.53 10.45
10/20/2020 5:00:00 AM 13.18 55.724 0.025 7.56 5.63 10.44
10/20/2020 5:15:00 AM 13.2 55.76 0.025 7.56 5.45 10.43
10/20/2020 5:30:00 AM 13.21 55.778 0.024 7.56 5.71 10.43
10/20/2020 5:45:00 AM 13.23 55.814 0.026 7.56 5.55 10.43
10/20/2020 6:00:00 AM 13.28 55.904 0.026 7.56 5.43 10.41
10/20/2020 6:15:00 AM 13.3 55.94 0.025 7.56 5.37 10.42
10/20/2020 6:30:00 AM 13.33 55.994 0.024 7.57 5.48 10.41
10/20/2020 6:45:00 AM 13.36 56.048 0.023 7.57 5.43 10.4
10/20/2020 7:00:00 AM 13.37 56.066 0.025 7.59 5.38 10.41
10/20/2020 7:15:00 AM 13.41 56.138 0.026 7.6 5.34 10.39
10/20/2020 7:30:00 AM 13.44 56.192 0.026 7.64 5.44 10.38
10/20/2020 7:45:00 AM 13.44 56.192 0.022 7.63 5.43 10.38
10/20/2020 8:00:00 AM 13.47 56.246 0.022 7.65 5.34 10.38
10/20/2020 8:15:00 AM 13.49 56.282 0.023 7.67 5.36 10.38
10/20/2020 8:30:00 AM 13.5 56.3 0.023 7.67 5.26 10.38
10/20/2020 8:45:00 AM 13.52 56.336 0.022 7.7 5.24 10.37
10/20/2020 9:00:00 AM 13.52 56.336 0.023 7.71 5.31 10.37
10/20/2020 9:15:00 AM 13.48 56.264 0.022 7.72 5.22 10.39
10/20/2020 9:30:00 AM 13.48 56.264 0.023 7.72 5.18 10.39
10/20/2020 9:45:00 AM 13.51 56.318 0.023 7.72 5.35 10.39
10/20/2020 10:00:00 AM 13.58 56.444 0.024 7.73 5.37 10.37
10/20/2020 10:15:00 AM 13.69 56.642 0.024 7.74 5.39 10.35
10/20/2020 10:30:00 AM 13.77 56.786 0.024 7.74 5.49 10.33
10/20/2020 10:45:00 AM 13.9 57.02 0.023 7.78 5.4 10.3
10/20/2020 11:00:00 AM 14.05 57.29 0.024 7.79 5.38 10.27
10/20/2020 11:15:00 AM 14.12 57.416 0.025 7.79 5.25 10.26
10/20/2020 11:30:00 AM 14.21 57.578 0.024 7.78 5.24 10.23
10/20/2020 11:45:00 AM 14.48 58.064 0.024 7.85 5.13 10.18
10/20/2020 12:00:00 PM 14.79 58.622 0.025 7.86 5.12 10.11
10/20/2020 12:15:00 PM 14.99 58.982 0.023 7.84 5.29 10.05
10/20/2020 12:30:00 PM 15.09 59.162 0.025 7.83 5.34 10.03
10/20/2020 12:45:00 PM 15.32 59.576 0.024 7.87 5.23 9.99
10/20/2020 1:00:00 PM 15.45 59.81 0.024 7.87 5.08 9.95
10/20/2020 1:15:00 PM 15.47 59.846 0.026 7.85 5.26 9.94
10/20/2020 1:30:00 PM 15.45 59.81 0.028 7.84 5.39 9.94
10/20/2020 1:45:00 PM 15.37 59.666 0.026 7.84 5.37 9.96
10/20/2020 2:00:00 PM 15.34 59.612 0.027 7.84 5.39 9.97
10/20/2020 2:15:00 PM 15.33 59.594 0.028 7.84 5.7 9.97
10/20/2020 2:30:00 PM 15.3 59.54 0.026 7.85 5.6 9.97
10/20/2020 2:45:00 PM 15.36 59.648 0.027 7.85 5.72 9.97
10/20/2020 3:00:00 PM 15.36 59.648 0.027 7.86 5.72 9.97
10/20/2020 3:15:00 PM 15.25 59.45 0.028 7.85 5.73 10
10/20/2020 3:30:00 PM 14.79 58.622 0.028 7.81 5.78 10.1
10/20/2020 3:45:00 PM 14.52 58.136 0.028 7.81 5.89 10.16
10/20/2020 4:00:00 PM 14.13 57.434 0.03 7.76 5.78 10.26
10/20/2020 4:15:00 PM 13.92 57.056 0.029 7.76 6.01 10.32
10/20/2020 4:30:00 PM 13.74 56.732 0.029 7.75 6.13 10.37
10/20/2020 4:45:00 PM 13.44 56.192 0.031 7.74 6.91 10.44
10/20/2020 5:00:00 PM 13.28 55.904 0.029 7.75 6.8 10.48
10/20/2020 5:15:00 PM 13.15 55.67 0.031 7.74 7.09 10.52
10/20/2020 5:30:00 PM 13.05 55.49 0.03 7.75 6.99 10.54
10/20/2020 5:45:00 PM 12.87 55.166 0.029 7.73 7.14 10.58
10/20/2020 6:00:00 PM 12.67 54.806 0.03 7.73 7.5 10.64
10/20/2020 6:15:00 PM 12.26 54.068 0.032 7.7 7.5 10.75
10/20/2020 6:30:00 PM 11.97 53.546 0.032 7.7 7.74 10.84
10/20/2020 6:45:00 PM 11.79 53.222 0.032 7.7 8.37 10.89
10/20/2020 7:00:00 PM 11.58 52.844 0.032 7.7 8.65 10.95
10/20/2020 7:15:00 PM 11.47 52.646 0.031 7.7 8.65 10.98
10/20/2020 7:30:00 PM 11.36 52.448 0.031 7.71 8.35 11.01
10/20/2020 7:45:00 PM 11.14 52.052 0.031 7.68 9.21 11.07
10/20/2020 8:00:00 PM 11.03 51.854 0.031 7.69 9.51 11.11
10/20/2020 8:15:00 PM 10.98 51.764 0.032 7.7 8.99 11.12
10/20/2020 8:30:00 PM 10.94 51.692 0.031 7.7 8.75 11.12
10/20/2020 8:45:00 PM 10.93 51.674 0.033 7.72 8.54 11.13
10/20/2020 9:00:00 PM 10.92 51.656 0.031 7.73 8.46 11.13
10/20/2020 9:15:00 PM 10.94 51.692 0.03 7.73 8.41 11.13
10/20/2020 9:30:00 PM 10.92 51.656 0.029 7.74 8.07 11.13
10/20/2020 9:45:00 PM 10.94 51.692 0.031 7.74 7.92 11.12
10/20/2020 10:00:00 PM 10.95 51.71 0.029 7.75 7.58 11.12
10/20/2020 10:15:00 PM 10.97 51.746 0.029 7.76 7.08 11.12
10/20/2020 10:30:00 PM 10.98 51.764 0.031 7.75 7.07 11.11
10/20/2020 10:45:00 PM 10.97 51.746 0.03 7.76 7.73 11.11
10/20/2020 11:00:00 PM 10.98 51.764 0.029 7.76 7.43 11.11
10/20/2020 11:15:00 PM 10.97 51.746 0.029 7.77 7.19 11.11
10/20/2020 11:30:00 PM 10.96 51.728 0.029 7.77 7.28 11.11
10/20/2020 11:45:00 PM 10.97 51.746 0.031 7.77 7.14 11.11
10/21/2020 12:00:00 AM 11 51.8 0.029 7.77 7.55 11.1
10/21/2020 12:15:00 AM 11.04 51.872 0.03 7.78 7.79 11.09
10/21/2020 12:30:00 AM 11.06 51.908 0.029 7.79 7.24 11.08
10/21/2020 12:45:00 AM 11.06 51.908 0.03 7.79 7.73 11.07
10/21/2020 1:00:00 AM 11.02 51.836 0.03 7.79 7.53 11.08
10/21/2020 1:15:00 AM 11.03 51.854 0.029 7.79 7.23 11.08
10/21/2020 1:30:00 AM 11.02 51.836 0.029 7.79 7.54 11.09
10/21/2020 1:45:00 AM 11.05 51.89 0.028 7.8 7.16 11.07
10/21/2020 2:00:00 AM 11.04 51.872 0.031 7.8 7.55 11.08
10/21/2020 2:15:00 AM 11.05 51.89 0.03 7.8 7.12 11.08
10/21/2020 2:30:00 AM 11.11 51.998 0.029 7.8 7.32 11.06
10/21/2020 2:45:00 AM 11.17 52.106 0.027 7.81 6.82 11.04
10/21/2020 3:00:00 AM 11.2 52.16 0.03 7.8 7.17 11.03
10/21/2020 3:15:00 AM 11.21 52.178 0.029 7.8 7.15 11.03
10/21/2020 3:30:00 AM 11.21 52.178 0.03 7.8 7.23 11.03
10/21/2020 3:45:00 AM 11.25 52.25 0.028 7.8 6.76 11.01
10/21/2020 4:00:00 AM 11.26 52.268 0.029 7.8 7.29 11.01
10/21/2020 4:15:00 AM 11.29 52.322 0.027 7.8 6.94 11
10/21/2020 4:30:00 AM 11.31 52.358 0.029 7.81 7.15 10.99
10/21/2020 4:45:00 AM 11.31 52.358 0.028 7.81 7.17 10.99
10/21/2020 5:00:00 AM 11.3 52.34 0.029 7.81 7.04 10.99
10/21/2020 5:15:00 AM 11.24 52.232 0.027 7.81 6.9 11
10/21/2020 5:30:00 AM 11.18 52.124 0.026 7.8 7.34 11.03
10/21/2020 5:45:00 AM 11.25 52.25 0.027 7.81 6.84 11.01
10/21/2020 6:00:00 AM 11.29 52.322 0.028 7.81 6.84 11
10/21/2020 6:15:00 AM 11.33 52.394 0.028 7.81 6.93 10.99
10/21/2020 6:30:00 AM 11.44 52.592 0.028 7.82 6.6 10.96
10/21/2020 6:45:00 AM 11.84 53.312 0.027 7.84 6.71 10.86
10/21/2020 7:00:00 AM 12.41 54.338 0.025 7.86 6.44 10.71
10/21/2020 7:15:00 AM 12.82 55.076 0.025 7.87 6.45 10.6
10/21/2020 7:30:00 AM 13.23 55.814 0.025 7.86 6.55 10.5
10/21/2020 7:45:00 AM 13.46 56.228 0.026 7.87 7.03 10.44
10/21/2020 8:00:00 AM 13.66 56.588 0.025 7.87 7.01 10.39
10/21/2020 8:15:00 AM 13.93 57.074 0.025 7.87 7.21 10.33
10/21/2020 8:30:00 AM 14.25 57.65 0.025 7.88 7.45 10.26
10/21/2020 8:45:00 AM 14.53 58.154 0.025 7.87 7.56 10.19
10/21/2020 9:00:00 AM 14.81 58.658 0.028 7.87 7.54 10.12
10/21/2020 9:15:00 AM 15.18 59.324 0.026 7.86 7.2 10.05
10/21/2020 9:30:00 AM 15.68 60.224 0.026 7.86 7.05 9.93
10/21/2020 9:45:00 AM 16 60.8 0.029 7.82 6.79 9.87
10/21/2020 10:00:00 AM 16.22 61.196 0.029 7.79 6.69 9.81
10/21/2020 10:15:00 AM 16.4 61.52 0.03 7.76 7.59 9.78
10/21/2020 10:30:00 AM 16.62 61.916 0.029 7.75 7.91 9.73
10/21/2020 10:45:00 AM 16.99 62.582 0.031 7.74 8.03 9.66
10/21/2020 11:00:00 AM 17.24 63.032 0.034 7.71 8.84 9.61
10/21/2020 11:15:00 AM 17.29 63.122 0.032 7.68 9.57 9.59
10/21/2020 11:30:00 AM 17.45 63.41 0.034 7.65 10.53 9.56
10/21/2020 11:45:00 AM 17.63 63.734 0.037 7.63 11.16 9.54
10/21/2020 12:00:00 PM 17.91 64.238 0.042 7.6 12.01 9.49
10/21/2020 12:15:00 PM 18.23 64.814 0.042 7.6 12.37 9.44
10/21/2020 12:30:00 PM 18.32 64.976 0.044 7.69 12.29 9.43
10/21/2020 12:45:00 PM 18.66 65.588 0.043 7.64 11.77 9.37
10/21/2020 1:00:00 PM 19.21 66.578 0.039 7.64 11.84 9.29
10/21/2020 1:15:00 PM 20.13 68.234 0.033 7.62 10.98 9.15
10/21/2020 1:30:00 PM 21.34 70.412 0.022 7.64 11.33 8.97
10/21/2020 1:45:00 PM 22.46 72.42799 0 7.62 110.43 8.8
10/21/2020 2:00:00 PM 23.11 73.598 0 7.62 117.89 8.65
10/21/2020 2:15:00 PM 23.54 74.372 0 7.54 129.92 8.55
10/21/2020 2:30:00 PM 23.82 74.876 0 7.6 135.82 8.49
10/21/2020 2:45:00 PM 23.33 73.994 0 7.59 140.2 8.55
10/21/2020 3:00:00 PM 23.51 74.318 0 7.58 141.99 8.54
10/21/2020 3:15:00 PM 24.97 76.946 0 7.54 148.89 8.35
10/21/2020 3:30:00 PM 25.57 78.026 0 7.51 151.29 8.23
10/21/2020 3:45:00 PM 25.29 77.522 0 7.55 150.07 8.22
10/21/2020 4:00:00 PM 24.7 76.46 0 7.59 148.71 8.32
10/21/2020 4:15:00 PM 23.92 75.056 0 7.62 147.67 8.38
10/21/2020 4:30:00 PM 23.4 74.12 0 7.68 144.89 8.45
10/21/2020 4:45:00 PM 22.87 73.166 0 7.71 144.88 8.54
10/21/2020 5:00:00 PM 22.34 72.212 0 7.82 146.38 8.64
10/21/2020 5:15:00 PM 21.68 71.024 0 7.95 147.63 8.74
10/21/2020 5:30:00 PM 21.28 70.304 0 8.02 146.03 8.8
10/21/2020 5:45:00 PM 20.93 69.674 0 8.02 146.02 8.89
10/21/2020 6:00:00 PM 20.67 69.206 0 8.04 148.16 8.93
10/21/2020 6:15:00 PM 20.35 68.63 0 8.05 147.17 9
10/21/2020 6:30:00 PM 20.21 68.378 0 8.03 146.51 9.03
10/21/2020 6:45:00 PM 20.02 68.036 0 8.05 149.39 9.05
10/21/2020 7:00:00 PM 19.81 67.658 0 8.06 152.6 9.08
10/21/2020 7:15:00 PM 19.66 67.388 0 8.06 152 9.1
10/21/2020 7:30:00 PM 19.43 66.974 0.001 8.07 142.24 9.14
10/21/2020 7:45:00 PM 19.25 66.65 0.001 8.1 122.55 9.17
10/21/2020 8:00:00 PM 19.04 66.272 0.003 8.14 61.77 9.2
10/21/2020 8:15:00 PM 18.86 65.948 0.005 8.17 25.77 9.24
10/21/2020 8:30:00 PM 18.68 65.624 0.009 8.17 14.78 9.27
10/21/2020 8:45:00 PM 18.54 65.372 0.014 8.16 11.02 9.31
10/21/2020 9:00:00 PM 18.4 65.12 0.019 8.14 10.69 9.33
10/21/2020 9:15:00 PM 18.3 64.94 0.025 8.13 10.72 9.35
10/21/2020 9:30:00 PM 18.19 64.742 0.03 8.13 10.82 9.37
10/21/2020 9:45:00 PM 18.07 64.526 0.033 8.13 10.67 9.38
10/21/2020 10:00:00 PM 17.92 64.256 0.035 8.12 10.67 9.42
10/21/2020 10:15:00 PM 17.8 64.04 0.035 8.12 10.54 9.45
10/21/2020 10:30:00 PM 17.69 63.842 0.036 8.12 10.54 9.48
10/21/2020 10:45:00 PM 17.64 63.752 0.038 8.13 10.64 9.49
10/21/2020 11:00:00 PM 17.62 63.716 0.038 8.12 10.7 9.49
10/21/2020 11:15:00 PM 17.54 63.572 0.039 8.11 11.01 9.51
10/21/2020 11:30:00 PM 17.4 63.32 0.038 8.1 11.04 9.54
10/21/2020 11:45:00 PM 17.22 62.996 0.037 8.1 10.99 9.59
10/22/2020 12:00:00 AM 17.01 62.618 0.037 8.09 11.05 9.64
10/22/2020 12:15:00 AM 16.94 62.492 0.037 8.09 10.97 9.65
10/22/2020 12:30:00 AM 16.77 62.186 0.037 8.1 10.95 9.69
10/22/2020 12:45:00 AM 16.58 61.844 0.036 8.09 10.89 9.73
10/22/2020 1:00:00 AM 16.47 61.646 0.036 8.1 10.94 9.76
10/22/2020 1:15:00 AM 16.44 61.592 0.036 8.1 10.85 9.77
10/22/2020 1:30:00 AM 16.37 61.466 0.036 8.11 10.92 9.78
10/22/2020 1:45:00 AM 16.32 61.376 0.036 8.1 10.78 9.79
10/22/2020 2:00:00 AM 16.26 61.268 0.036 8.11 10.78 9.8
10/22/2020 2:15:00 AM 16.2 61.16 0.036 8.11 10.83 9.82
10/22/2020 2:30:00 AM 16.13 61.034 0.036 8.11 10.92 9.84
10/22/2020 2:45:00 AM 16.08 60.944 0.037 8.11 11.01 9.85
10/22/2020 3:00:00 AM 16.03 60.854 0.037 8.12 10.93 9.86
10/22/2020 3:15:00 AM 15.97 60.746 0.037 8.12 11.07 9.87
10/22/2020 3:30:00 AM 15.92 60.656 0.037 8.12 11.12 9.89
10/22/2020 3:45:00 AM 15.87 60.566 0.036 8.12 11.21 9.9
10/22/2020 4:00:00 AM 15.83 60.494 0.036 8.11 11.13 9.91
10/22/2020 4:15:00 AM 15.79 60.422 0.036 8.12 11.14 9.92
10/22/2020 4:30:00 AM 15.76 60.368 0.036 8.11 11.13 9.93
10/22/2020 4:45:00 AM 15.7 60.26 0.036 8.12 11.16 9.94
10/22/2020 5:00:00 AM 15.66 60.188 0.036 8.12 11.17 9.95
10/22/2020 5:15:00 AM 15.62 60.116 0.036 8.12 11.19 9.96
10/22/2020 5:30:00 AM 15.58 60.044 0.036 8.12 11.3 9.97
10/22/2020 5:45:00 AM 15.55 59.99 0.036 8.13 11.27 9.98
10/22/2020 6:00:00 AM 15.5 59.9 0.035 8.13 11.45 9.99
10/22/2020 6:15:00 AM 15.45 59.81 0.035 8.13 11.35 10.01
10/22/2020 6:30:00 AM 15.42 59.756 0.035 8.13 11.33 10.01
10/22/2020 6:45:00 AM 15.4 59.72 0.036 8.13 11.27 10.02
10/22/2020 7:00:00 AM 15.37 59.666 0.035 8.13 11.39 10.02
10/22/2020 7:15:00 AM 15.34 59.612 0.036 8.13 11.43 10.03
10/22/2020 7:30:00 AM 15.28 59.504 0.035 8.15 11.35 10.04
10/22/2020 7:45:00 AM 15.07 59.126 0.036 8.15 11.48 10.09
10/22/2020 8:00:00 AM 14.9 58.82 0.036 8.15 11.53 10.14
10/22/2020 8:15:00 AM 14.91 58.838 0.035 8.15 11.38 10.14
10/22/2020 8:30:00 AM 15.22 59.396 0.035 8.16 11.57 10.07
10/22/2020 8:45:00 AM 15.33 59.594 0.036 8.15 11.69 10.04
10/22/2020 9:00:00 AM 15.52 59.936 0.035 8.15 11.62 10
10/22/2020 9:15:00 AM 15.76 60.368 0.034 8.15 11.67 9.95
10/22/2020 9:30:00 AM 16 60.8 0.033 8.15 11.78 9.9
10/22/2020 9:45:00 AM -99999.99 -179968 -99999.99 -99999.99 -99999.99 -99999.99
10/22/2020 10:00:00 AM -99999.99 -179968 -99999.99 -99999.99 -99999.99 -99999.99
10/22/2020 10:15:00 AM -99999.99 -179968 -99999.99 -99999.99 -99999.99 -99999.99
10/22/2020 10:30:00 AM -99999.99 -179968 -99999.99 -99999.99 -99999.99 -99999.99
10/22/2020 10:45:00 AM -99999.99 -179968 -99999.99 -99999.99 -99999.99 -99999.99
10/22/2020 11:00:00 AM -99999.99 -179968 -99999.99 -99999.99 -99999.99 -99999.99
10/22/2020 11:15:00 AM -99999.99 -179968 -99999.99 -99999.99 -99999.99 -99999.99
10/22/2020 11:30:00 AM -99999.99 -179968 -99999.99 -99999.99 -99999.99 -99999.99
10/22/2020 11:45:00 AM -99999.99 -179968 -99999.99 -99999.99 -99999.99 -99999.99
10/22/2020 12:00:00 PM -99999.99 -179968 -99999.99 -99999.99 -99999.99 -99999.99
10/26/2020 7:00:00 AM 7.39 45.302 0.02 8.03 7.67 12.07
10/26/2020 7:15:00 AM 7.54 45.572 0.021 8.08 7.39 12.02
10/26/2020 7:30:00 AM 7.64 45.752 0.021 8.1 7.56 11.99
10/26/2020 7:45:00 AM 7.8 46.04 0.022 8.12 7.56 11.94
10/26/2020 8:00:00 AM 7.92 46.256 0.022 8.13 7.39 11.91
10/26/2020 8:15:00 AM 8.08 46.544 0.023 8.17 7.28 11.86
10/26/2020 8:30:00 AM 8.2 46.76 0.023 8.18 7.23 11.82
10/26/2020 8:45:00 AM 8.32 46.976 0.022 8.19 7.27 11.79
10/26/2020 9:00:00 AM 8.42 47.156 0.023 8.21 7.23 11.76
10/26/2020 9:15:00 AM 8.51 47.318 0.023 8.21 7.07 11.74
10/26/2020 9:30:00 AM 8.69 47.642 0.023 8.22 7.12 11.67
10/26/2020 9:45:00 AM 8.85 47.93 0.024 8.23 7.02 11.64
10/26/2020 10:00:00 AM 9.07 48.326 0.023 8.24 7.05 11.58
10/26/2020 10:15:00 AM 9.35 48.83 0.023 8.26 7.01 11.49
10/26/2020 10:30:00 AM 9.54 49.172 0.024 8.26 6.88 11.43
10/26/2020 10:45:00 AM 9.71 49.478 0.023 8.28 6.85 11.38
10/26/2020 11:00:00 AM 9.96 49.928 0.023 8.28 6.75 11.31
10/26/2020 11:15:00 AM 10.01 50.018 0.023 8.29 6.82 11.29
10/26/2020 11:30:00 AM 10.12 50.216 0.024 8.29 6.76 11.27
10/26/2020 11:45:00 AM 10.36 50.648 0.024 8.29 6.85 11.21
10/26/2020 12:00:00 PM 10.82 51.476 0.024 8.32 6.91 11.08
10/26/2020 12:15:00 PM 11.18 52.124 0.024 8.32 6.85 10.97
10/26/2020 12:30:00 PM 11.54 52.772 0.025 8.32 6.88 10.88
10/26/2020 12:45:00 PM 11.83 53.294 0.025 8.32 6.93 10.8
10/26/2020 1:00:00 PM 11.93 53.474 0.026 8.31 7.11 10.78
10/26/2020 1:15:00 PM 12.12 53.816 0.026 8.31 7.35 10.73
10/26/2020 1:30:00 PM 12.23 54.014 0.026 8.3 7.57 10.7
10/26/2020 1:45:00 PM 12.39 54.302 0.027 8.31 7.72 10.66
10/26/2020 2:00:00 PM 12.47 54.446 0.027 8.31 7.85 10.64
10/26/2020 2:15:00 PM 12.48 54.464 0.028 8.3 8.05 10.63
10/26/2020 2:30:00 PM 12.47 54.446 0.029 8.29 8.3 10.64
10/26/2020 2:45:00 PM 12.55 54.59 0.03 8.28 8.44 10.61
10/26/2020 3:00:00 PM 12.62 54.716 0.031 8.25 8.54 10.59
10/26/2020 3:15:00 PM 12.68 54.824 0.031 8.24 8.67 10.58
10/26/2020 3:30:00 PM 12.79 55.022 0.032 8.23 8.65 10.55
10/26/2020 3:45:00 PM 12.83 55.094 0.033 8.22 8.66 10.54
10/26/2020 4:00:00 PM 12.84 55.112 0.034 8.21 8.67 10.54
10/26/2020 4:15:00 PM 12.84 55.112 0.035 8.2 8.68 10.54
10/26/2020 4:30:00 PM 12.83 55.094 0.036 8.19 8.64 10.54
10/26/2020 4:45:00 PM 12.86 55.148 0.037 8.19 8.56 10.53
10/26/2020 5:00:00 PM 12.8 55.04 0.037 8.18 8.35 10.54
10/26/2020 5:15:00 PM 12.79 55.022 0.037 8.18 8.29 10.55
10/26/2020 5:30:00 PM 12.78 55.004 0.038 8.18 8.24 10.55
10/26/2020 5:45:00 PM 12.74 54.932 0.038 8.16 8.04 10.56
10/26/2020 6:00:00 PM 12.69 54.842 0.037 8.16 8 10.56
10/26/2020 6:15:00 PM 12.65 54.77 0.037 8.16 7.85 10.57
10/26/2020 6:30:00 PM 12.62 54.716 0.037 8.16 7.49 10.59
10/26/2020 6:45:00 PM 12.61 54.698 0.036 8.15 7.23 10.59
10/26/2020 7:00:00 PM 12.6 54.68 0.036 8.16 7.07 10.59
10/26/2020 7:15:00 PM 12.61 54.698 0.036 8.16 6.95 10.59
10/26/2020 7:30:00 PM 12.61 54.698 0.035 8.16 6.94 10.59
10/26/2020 7:45:00 PM 12.6 54.68 0.035 8.16 6.92 10.6
10/26/2020 8:00:00 PM 12.6 54.68 0.034 8.17 6.72 10.59
10/26/2020 8:15:00 PM 12.55 54.59 0.035 8.17 6.75 10.6
10/26/2020 8:30:00 PM 12.49 54.482 0.033 8.17 6.71 10.62
10/26/2020 8:45:00 PM 12.48 54.464 0.033 8.18 6.67 10.63
10/26/2020 9:00:00 PM 12.48 54.464 0.034 8.19 6.61 10.63
10/26/2020 9:15:00 PM 12.42 54.356 0.034 8.19 6.54 10.64
10/26/2020 9:30:00 PM 12.38 54.284 0.032 8.2 6.47 10.66
10/26/2020 9:45:00 PM 12.29 54.122 0.033 8.2 6.6 10.68
10/26/2020 10:00:00 PM 12.19 53.942 0.032 8.19 6.63 10.71
10/26/2020 10:15:00 PM 10.85 51.53 0.032 8.1 6.79 11.07
10/26/2020 10:30:00 PM 10.42 50.756 0.033 8.09 6.85 11.22
10/26/2020 10:45:00 PM 10.06 50.108 0.033 8.08 6.86 11.33
10/26/2020 11:00:00 PM 9.84 49.712 0.035 8.07 6.82 11.39
10/26/2020 11:15:00 PM 9.71 49.478 0.034 8.06 6.97 11.43
10/26/2020 11:30:00 PM 9.56 49.208 0.035 8.05 7.02 11.47
10/26/2020 11:45:00 PM 9.35 48.83 0.034 8.04 7.09 11.53
10/27/2020 12:00:00 AM 9.24 48.632 0.034 8.03 7.07 11.57
10/27/2020 12:15:00 AM 9.14 48.452 0.034 8.03 7.12 11.6
10/27/2020 12:30:00 AM 9.03 48.254 0.032 8.02 7.12 11.64
10/27/2020 12:45:00 AM 8.98 48.164 0.033 8.01 7.23 11.65
10/27/2020 1:00:00 AM 8.9 48.02 0.032 8.03 7.14 11.67
10/27/2020 1:15:00 AM 8.84 47.912 0.034 8.02 7.18 11.69
10/27/2020 1:30:00 AM 8.73 47.714 0.033 8.01 7.29 11.72
10/27/2020 1:45:00 AM 8.66 47.588 0.035 8.01 7.35 11.75
10/27/2020 2:00:00 AM 8.5 47.3 0.035 8 7.43 11.81
10/27/2020 2:15:00 AM 8.4 47.12 0.034 8 7.44 11.84
10/27/2020 2:30:00 AM 8.33 46.994 0.033 8 7.21 11.86
10/27/2020 2:45:00 AM 8.23 46.814 0.032 8 7.23 11.9
10/27/2020 3:00:00 AM 8.15 46.67 0.033 8 7.07 11.92
10/27/2020 3:15:00 AM 8.09 46.562 0.033 8.01 7.12 11.93
10/27/2020 3:30:00 AM 8.07 46.526 0.033 8.01 6.95 11.94
10/27/2020 3:45:00 AM 8.02 46.436 0.033 8.02 6.72 11.95
10/27/2020 4:00:00 AM 8 46.4 0.033 8.02 6.85 11.96
10/27/2020 4:15:00 AM 7.94 46.292 0.032 8.01 6.88 11.98
10/27/2020 4:30:00 AM 7.83 46.094 0.031 8.01 6.89 12.02
10/27/2020 4:45:00 AM 7.74 45.932 0.033 8 6.85 12.06
10/27/2020 5:00:00 AM 7.66 45.788 0.033 7.99 7.09 12.08
10/27/2020 5:15:00 AM 7.47 45.446 0.034 7.98 7.34 12.15
10/27/2020 5:30:00 AM 7.46 45.428 0.035 7.99 7.51 12.15
10/27/2020 5:45:00 AM 7.4 45.32 0.035 7.98 7.45 12.18
10/27/2020 6:00:00 AM 7.33 45.194 0.034 7.99 7.54 12.2
10/27/2020 6:15:00 AM 7.26 45.068 0.036 7.99 7.74 12.23
10/27/2020 6:30:00 AM 7.24 45.032 0.035 7.99 7.65 12.23
10/27/2020 6:45:00 AM 7.19 44.942 0.035 7.99 7.63 12.24
10/27/2020 7:00:00 AM 7.13 44.834 0.036 7.98 7.64 12.27
10/27/2020 7:15:00 AM 7.08 44.744 0.037 7.98 7.84 12.29
10/27/2020 7:30:00 AM 7.03 44.654 0.038 7.98 7.71 12.3
10/27/2020 7:45:00 AM 6.9 44.42 0.036 7.97 7.91 12.35
10/27/2020 8:00:00 AM 6.91 44.438 0.037 7.97 8.13 12.35
10/27/2020 8:15:00 AM 6.96 44.528 0.034 7.97 8.35 12.34
10/27/2020 8:30:00 AM 6.99 44.582 0.035 7.97 8.54 12.32
10/27/2020 8:45:00 AM 7.09 44.762 0.038 7.98 8.09 12.29
10/27/2020 9:00:00 AM 7.12 44.816 0.037 7.98 8.42 12.29
10/27/2020 9:15:00 AM 7.22 44.996 0.037 7.98 8.34 12.26
10/27/2020 9:30:00 AM 7.42 45.356 0.038 7.98 8.9 12.21
10/27/2020 9:45:00 AM 7.64 45.752 0.039 7.98 9.49 12.15
10/27/2020 10:00:00 AM 7.76 45.968 0.04 7.95 9.83 12.11
10/27/2020 10:15:00 AM 7.65 45.77 0.041 7.92 10.37 12.13
10/27/2020 10:30:00 AM 7.48 45.464 0.039 7.92 10.47 12.21
10/27/2020 10:45:00 AM 7.63 45.734 0.039 7.94 10.64 12.16
10/27/2020 11:00:00 AM 7.89 46.202 0.038 7.93 10.75 12.09
10/27/2020 11:15:00 AM 8.09 46.562 0.038 7.95 10.7 12.02
10/27/2020 11:30:00 AM 8.43 47.174 0.039 7.92 10.59 11.92
10/27/2020 11:45:00 AM 8.75 47.75 0.037 7.95 10.44 11.85
10/27/2020 12:00:00 PM 9.04 48.272 0.035 7.95 10.27 11.76
10/27/2020 12:15:00 PM 9.25 48.65 0.031 7.97 10.21 11.68
10/27/2020 12:30:00 PM 9.51 49.118 0.024 7.98 12.04 11.63
10/27/2020 12:45:00 PM 9.83 49.694 0.004 7.99 18.63 11.55
10/27/2020 1:00:00 PM 10.04 50.072 0.001 8.01 45.53 11.5
10/27/2020 1:15:00 PM 10.14 50.252 0 8 50.95 11.44
10/27/2020 1:30:00 PM 10.59 51.062 0 8 47.41 11.37
10/27/2020 1:45:00 PM 10.69 51.242 0 7.97 51.92 11.31
10/27/2020 2:00:00 PM 10.76 51.368 0 8 56.11 11.29
10/27/2020 2:15:00 PM 10.51 50.918 0 8 58.77 11.35
10/27/2020 2:30:00 PM 10.67 51.206 0 8.03 58.12 11.27
10/27/2020 2:45:00 PM 10.53 50.954 0 8 61.44 11.32
10/27/2020 3:00:00 PM 10.6 51.08 0 8.02 63.93 11.31
10/27/2020 3:15:00 PM 10.5 50.9 0 8 64.95 11.33
10/27/2020 3:30:00 PM 10.53 50.954 0 8.01 64.08 11.31
10/27/2020 3:45:00 PM 10.38 50.684 0 8 63.87 11.35
10/27/2020 4:00:00 PM 10.26 50.468 0 8.01 65.05 11.37
10/27/2020 4:15:00 PM 10.23 50.414 0 8 63.42 11.39
10/27/2020 4:30:00 PM 10.17 50.306 0 8 64.49 11.4
10/27/2020 4:45:00 PM 10.14 50.252 0 7.99 65.48 11.41
10/27/2020 5:00:00 PM 10.12 50.216 0 8 61.59 11.4
10/27/2020 5:15:00 PM 10.05 50.09 0 8 56.63 11.4
10/27/2020 5:30:00 PM 9.89 49.802 0 7.98 58.25 11.44
10/27/2020 5:45:00 PM 9.78 49.604 0 7.98 58.82 11.48
10/27/2020 6:00:00 PM 9.66 49.388 0 7.99 55.92 11.5
10/27/2020 6:15:00 PM 9.53 49.154 0 7.98 55.67 11.55
10/27/2020 6:30:00 PM 9.35 48.83 0 7.98 52.76 11.59
10/27/2020 6:45:00 PM 9.24 48.632 0 7.98 47.78 11.64
10/27/2020 7:00:00 PM 9.13 48.434 0.001 7.99 42.64 11.65
10/27/2020 7:15:00 PM 9.02 48.236 0.001 7.99 36.12 11.68
10/27/2020 7:30:00 PM 8.93 48.074 0.001 8 29.31 11.71
10/27/2020 7:45:00 PM 8.87 47.966 0.002 8.03 19.93 11.72
10/27/2020 8:00:00 PM 8.79 47.822 0.004 8.05 14.86 11.74
10/27/2020 8:15:00 PM 8.69 47.642 0.005 8.07 11.74 11.77
10/27/2020 8:30:00 PM 8.63 47.534 0.008 8.08 9.79 11.78
10/27/2020 8:45:00 PM 8.49 47.282 0.011 8.08 9.73 11.82
10/27/2020 9:00:00 PM 8.39 47.102 0.015 8.07 9.43 11.83
10/27/2020 9:15:00 PM 8.33 46.994 0.021 8.06 9.58 11.84
10/27/2020 9:30:00 PM 8.21 46.778 0.026 8.04 10.22 11.88
10/27/2020 9:45:00 PM 8.12 46.616 0.031 8.04 10.67 11.9
10/27/2020 10:00:00 PM 8.06 46.508 0.035 8.04 11.21 11.92
10/27/2020 10:15:00 PM 8.05 46.49 0.038 8.04 11.65 11.92
10/27/2020 10:30:00 PM 8.02 46.436 0.04 8.03 11.33 11.93
10/27/2020 10:45:00 PM 7.94 46.292 0.041 8.02 11.32 11.95
10/27/2020 11:00:00 PM 7.92 46.256 0.041 8.03 11.5 11.95
10/27/2020 11:15:00 PM 7.95 46.31 0.042 8.03 11.32 11.95
10/27/2020 11:30:00 PM 7.95 46.31 0.042 8.03 11.48 11.94
10/27/2020 11:45:00 PM 7.99 46.382 0.043 8.04 10.79 11.92
10/28/2020 12:00:00 AM 7.94 46.292 0.042 8.03 10.19 11.94
10/28/2020 12:15:00 AM 7.93 46.274 0.042 8.02 9.43 11.95
10/28/2020 12:30:00 AM 7.88 46.184 0.04 8.03 9 11.96
10/28/2020 12:45:00 AM 7.82 46.076 0.038 8.02 8.69 11.98
10/28/2020 1:00:00 AM 7.75 45.95 0.037 8.02 8.81 12
10/28/2020 1:15:00 AM 7.71 45.878 0.036 8.01 8.76 12.02
10/28/2020 1:30:00 AM 7.69 45.842 0.037 8.01 8.79 12.02
10/28/2020 1:45:00 AM 7.61 45.698 0.035 8.01 8.55 12.05
10/28/2020 2:00:00 AM 7.69 45.842 0.034 8.02 8.3 12.02
10/28/2020 2:15:00 AM 7.71 45.878 0.034 8.01 8.23 12.02
10/28/2020 2:30:00 AM 7.64 45.752 0.033 8.01 8.18 12.03
10/28/2020 2:45:00 AM 7.56 45.608 0.033 8.01 8.19 12.05
10/28/2020 3:00:00 AM 7.6 45.68 0.032 8.03 8.01 12.05
10/28/2020 3:15:00 AM 7.6 45.68 0.031 8.03 7.97 12.04
10/28/2020 3:30:00 AM 7.62 45.716 0.031 8.04 7.63 12.03
10/28/2020 3:45:00 AM 7.61 45.698 0.031 8.02 7.42 12.03
10/28/2020 4:00:00 AM 7.58 45.644 0.031 8.02 7.21 12.04
10/28/2020 4:15:00 AM 7.58 45.644 0.03 8.03 6.9 12.04
10/28/2020 4:30:00 AM 7.6 45.68 0.031 8.03 6.92 12.03
10/28/2020 4:45:00 AM 7.6 45.68 0.03 8.04 6.66 12.03
10/28/2020 5:00:00 AM 7.58 45.644 0.03 8.04 6.48 12.03
10/28/2020 5:15:00 AM 7.54 45.572 0.029 8.04 6.34 12.04
10/28/2020 5:30:00 AM 7.49 45.482 0.029 8.03 6.38 12.06
10/28/2020 5:45:00 AM 7.42 45.356 0.029 8.02 6.32 12.09
10/28/2020 6:00:00 AM 7.46 45.428 0.029 8.04 6.21 12.08
10/28/2020 6:15:00 AM 7.42 45.356 0.029 8.03 6.2 12.09
10/28/2020 6:30:00 AM 7.43 45.374 0.029 8.04 6.17 12.08
10/28/2020 6:45:00 AM 7.43 45.374 0.029 8.04 6.02 12.07
10/28/2020 7:00:00 AM 7.43 45.374 0.029 8.03 6.06 12.07
10/28/2020 7:15:00 AM 7.44 45.392 0.03 8.04 6.13 12.07
10/28/2020 7:30:00 AM 7.49 45.482 0.029 8.05 6.28 12.06
10/28/2020 7:45:00 AM 7.53 45.554 0.029 8.05 6.26 12.04
10/28/2020 8:00:00 AM 7.58 45.644 0.03 8.05 6.1 12.03
10/28/2020 8:15:00 AM 7.7 45.86 0.03 8.06 5.98 11.99
10/28/2020 8:30:00 AM 7.78 46.004 0.028 8.05 5.76 11.97
10/28/2020 8:45:00 AM 7.79 46.022 0.029 8.05 5.96 11.96
10/28/2020 9:00:00 AM 7.87 46.166 0.031 8.06 6.13 11.94
10/28/2020 9:15:00 AM 7.96 46.328 0.03 8.06 6.32 11.92
10/28/2020 9:30:00 AM 8.07 46.526 0.03 8.06 6.15 11.89
10/28/2020 9:45:00 AM 8.23 46.814 0.029 8.06 6.02 11.83
10/28/2020 10:00:00 AM 8.45 47.21 0.028 8.07 5.93 11.77
10/28/2020 10:15:00 AM 8.7 47.66 0.029 8.08 5.92 11.69
10/28/2020 10:30:00 AM 8.92 48.056 0.028 8.1 5.81 11.62
10/28/2020 10:45:00 AM 9.08 48.344 0.03 8.1 5.89 11.57
10/28/2020 11:00:00 AM 9.2 48.56 0.029 8.11 5.73 11.53
10/28/2020 11:15:00 AM 9.4 48.92 0.03 8.11 6.07 11.48
10/28/2020 11:30:00 AM 9.7 49.46 0.028 8.12 5.91 11.39
10/28/2020 11:45:00 AM 10 50 0.029 8.14 5.76 11.3
10/28/2020 12:00:00 PM 10.17 50.306 0.03 8.16 5.74 11.25
10/28/2020 12:15:00 PM 10.23 50.414 0.03 8.15 5.95 11.23
10/28/2020 12:30:00 PM 10.19 50.342 0.03 8.15 6.21 11.24
10/28/2020 12:45:00 PM 10.15 50.27 0.029 8.16 6.23 11.27
10/28/2020 1:00:00 PM 10.63 51.134 0.03 8.17 6 11.14
10/28/2020 1:15:00 PM 10.73 51.314 0.032 8.16 6.62 11.1
10/28/2020 1:30:00 PM 10.58 51.044 0.031 8.15 7.34 11.14
10/28/2020 1:45:00 PM 10.37 50.666 0.035 8.16 8.06 11.2
10/28/2020 2:00:00 PM 10.14 50.252 0.035 8.16 8.06 11.25
10/28/2020 2:15:00 PM 10.09 50.162 0.037 8.17 8.75 11.28
10/28/2020 2:30:00 PM 10.23 50.414 0.037 8.17 8.51 11.24
10/28/2020 2:45:00 PM 10.28 50.504 0.038 8.16 8.73 11.22
10/28/2020 3:00:00 PM 10.34 50.612 0.037 8.16 9.24 11.2
10/28/2020 3:15:00 PM 10.51 50.918 0.038 8.17 9.67 11.16
10/28/2020 3:30:00 PM 10.7 51.26 0.038 8.17 9.98 11.11
10/28/2020 3:45:00 PM 11.22 52.196 0.039 8.17 11.12 11.01
10/28/2020 4:00:00 PM 11.76 53.168 0.041 8.17 11.4 10.85
10/28/2020 4:15:00 PM 12.11 53.798 0.043 8.19 11.67 10.77
10/28/2020 4:30:00 PM 13.14 55.652 0.039 8.15 10.56 10.6
10/28/2020 4:45:00 PM 12.99 55.382 0.03 8.19 23.28 10.64
10/28/2020 5:00:00 PM 12.69 54.842 0.026 8.23 48.78 10.65
10/28/2020 5:15:00 PM 12.22 53.996 0.026 8.24 48.52 10.77
10/28/2020 5:30:00 PM 11.77 53.186 0.031 8.22 39.56 10.86
10/28/2020 5:45:00 PM 11.16 52.088 0.033 8.22 39.68 11.02
10/28/2020 6:00:00 PM 10.55 50.99 0.034 8.2 31.11 11.18
10/28/2020 6:15:00 PM 9.94 49.892 0.036 8.2 20.67 11.35
10/28/2020 6:30:00 PM 9.36 48.848 0.036 8.18 14.49 11.5
10/28/2020 6:45:00 PM 8.8 47.84 0.038 8.17 11.42 11.68
10/28/2020 7:00:00 PM 8.33 46.994 0.038 8.15 9.42 11.82
10/28/2020 7:15:00 PM 7.94 46.292 0.039 8.13 9.02 11.94
10/28/2020 7:30:00 PM 7.67 45.806 0.04 8.13 9.23 12.03
10/28/2020 7:45:00 PM 7.29 45.122 0.04 8.12 9.58 12.13
10/28/2020 8:00:00 PM 7 44.6 0.04 8.11 9.75 12.23
10/28/2020 8:15:00 PM 6.77 44.186 0.041 8.1 9.85 12.31
10/28/2020 8:30:00 PM 6.5 43.7 0.041 8.09 9.68 12.4
10/28/2020 8:45:00 PM 6.31 43.358 0.042 8.09 9.75 12.47
10/28/2020 9:00:00 PM 6.15 43.07 0.041 8.09 9.87 12.53
10/28/2020 9:15:00 PM 6.08 42.944 0.042 8.09 10.22 12.55
10/28/2020 9:30:00 PM 6.11 42.998 0.043 8.09 10.16 12.53
10/28/2020 9:45:00 PM 6.09 42.962 0.043 8.09 10.11 12.54
10/28/2020 10:00:00 PM 6.26 43.268 0.042 8.1 10.45 12.51
10/28/2020 10:15:00 PM 6.46 43.628 0.042 8.12 10.64 12.41
10/28/2020 10:30:00 PM 6.75 44.15 0.042 8.11 10.44 12.32
10/28/2020 10:45:00 PM 6.9 44.42 0.041 8.11 9.84 12.26
10/28/2020 11:00:00 PM 7.03 44.654 0.039 8.12 8.32 12.22
10/28/2020 11:15:00 PM 7.06 44.708 0.037 8.12 7.9 12.22
10/28/2020 11:30:00 PM 7.05 44.69 0.034 8.12 7.6 12.2
10/28/2020 11:45:00 PM 7.03 44.654 0.033 8.13 7.78 12.22
10/29/2020 12:00:00 AM 7.09 44.762 0.034 8.13 7.46 12.19
10/29/2020 12:15:00 AM 6.95 44.51 0.033 8.13 7.04 12.23
10/29/2020 12:30:00 AM 6.85 44.33 0.032 8.11 7 12.27
10/29/2020 12:45:00 AM 6.77 44.186 0.032 8.11 7.18 12.29
10/29/2020 1:00:00 AM 6.57 43.826 0.031 8.09 7.27 12.36
10/29/2020 1:15:00 AM 6.37 43.466 0.032 8.08 7.29 12.43
10/29/2020 1:30:00 AM 6.34 43.412 0.033 8.08 7.6 12.45
10/29/2020 1:45:00 AM 6.26 43.268 0.032 8.07 7.67 12.47
10/29/2020 2:00:00 AM 6.22 43.196 0.033 8.07 8 12.49
10/29/2020 2:15:00 AM 6.2 43.16 0.032 8.07 8.05 12.49
10/29/2020 2:30:00 AM 6.14 43.052 0.032 8.07 8.21 12.51
10/29/2020 2:45:00 AM 6.08 42.944 0.032 8.08 8.73 12.53
10/29/2020 3:00:00 AM 6.1 42.98 0.033 8.09 8.96 12.52
10/29/2020 3:15:00 AM 6.13 43.034 0.033 8.1 9.17 12.52
10/29/2020 3:30:00 AM 6.17 43.106 0.034 8.11 8.82 12.5
10/29/2020 3:45:00 AM 6.3 43.34 0.032 8.12 8.23 12.46
10/29/2020 4:00:00 AM 6.42 43.556 0.033 8.13 8.16 12.4
10/29/2020 4:15:00 AM 6.41 43.538 0.034 8.12 7.87 12.4
10/29/2020 4:30:00 AM 6.42 43.556 0.034 8.12 7.84 12.39
10/29/2020 4:45:00 AM 6.4 43.52 0.033 8.13 7.49 12.4
10/29/2020 5:00:00 AM 6.33 43.394 0.033 8.1 7.47 12.43
10/29/2020 5:15:00 AM 6.24 43.232 0.034 8.09 8.14 12.46
10/29/2020 5:30:00 AM 6.24 43.232 0.033 8.09 8.53 12.46
10/29/2020 5:45:00 AM 6.27 43.286 0.033 8.1 8.42 12.45
10/29/2020 6:00:00 AM 6.27 43.286 0.033 8.1 8.97 12.45
10/29/2020 6:15:00 AM 6.26 43.268 0.034 8.09 9.23 12.45
10/29/2020 6:30:00 AM 6.31 43.358 0.034 8.1 8.85 12.43
10/29/2020 6:45:00 AM 6.4 43.52 0.034 8.12 9.1 12.4
10/29/2020 7:00:00 AM 6.55 43.79 0.034 8.13 8.6 12.35
10/29/2020 7:15:00 AM 6.64 43.952 0.034 8.14 7.98 12.31
10/29/2020 7:30:00 AM 6.76 44.168 0.034 8.15 7.3 12.27
10/29/2020 7:45:00 AM 6.77 44.186 0.034 8.15 6.79 12.26
10/29/2020 8:00:00 AM 6.85 44.33 0.034 8.16 6.8 12.24
10/29/2020 8:15:00 AM 6.86 44.348 0.033 8.15 6.82 12.23
10/29/2020 8:30:00 AM 6.84 44.312 0.032 8.15 7.1 12.23
10/29/2020 8:45:00 AM 6.78 44.204 0.033 8.14 6.85 12.26
10/29/2020 9:00:00 AM 6.82 44.276 0.032 8.14 6.98 12.24
10/29/2020 9:15:00 AM 6.91 44.438 0.035 8.15 7.15 12.2
10/29/2020 9:30:00 AM 6.91 44.438 0.034 8.15 7.63 12.2
10/29/2020 9:45:00 AM 7 44.6 0.028 8.17 7.36 12.17
10/29/2020 10:00:00 AM 7.1 44.78 0.028 8.18 7.81 12.13
10/29/2020 10:15:00 AM 7.26 45.068 0.029 8.19 6.86 12.08
10/29/2020 10:30:00 AM 7.36 45.248 0.029 8.19 7.27 12.05
10/29/2020 10:45:00 AM 7.44 45.392 0.028 8.2 7.2 12.02
10/29/2020 11:00:00 AM 7.43 45.374 0.029 8.25 9.79 12.01
10/29/2020 11:15:00 AM 7.43 45.374 0.031 8.29 9.98 12.01
10/29/2020 11:30:00 AM 7.49 45.482 0.03 8.36 8.6 12
10/29/2020 11:45:00 AM 7.53 45.554 0.03 8.42 7.85 11.99
10/29/2020 12:00:00 PM 7.62 45.716 0.029 8.52 8.07 11.96
10/29/2020 12:15:00 PM 7.72 45.896 0.026 8.54 7.64 11.93
10/29/2020 12:30:00 PM 7.83 46.094 0.027 8.56 7.59 11.89
10/29/2020 12:45:00 PM 7.89 46.202 0.022 8.6 6.83 11.87
10/29/2020 1:00:00 PM 7.9 46.22 0.023 8.62 7.31 11.86
10/29/2020 1:15:00 PM 7.93 46.274 0.022 8.67 6.71 11.85
10/29/2020 1:30:00 PM 7.97 46.346 0.024 8.77 7.75 11.83
10/29/2020 1:45:00 PM 7.97 46.346 0.023 8.88 8.21 11.82
10/29/2020 2:00:00 PM 8.02 46.436 0.024 8.94 8.05 11.81
10/29/2020 2:15:00 PM 8.09 46.562 0.023 9 9.75 11.79
10/29/2020 2:30:00 PM 8.13 46.634 0.021 9.03 9.1 11.77
10/29/2020 2:45:00 PM 8.23 46.814 0.021 9.04 7.36 11.73
10/29/2020 3:00:00 PM 8.28 46.904 0.02 9.07 7.36 11.72
10/29/2020 3:15:00 PM 8.36 47.048 0.021 9.14 8.44 11.69
10/29/2020 3:30:00 PM 8.19 46.742 0.019 9.17 8.3 11.74
10/29/2020 3:45:00 PM 8.24 46.832 0.018 9.2 7.71 11.72
10/29/2020 4:00:00 PM 8.2 46.76 0.016 9.22 6.49 11.73
10/29/2020 4:15:00 PM 8.18 46.724 0.015 9.21 6.58 11.74
10/29/2020 4:30:00 PM 8.13 46.634 0.015 9.22 6.15 11.76
10/29/2020 4:45:00 PM 8.14 46.652 0.013 9.22 6.04 11.75
10/29/2020 5:00:00 PM 8.11 46.598 0.012 9.23 5.68 11.76
10/29/2020 5:15:00 PM 8.12 46.616 0.011 9.2 5.54 11.75
10/29/2020 5:30:00 PM 8.16 46.688 0.01 9.2 5.36 11.73
10/29/2020 5:45:00 PM 8.12 46.616 0.009 9.19 6.12 11.74
10/29/2020 6:00:00 PM 8.51 47.318 0.005 9.25 11.06 11.59
10/29/2020 6:15:00 PM 9.93 49.874 0.265 9.21 8.74 11.03
10/29/2020 6:30:00 PM 10.14 50.252 0.269 8.69 6.67 10.8
10/29/2020 6:45:00 PM 10.22 50.396 0.269 8.65 6.67 10.7
10/29/2020 7:00:00 PM 10.28 50.504 0.268 8.65 6.97 10.69
10/29/2020 7:15:00 PM 10.27 50.486 0.268 8.65 6.38 10.64
10/29/2020 7:30:00 PM 10.28 50.504 0.266 8.63 6.53 10.58
10/29/2020 7:45:00 PM 10.28 50.504 0.266 8.59 6.99 10.56
10/29/2020 8:00:00 PM 10.31 50.558 0.266 8.56 7.03 10.51
10/29/2020 8:15:00 PM 10.27 50.486 0.266 8.52 7.77 10.48
10/29/2020 8:30:00 PM 10.26 50.468 0.266 8.49 7.36 10.44
10/29/2020 8:45:00 PM 10.29 50.522 0.266 8.46 8.85 10.37
10/29/2020 9:00:00 PM 10.28 50.504 0.267 8.41 9.84 10.35
10/29/2020 9:15:00 PM 10.29 50.522 0.265 8.49 10.38 10.38
10/29/2020 9:30:00 PM 10.28 50.504 0.265 8.44 11.05 10.36
10/29/2020 9:45:00 PM 10.26 50.468 0.265 8.39 11.18 10.34
10/29/2020 10:00:00 PM 10.26 50.468 0.264 8.37 13.08 10.35
10/29/2020 10:15:00 PM 10.25 50.45 0.263 8.32 12.81 10.34
10/29/2020 10:30:00 PM 10.19 50.342 0.262 8.28 13.86 10.34
10/29/2020 10:45:00 PM 10.19 50.342 0.26 8.24 17.1 10.33
10/29/2020 11:00:00 PM 10.16 50.288 0.259 8.21 18.06 10.33
10/29/2020 11:15:00 PM 10.12 50.216 0.257 8.17 18.52 10.33
10/29/2020 11:30:00 PM 11.23 52.214 0.26 8.16 36.82 9.36
10/29/2020 11:45:00 PM 10.31 50.558 0.255 8.39 23.16 10.08
10/30/2020 12:00:00 AM 10.05 50.09 0.252 8.34 22.01 10.27
10/30/2020 12:15:00 AM 10 50 0.251 8.26 21.72 10.29
10/30/2020 12:30:00 AM 9.98 49.964 0.25 8.23 26.33 10.28
10/30/2020 12:45:00 AM 9.95 49.91 0.249 8.22 25.11 10.27
10/30/2020 1:00:00 AM 9.9 49.82 0.248 8.19 26.82 10.26
10/30/2020 1:15:00 AM 9.87 49.766 0.247 8.13 23.85 10.25
10/30/2020 1:30:00 AM 9.84 49.712 0.247 8.14 30.38 10.24
10/30/2020 1:45:00 AM 9.82 49.676 0.246 8.16 28.98 10.23
10/30/2020 2:00:00 AM 9.8 49.64 0.246 8.19 25.91 10.22
10/30/2020 2:15:00 AM 9.78 49.604 0.245 8.39 29.65 10.22
10/30/2020 2:30:00 AM 9.75 49.55 0.244 8.31 26.51 10.22
10/30/2020 2:45:00 AM 9.72 49.496 0.243 8.28 28.88 10.21
10/30/2020 3:00:00 AM 9.7 49.46 0.243 8.23 31.47 10.22
10/30/2020 3:15:00 AM 9.68 49.424 0.242 8.39 22.26 10.23
10/30/2020 3:30:00 AM 9.67 49.406 0.241 8.28 24.05 10.25
10/30/2020 3:45:00 AM 9.64 49.352 0.24 8.23 24.5 10.26
10/30/2020 4:00:00 AM 9.61 49.298 0.239 8.25 23.81 10.26
10/30/2020 4:15:00 AM 9.57 49.226 0.239 8.21 23.54 10.28
10/30/2020 4:30:00 AM 9.55 49.19 0.238 8.16 22.47 10.29
10/30/2020 4:45:00 AM 9.53 49.154 0.238 8.05 22.32 10.31
10/30/2020 5:00:00 AM 9.51 49.118 0.237 8.12 19.73 10.33
10/30/2020 5:15:00 AM 9.48 49.064 0.237 8.1 25.92 10.35
10/30/2020 5:30:00 AM 9.44 48.992 0.237 8.13 19.25 10.37
10/30/2020 5:45:00 AM 9.39 48.902 0.236 8.13 21.01 10.4
10/30/2020 6:00:00 AM 9.34 48.812 0.236 8.11 20.13 10.42
10/30/2020 6:15:00 AM 9.3 48.74 0.236 8.1 20.46 10.43
10/30/2020 6:30:00 AM 9.25 48.65 0.236 8.13 20.05 10.44
10/30/2020 6:45:00 AM 9.22 48.596 0.235 8.07 17.87 10.45
10/30/2020 7:00:00 AM 9.18 48.524 0.235 8.1 20.13 10.46
10/30/2020 7:15:00 AM 9.16 48.488 0.235 8.12 18.42 10.46
10/30/2020 7:30:00 AM 9.13 48.434 0.235 8.16 19.72 10.47
10/30/2020 7:45:00 AM 9.12 48.416 0.235 8.16 19.56 10.47
10/30/2020 8:00:00 AM 9.11 48.398 0.235 8.13 18.74 10.48
10/30/2020 8:15:00 AM 9.1 48.38 0.235 8.16 18.46 10.48
10/30/2020 8:30:00 AM 9.1 48.38 0.235 8.17 18.87 10.49
10/30/2020 8:45:00 AM 9.09 48.362 0.235 8.16 18.98 10.49
10/30/2020 9:00:00 AM 9.1 48.38 0.234 8.18 17.89 10.51
10/30/2020 9:15:00 AM 9.09 48.362 0.234 8.18 18.11 10.51
10/30/2020 9:30:00 AM 9.08 48.344 0.233 8.17 16.52 10.51
10/30/2020 9:45:00 AM 9.08 48.344 0.232 8.18 17.43 10.54
10/30/2020 10:00:00 AM 9.08 48.344 0.232 8.19 17.12 10.56
10/30/2020 10:15:00 AM 9.1 48.38 0.231 8.18 16.19 10.59
10/30/2020 10:30:00 AM 9.12 48.416 0.23 8.2 17.38 10.61
10/30/2020 10:45:00 AM 9.14 48.452 0.229 8.18 16.22 10.64
10/30/2020 11:00:00 AM 9.15 48.47 0.228 8.2 16.89 10.66
10/30/2020 11:15:00 AM 9.16 48.488 0.227 8.22 16.54 10.68
10/30/2020 11:30:00 AM 9.2 48.56 0.226 8.22 17.99 10.71
10/30/2020 11:45:00 AM 9.24 48.632 0.225 8.23 17.78 10.73
10/30/2020 12:00:00 PM 9.27 48.686 0.225 8.26 16.28 10.75
10/30/2020 12:15:00 PM 9.28 48.704 0.224 8.24 16.88 10.77
10/30/2020 12:30:00 PM 9.33 48.794 0.223 8.27 16.61 10.79
10/30/2020 12:45:00 PM 9.37 48.866 0.222 8.27 16.47 10.8
10/30/2020 1:00:00 PM 9.4 48.92 0.222 8.27 16.02 10.82
10/30/2020 1:15:00 PM 9.44 48.992 0.221 8.28 15.95 10.84
10/30/2020 1:30:00 PM 9.49 49.082 0.221 8.28 16.56 10.85
10/30/2020 1:45:00 PM 9.55 49.19 0.22 8.33 16.45 10.88
10/30/2020 2:00:00 PM 9.58 49.244 0.22 8.32 16.06 10.88
10/30/2020 2:15:00 PM 9.62 49.316 0.22 8.34 15.72 10.9
10/30/2020 2:30:00 PM 9.62 49.316 0.219 8.32 15.17 10.91
10/30/2020 2:45:00 PM 9.68 49.424 0.219 8.37 14.46 10.93
10/30/2020 3:00:00 PM 9.77 49.586 0.219 8.43 14.48 10.95
10/30/2020 3:15:00 PM 9.83 49.694 0.219 8.45 14.01 10.96
10/30/2020 3:30:00 PM 9.88 49.784 0.219 8.45 14.8 10.98
10/30/2020 3:45:00 PM 9.88 49.784 0.219 8.41 14.73 11
10/30/2020 4:00:00 PM 9.9 49.82 0.219 8.41 13.81 11.02
10/30/2020 4:15:00 PM 9.92 49.856 0.219 8.38 13.71 11.03
10/30/2020 4:30:00 PM 9.9 49.82 0.219 8.37 13.48 11.04
10/30/2020 4:45:00 PM 9.86 49.748 0.219 8.35 13.24 11.05
10/30/2020 5:00:00 PM 9.83 49.694 0.219 8.35 13.16 11.04
10/30/2020 5:15:00 PM 9.76 49.568 0.22 8.32 12.52 11.04
10/30/2020 5:30:00 PM 9.69 49.442 0.22 8.3 13.35 11.03
10/30/2020 5:45:00 PM 9.61 49.298 0.22 8.28 12.43 11.01
10/30/2020 6:00:00 PM 9.53 49.154 0.221 8.27 12.68 10.99
10/30/2020 6:15:00 PM 9.44 48.992 0.221 8.25 12.28 10.97
10/30/2020 6:30:00 PM 9.35 48.83 0.221 8.24 12.02 10.95
10/30/2020 6:45:00 PM 9.27 48.686 0.222 8.24 12.87 10.92
10/30/2020 7:00:00 PM 9.19 48.542 0.222 8.24 13.28 10.91
10/30/2020 7:15:00 PM 9.14 48.452 0.222 8.24 13.08 10.88
10/30/2020 7:30:00 PM 9.08 48.344 0.222 8.23 12.65 10.87
10/30/2020 7:45:00 PM 9.03 48.254 0.223 8.24 12.93 10.85
10/30/2020 8:00:00 PM 8.96 48.128 0.223 8.24 13.19 10.85
10/30/2020 8:15:00 PM 8.9 48.02 0.223 8.26 13.45 10.83
10/30/2020 8:30:00 PM 8.84 47.912 0.223 8.25 12.71 10.82
10/30/2020 8:45:00 PM 8.79 47.822 0.223 8.26 12.55 10.82
10/30/2020 9:00:00 PM 8.74 47.732 0.223 8.25 13.4 10.81
10/30/2020 9:15:00 PM 8.71 47.678 0.223 8.24 14.12 10.81
10/30/2020 9:30:00 PM 8.68 47.624 0.223 8.24 12.34 10.8
10/30/2020 9:45:00 PM 8.64 47.552 0.223 8.26 12.72 10.79
10/30/2020 10:00:00 PM 8.61 47.498 0.223 8.26 12.93 10.8
10/30/2020 10:15:00 PM 8.58 47.444 0.223 8.26 11.98 10.79
10/30/2020 10:30:00 PM 8.56 47.408 0.223 8.25 12.95 10.79
10/30/2020 10:45:00 PM 8.54 47.372 0.223 8.26 12.57 10.8
10/30/2020 11:00:00 PM 8.53 47.354 0.223 8.25 12.76 10.8
10/30/2020 11:15:00 PM 8.51 47.318 0.223 8.26 12.55 10.8
10/30/2020 11:30:00 PM 8.61 47.498 0.223 8.36 16.25 10.69
10/30/2020 11:45:00 PM 8.49 47.282 0.223 8.26 12 10.81
10/31/2020 12:00:00 AM 8.49 47.282 0.223 8.26 12.28 10.81
10/31/2020 12:15:00 AM 8.49 47.282 0.223 8.28 11.74 10.82
10/31/2020 12:30:00 AM 8.49 47.282 0.223 8.27 11.77 10.82
10/31/2020 12:45:00 AM 8.49 47.282 0.222 8.27 11.54 10.83
10/31/2020 1:00:00 AM 8.5 47.3 0.222 8.28 12.06 10.84
10/31/2020 1:15:00 AM 8.5 47.3 0.222 8.29 12.37 10.85
10/31/2020 1:30:00 AM 8.49 47.282 0.222 8.3 11.79 10.85
10/31/2020 1:45:00 AM 8.48 47.264 0.222 8.3 11.7 10.86
10/31/2020 2:00:00 AM 8.47 47.246 0.222 8.3 11.7 10.87
10/31/2020 2:15:00 AM 8.45 47.21 0.222 8.28 11.82 10.87
10/31/2020 2:30:00 AM 8.43 47.174 0.223 8.28 11.48 10.88
10/31/2020 2:45:00 AM 8.42 47.156 0.223 8.29 11.59 10.89
10/31/2020 3:00:00 AM 8.39 47.102 0.223 8.29 11.42 10.9
10/31/2020 3:15:00 AM 8.37 47.066 0.223 8.3 12.61 10.91
10/31/2020 3:30:00 AM 8.35 47.03 0.224 8.31 11.35 10.92
10/31/2020 3:45:00 AM 8.33 46.994 0.224 8.3 11.55 10.92
10/31/2020 4:00:00 AM 8.31 46.958 0.225 8.29 10.92 10.93
10/31/2020 4:15:00 AM 8.29 46.922 0.225 8.3 11.26 10.94
10/31/2020 4:30:00 AM 8.27 46.886 0.225 8.3 11.2 10.95
10/31/2020 4:45:00 AM 8.24 46.832 0.226 8.31 10.93 10.96
10/31/2020 5:00:00 AM 8.22 46.796 0.226 8.28 11.06 10.96
10/31/2020 5:15:00 AM 8.2 46.76 0.227 8.26 11.62 10.98
10/31/2020 5:30:00 AM 8.18 46.724 0.227 8.29 12.32 10.99
10/31/2020 5:45:00 AM 8.14 46.652 0.227 8.29 11.44 11
10/31/2020 6:00:00 AM 8.12 46.616 0.228 8.29 11.82 11
10/31/2020 6:15:00 AM 8.1 46.58 0.228 8.31 11.46 11.02
10/31/2020 6:30:00 AM 8.06 46.508 0.228 8.28 11.08 11.03
10/31/2020 6:45:00 AM 8.04 46.472 0.228 8.27 11.81 11.03
10/31/2020 7:00:00 AM 8.01 46.418 0.229 8.27 11.75 11.04
10/31/2020 7:15:00 AM 7.98 46.364 0.229 8.27 11.78 11.04
10/31/2020 7:30:00 AM 7.95 46.31 0.229 8.26 12 11.05
10/31/2020 7:45:00 AM 7.92 46.256 0.229 8.26 12.22 11.05
10/31/2020 8:00:00 AM 7.89 46.202 0.229 8.26 12.07 11.06
10/31/2020 8:15:00 AM 7.87 46.166 0.229 8.25 11.44 11.07
10/31/2020 8:30:00 AM 7.85 46.13 0.229 8.25 11.44 11.07
10/31/2020 8:45:00 AM 7.83 46.094 0.229 8.26 11.53 11.08
10/31/2020 9:00:00 AM 7.81 46.058 0.229 8.26 10.98 11.09
10/31/2020 9:15:00 AM 7.8 46.04 0.229 8.26 11.36 11.1
10/31/2020 9:30:00 AM 7.79 46.022 0.229 8.28 11.62 11.11
10/31/2020 9:45:00 AM 7.8 46.04 0.229 8.29 11.69 11.12
10/31/2020 10:00:00 AM 7.81 46.058 0.229 8.31 11.39 11.14
10/31/2020 10:15:00 AM 7.83 46.094 0.228 8.34 11.47 11.15
10/31/2020 10:30:00 AM 7.87 46.166 0.228 8.36 12.07 11.17
10/31/2020 10:45:00 AM 7.91 46.238 0.227 8.38 11.77 11.18
10/31/2020 11:00:00 AM 7.97 46.346 0.227 8.41 11.38 11.2
10/31/2020 11:15:00 AM 8.04 46.472 0.227 8.43 12.18 11.22
10/31/2020 11:30:00 AM 8.12 46.616 0.226 8.44 12.02 11.23
10/31/2020 11:45:00 AM 8.2 46.76 0.226 8.44 12.48 11.25
10/31/2020 12:00:00 PM 8.29 46.922 0.225 8.46 11.95 11.27
10/31/2020 12:15:00 PM 8.36 47.048 0.225 8.47 12.43 11.28
10/31/2020 12:30:00 PM 8.42 47.156 0.224 8.49 12.5 11.3
10/31/2020 12:45:00 PM 8.45 47.21 0.224 8.49 12.42 11.31
10/31/2020 1:00:00 PM 8.47 47.246 0.223 8.49 12.14 11.31
10/31/2020 1:15:00 PM 8.48 47.264 0.223 8.48 12.47 11.32
10/31/2020 1:30:00 PM 8.48 47.264 0.223 8.48 12.39 11.33
10/31/2020 1:45:00 PM 8.46 47.228 0.222 8.46 12.29 11.33
10/31/2020 2:00:00 PM 8.46 47.228 0.222 8.46 12.61 11.34
10/31/2020 2:15:00 PM 8.47 47.246 0.222 8.46 12.38 11.34
10/31/2020 2:30:00 PM 8.47 47.246 0.222 8.45 12.58 11.34
10/31/2020 2:45:00 PM 8.47 47.246 0.221 8.45 12.8 11.35
10/31/2020 3:00:00 PM 8.48 47.264 0.221 8.45 12.21 11.35
10/31/2020 3:15:00 PM 8.49 47.282 0.221 8.43 12.5 11.36
10/31/2020 3:30:00 PM 8.52 47.336 0.221 8.45 12.54 11.36
10/31/2020 3:45:00 PM 8.49 47.282 0.221 8.43 12.46 11.37
10/31/2020 4:00:00 PM 8.48 47.264 0.221 8.42 11.92 11.38
10/31/2020 4:15:00 PM 8.51 47.318 0.221 8.43 12.4 11.39
10/31/2020 4:30:00 PM 8.49 47.282 0.221 8.45 13.13 11.39
10/31/2020 4:45:00 PM 8.46 47.228 0.221 8.44 12.13 11.4
10/31/2020 5:00:00 PM 8.42 47.156 0.222 8.44 12.08 11.41
10/31/2020 5:15:00 PM 8.37 47.066 0.222 8.42 12.04 11.41
10/31/2020 5:30:00 PM 8.33 46.994 0.222 8.41 11.76 11.4
10/31/2020 5:45:00 PM 8.27 46.886 0.223 8.4 11.6 11.4
10/31/2020 6:00:00 PM 8.22 46.796 0.223 8.38 11.46 11.38
10/31/2020 6:15:00 PM 8.17 46.706 0.223 8.39 13.13 11.37
10/31/2020 6:30:00 PM 8.12 46.616 0.224 8.4 11.97 11.36
10/31/2020 6:45:00 PM 8.07 46.526 0.224 8.39 11.94 11.35
10/31/2020 7:00:00 PM 8.04 46.472 0.225 8.38 11.9 11.34
10/31/2020 7:15:00 PM 8 46.4 0.226 8.36 11.58 11.33
10/31/2020 7:30:00 PM 7.97 46.346 0.227 8.35 11.76 11.32
10/31/2020 7:45:00 PM 7.94 46.292 0.227 8.35 11.78 11.31
10/31/2020 8:00:00 PM 7.91 46.238 0.228 8.34 11.66 11.3
10/31/2020 8:15:00 PM 7.89 46.202 0.229 8.35 12.27 11.3
10/31/2020 8:30:00 PM 7.86 46.148 0.23 8.36 12.22 11.29
10/31/2020 8:45:00 PM 7.83 46.094 0.23 8.39 11.9 11.29
10/31/2020 9:00:00 PM 7.81 46.058 0.231 8.41 11.75 11.28
10/31/2020 9:15:00 PM 7.78 46.004 0.232 8.38 11.44 11.27
10/31/2020 9:30:00 PM 7.76 45.968 0.233 8.38 12.11 11.27
10/31/2020 9:45:00 PM 7.74 45.932 0.233 8.38 11.94 11.27
10/31/2020 10:00:00 PM 7.73 45.914 0.234 8.39 12.46 11.27
10/31/2020 10:15:00 PM 7.72 45.896 0.235 8.39 12.47 11.26
10/31/2020 10:30:00 PM 7.71 45.878 0.235 8.4 12.06 11.27
10/31/2020 10:45:00 PM 7.7 45.86 0.236 8.4 11.51 11.27
10/31/2020 11:00:00 PM 7.7 45.86 0.236 8.41 12.05 11.27
10/31/2020 11:15:00 PM 7.69 45.842 0.237 8.42 12.1 11.28
10/31/2020 11:30:00 PM 7.69 45.842 0.237 8.44 11.44 11.28
10/31/2020 11:45:00 PM 7.69 45.842 0.238 8.45 11.57 11.25
11/1/2020 12:00:00 AM 7.69 45.842 0.238 8.46 11.9 11.28
11/1/2020 12:15:00 AM 7.69 45.842 0.239 8.47 11.64 11.28
11/1/2020 12:30:00 AM 7.69 45.842 0.239 8.48 12.19 11.29
11/1/2020 12:45:00 AM 7.7 45.86 0.24 8.48 11.93 11.29
11/1/2020 1:00:00 AM 7.7 45.86 0.24 8.48 12.57 11.29
11/1/2020 1:15:00 AM 7.71 45.878 0.24 8.52 12.25 11.27
11/1/2020 1:30:00 AM 7.69 45.842 0.241 8.51 11.12 11.29
11/1/2020 1:45:00 AM 7.68 45.824 0.241 8.51 11.02 11.3
11/1/2020 2:00:00 AM 7.67 45.806 0.241 8.52 11.24 11.3
11/1/2020 2:15:00 AM 7.66 45.788 0.241 8.52 11.09 11.3
11/1/2020 2:30:00 AM 7.65 45.77 0.241 8.51 12.46 11.31
11/1/2020 2:45:00 AM 7.66 45.788 0.242 8.51 12.22 11.31
11/1/2020 3:00:00 AM 7.66 45.788 0.242 8.5 10.97 11.31
11/1/2020 3:15:00 AM 7.64 45.752 0.242 8.53 11.62 11.33
11/1/2020 3:30:00 AM 7.63 45.734 0.242 8.53 11.81 11.33
11/1/2020 3:45:00 AM 7.62 45.716 0.242 8.54 11.51 11.32
11/1/2020 4:00:00 AM 7.6 45.68 0.242 8.54 10.87 11.33
11/1/2020 4:15:00 AM 7.59 45.662 0.242 8.53 10.9 11.33
11/1/2020 4:30:00 AM 7.58 45.644 0.242 8.52 11.3 11.33
11/1/2020 4:45:00 AM 7.57 45.626 0.242 8.53 11.71 11.33
11/1/2020 5:00:00 AM 7.56 45.608 0.242 8.53 11.62 11.33
11/1/2020 5:15:00 AM 7.56 45.608 0.242 8.55 12.43 11.33
11/1/2020 5:30:00 AM 7.54 45.572 0.242 8.54 11.37 11.33
11/1/2020 5:45:00 AM 7.53 45.554 0.241 8.54 10.92 11.32
11/1/2020 6:00:00 AM 7.51 45.518 0.241 8.53 11.18 11.32
11/1/2020 6:15:00 AM 7.5 45.5 0.241 8.53 10.52 11.32
11/1/2020 6:30:00 AM 7.49 45.482 0.241 8.54 10.91 11.31
11/1/2020 6:45:00 AM 7.47 45.446 0.241 8.54 10.65 11.31
11/1/2020 7:00:00 AM 7.46 45.428 0.24 8.53 10.5 11.31
11/1/2020 7:15:00 AM 7.45 45.41 0.24 8.52 10.64 11.32
11/1/2020 7:30:00 AM 7.44 45.392 0.24 8.52 10.28 11.31
11/1/2020 7:45:00 AM 7.43 45.374 0.24 8.52 10.04 11.31
11/1/2020 8:00:00 AM 7.43 45.374 0.239 8.52 9.86 11.32
11/1/2020 8:15:00 AM 7.42 45.356 0.239 8.52 10.13 11.32
11/1/2020 8:30:00 AM 7.41 45.338 0.239 8.52 10.23 11.33
11/1/2020 8:45:00 AM 7.41 45.338 0.238 8.52 9.56 11.34
11/1/2020 9:00:00 AM 7.41 45.338 0.238 8.52 9.82 11.35
11/1/2020 9:15:00 AM 7.4 45.32 0.237 8.53 9.28 11.36
11/1/2020 9:30:00 AM 7.4 45.32 0.237 8.53 9.39 11.37
11/1/2020 9:45:00 AM 7.43 45.374 0.237 8.55 9.56 11.38
11/1/2020 10:00:00 AM 7.43 45.374 0.236 8.55 9.46 11.41
11/1/2020 10:15:00 AM 7.44 45.392 0.236 8.57 9.42 11.43
11/1/2020 10:30:00 AM 7.47 45.446 0.235 8.57 10.24 11.45
11/1/2020 10:45:00 AM 7.48 45.464 0.235 8.59 9.22 11.48
11/1/2020 11:00:00 AM 7.51 45.518 0.234 8.57 9.82 11.51
11/1/2020 11:15:00 AM 7.52 45.536 0.234 8.58 9.8 11.53
11/1/2020 11:30:00 AM 7.5 45.5 0.233 8.57 9.84 11.54
11/1/2020 11:45:00 AM 7.49 45.482 0.233 8.56 8.96 11.56
11/1/2020 12:00:00 PM 7.48 45.464 0.232 8.56 9.07 11.56
11/1/2020 12:15:00 PM 7.47 45.446 0.232 8.56 8.63 11.56
11/1/2020 12:30:00 PM 7.47 45.446 0.231 8.55 8.5 11.56
11/1/2020 12:45:00 PM 7.47 45.446 0.231 8.55 9.11 11.57
11/1/2020 1:00:00 PM 7.46 45.428 0.23 8.55 9.88 11.57
11/1/2020 1:15:00 PM 7.46 45.428 0.229 8.55 10.95 11.58
11/1/2020 1:30:00 PM 7.47 45.446 0.229 8.56 9.06 11.59
11/1/2020 1:45:00 PM 7.48 45.464 0.228 8.56 8.8 11.6
11/1/2020 2:00:00 PM 7.49 45.482 0.228 8.58 8.67 11.61
11/1/2020 2:15:00 PM 7.53 45.554 0.227 8.56 8.36 11.61
11/1/2020 2:30:00 PM 7.54 45.572 0.227 8.56 8.99 11.62
11/1/2020 2:45:00 PM 7.55 45.59 0.226 8.56 8.72 11.63
11/1/2020 3:00:00 PM 7.56 45.608 0.225 8.56 8.52 11.63
11/1/2020 3:15:00 PM 7.57 45.626 0.225 8.55 8.56 11.62
11/1/2020 3:30:00 PM 7.57 45.626 0.224 8.54 8.5 11.61
11/1/2020 3:45:00 PM 7.57 45.626 0.224 8.54 8.51 11.6
11/1/2020 4:00:00 PM 7.57 45.626 0.223 8.54 8.47 11.59
11/1/2020 4:15:00 PM 7.57 45.626 0.223 8.53 8.25 11.57
11/1/2020 4:30:00 PM 7.55 45.59 0.222 8.51 8.85 11.56
11/1/2020 4:45:00 PM 7.53 45.554 0.221 8.5 8.75 11.54
11/1/2020 5:00:00 PM 7.52 45.536 0.221 8.49 8.52 11.53
11/1/2020 5:15:00 PM 7.51 45.518 0.22 8.49 9.06 11.52
11/1/2020 5:30:00 PM 7.5 45.5 0.22 8.48 10.44 11.51
11/1/2020 5:45:00 PM 7.48 45.464 0.22 8.48 9.76 11.49
11/1/2020 6:00:00 PM 7.48 45.464 0.219 8.47 9.11 11.48
11/1/2020 6:15:00 PM 7.47 45.446 0.219 8.47 8.83 11.47
11/1/2020 6:30:00 PM 7.46 45.428 0.219 8.47 9.21 11.45
11/1/2020 6:45:00 PM 7.45 45.41 0.218 8.47 9.5 11.44
11/1/2020 7:00:00 PM 7.45 45.41 0.218 8.45 9.29 11.42
11/1/2020 7:15:00 PM 7.44 45.392 0.218 8.45 8.91 11.42
11/1/2020 7:30:00 PM 7.43 45.374 0.218 8.47 9.22 11.4
11/1/2020 7:45:00 PM 7.41 45.338 0.218 8.45 10.1 11.39
11/1/2020 8:00:00 PM 7.4 45.32 0.217 8.45 9.02 11.38
11/1/2020 8:15:00 PM 7.38 45.284 0.217 8.43 9.67 11.37
11/1/2020 8:30:00 PM 7.35 45.23 0.217 8.42 9.16 11.36
11/1/2020 8:45:00 PM 7.32 45.176 0.217 8.42 9.18 11.36
11/1/2020 9:00:00 PM 7.29 45.122 0.217 8.41 8.95 11.36
11/1/2020 9:15:00 PM 7.27 45.086 0.217 8.41 9.15 11.35
11/1/2020 9:30:00 PM 7.25 45.05 0.217 8.42 9.15 11.35
11/1/2020 9:45:00 PM 7.22 44.996 0.217 8.41 9.23 11.36
11/1/2020 10:00:00 PM 7.18 44.924 0.217 8.4 9.15 11.35
11/1/2020 10:15:00 PM 7.15 44.87 0.217 8.4 9.85 11.36
11/1/2020 10:30:00 PM 7.11 44.798 0.217 8.41 9.44 11.36
11/1/2020 10:45:00 PM 7.09 44.762 0.217 8.41 9.05 11.36
11/1/2020 11:00:00 PM 7.08 44.744 0.217 8.43 9.46 11.37
11/1/2020 11:15:00 PM 7.06 44.708 0.217 8.44 9.43 11.37
11/1/2020 11:30:00 PM 7.05 44.69 0.217 8.44 10.05 11.38
11/1/2020 11:45:00 PM 7.04 44.672 0.218 8.44 9.24 11.37
11/2/2020 12:00:00 AM 7.03 44.654 0.218 8.44 9.04 11.38
11/2/2020 12:15:00 AM 7.02 44.636 0.218 8.45 9.4 11.37
11/2/2020 12:30:00 AM 7 44.6 0.218 8.44 8.93 11.38
11/2/2020 12:45:00 AM 7 44.6 0.218 8.45 9.11 11.38
11/2/2020 1:00:00 AM 6.98 44.564 0.218 8.45 9.39 11.39
11/2/2020 1:15:00 AM 6.97 44.546 0.218 8.45 8.9 11.39
11/2/2020 1:30:00 AM 6.96 44.528 0.218 8.45 8.95 11.39
11/2/2020 1:45:00 AM 6.96 44.528 0.218 8.45 9.3 11.4
11/2/2020 2:00:00 AM 6.95 44.51 0.219 8.45 8.94 11.4
11/2/2020 2:15:00 AM 6.94 44.492 0.219 8.44 8.86 11.4
11/2/2020 2:30:00 AM 6.93 44.474 0.219 8.45 8.99 11.41
11/2/2020 2:45:00 AM 6.91 44.438 0.219 8.44 11.34 11.41
11/2/2020 3:00:00 AM 6.91 44.438 0.219 8.44 9.35 11.41
11/2/2020 3:15:00 AM 6.89 44.402 0.219 8.44 8.71 11.42
11/2/2020 3:30:00 AM 6.88 44.384 0.219 8.42 8.93 11.42
11/2/2020 3:45:00 AM 6.86 44.348 0.219 8.39 8.62 11.43
11/2/2020 4:00:00 AM 6.83 44.294 0.219 8.37 8.88 11.43
11/2/2020 4:15:00 AM 6.81 44.258 0.219 8.34 9.38 11.44
11/2/2020 4:30:00 AM 6.79 44.222 0.219 8.33 8.9 11.45
11/2/2020 4:45:00 AM 6.77 44.186 0.219 8.27 8.9 11.46
11/2/2020 5:00:00 AM 6.73 44.114 0.219 8.19 10.08 11.46
11/2/2020 5:15:00 AM 6.68 44.024 0.219 8.17 9.09 11.48
11/2/2020 5:30:00 AM 6.62 43.916 0.219 8.1 9.06 11.5
11/2/2020 5:45:00 AM 6.59 43.862 0.219 8.01 8.77 11.51
11/2/2020 6:00:00 AM 6.55 43.79 0.219 7.98 9.1 11.52
11/2/2020 6:15:00 AM 6.51 43.718 0.219 8.06 9.1 11.52
11/2/2020 6:30:00 AM 6.46 43.628 0.219 7.99 10.01 11.53
11/2/2020 6:45:00 AM 6.43 43.574 0.219 7.93 9.26 11.54
11/2/2020 7:00:00 AM 6.39 43.502 0.219 7.98 9.11 11.55
11/2/2020 7:15:00 AM 6.36 43.448 0.219 8 8.62 11.56
11/2/2020 7:30:00 AM 6.31 43.358 0.219 7.89 8.62 11.57
11/2/2020 7:45:00 AM 6.28 43.304 0.219 7.88 8.6 11.59
11/2/2020 8:00:00 AM 6.26 43.268 0.218 7.93 8.94 11.61
11/2/2020 8:15:00 AM 6.22 43.196 0.218 7.86 8.6 11.64
11/2/2020 8:30:00 AM 6.2 43.16 0.218 7.89 8.45 11.67
11/2/2020 8:45:00 AM 6.18 43.124 0.218 7.99 11.23 11.7
11/2/2020 9:00:00 AM 6.16 43.088 0.218 7.95 9.19 11.75
11/2/2020 9:15:00 AM 6.14 43.052 0.218 8.14 13.01 11.81
11/2/2020 9:30:00 AM 6.13 43.034 0.218 8.01 9.86 11.84
11/2/2020 9:45:00 AM 6.14 43.052 0.217 8.06 8.76 11.88
11/2/2020 10:00:00 AM 6.15 43.07 0.217 8.09 8.74 11.92
11/2/2020 10:15:00 AM 6.21 43.178 0.217 8.14 8.48 11.92
11/2/2020 10:30:00 AM 6.26 43.268 0.218 8.15 8.48 11.95
11/2/2020 10:45:00 AM 6.15 43.07 0.217 8.22 9.09 12.04
11/2/2020 11:00:00 AM 6.12 43.016 0.216 8.21 8.64 12.09
11/2/2020 11:15:00 AM 6.15 43.07 0.216 8.21 8.7 12.13
11/2/2020 11:30:00 AM 6.19 43.142 0.216 8.25 8.68 12.17
11/2/2020 11:45:00 AM 6.23 43.214 0.216 8.4 8.43 12.21
11/2/2020 12:00:00 PM 6.28 43.304 0.215 8.37 8.37 12.24
11/2/2020 12:15:00 PM 6.34 43.412 0.215 8.44 8.59 12.27
11/2/2020 12:30:00 PM 6.39 43.502 0.215 8.19 8.48 12.3
11/2/2020 12:45:00 PM 6.42 43.556 0.215 8.41 8.39 12.32
11/2/2020 1:00:00 PM 6.5 43.7 0.214 8.34 8.77 12.34
11/2/2020 1:15:00 PM 6.57 43.826 0.214 8.43 8.56 12.37
11/2/2020 1:30:00 PM 6.65 43.97 0.214 8.38 8.72 12.39
11/2/2020 1:45:00 PM 6.68 44.024 0.213 8.44 8.61 12.41
11/2/2020 2:00:00 PM 6.72 44.096 0.213 8.36 8.41 12.42
11/2/2020 2:15:00 PM 6.77 44.186 0.213 8.35 8.57 12.44
11/2/2020 2:30:00 PM 6.8 44.24 0.213 8.45 8.56 12.46
11/2/2020 2:45:00 PM 6.84 44.312 0.213 8.32 8.27 12.47
11/2/2020 3:00:00 PM 6.83 44.294 0.212 8.3 8.43 12.48
11/2/2020 3:15:00 PM 6.79 44.222 0.212 8.35 8.56 12.49
11/2/2020 3:30:00 PM 6.78 44.204 0.212 8.34 8.55 12.5
11/2/2020 3:45:00 PM 6.71 44.078 0.212 8.32 8.54 12.5
11/2/2020 4:00:00 PM 6.64 43.952 0.211 8.51 8.52 12.5
11/2/2020 4:15:00 PM 6.58 43.844 0.211 8.36 8.54 12.49
11/2/2020 4:30:00 PM 6.5 43.7 0.211 8.38 8.29 12.47
11/2/2020 4:45:00 PM 6.42 43.556 0.211 8.34 8.46 12.45
11/2/2020 5:00:00 PM 6.34 43.412 0.211 8.47 8.64 12.42
11/2/2020 5:15:00 PM 6.27 43.286 0.211 8.4 8.49 12.39
11/2/2020 5:30:00 PM 6.19 43.142 0.21 8.27 9.73 12.37
11/2/2020 5:45:00 PM 6.13 43.034 0.21 8.21 9.12 12.34
11/2/2020 6:00:00 PM 6.05 42.89 0.21 8.19 9.02 12.32
11/2/2020 6:15:00 PM 6.01 42.818 0.21 8.2 8.94 12.29
11/2/2020 6:30:00 PM 5.96 42.728 0.209 8.3 8.79 12.27
11/2/2020 6:45:00 PM 5.92 42.656 0.209 8.16 8.89 12.25
11/2/2020 7:00:00 PM 5.89 42.602 0.209 8.13 8.85 12.23
11/2/2020 7:15:00 PM 5.86 42.548 0.209 8.2 8.97 12.22
11/2/2020 7:30:00 PM 5.82 42.476 0.209 8.18 8.94 12.2
11/2/2020 7:45:00 PM 5.79 42.422 0.208 8.2 9.03 12.19
11/2/2020 8:00:00 PM 5.77 42.386 0.208 8.25 8.88 12.17
11/2/2020 8:15:00 PM 5.74 42.332 0.208 8.24 8.93 12.15
11/2/2020 8:30:00 PM 5.73 42.314 0.208 8.3 9.11 12.14
11/2/2020 8:45:00 PM 5.71 42.278 0.207 8.23 9.01 12.12
11/2/2020 9:00:00 PM 5.69 42.242 0.207 8.31 9.7 12.11
11/2/2020 9:15:00 PM 5.67 42.206 0.207 8.18 9.6 12.09
11/2/2020 9:30:00 PM 5.65 42.17 0.207 8.29 9.11 12.08
11/2/2020 9:45:00 PM 5.65 42.17 0.206 8.31 9.48 12.07
11/2/2020 10:00:00 PM 5.63 42.134 0.206 8.13 8.63 12.06
11/2/2020 10:15:00 PM 5.63 42.134 0.206 8.08 11.14 12.05
11/2/2020 10:30:00 PM 5.86 42.548 0.207 8.03 13.26 11.85
11/2/2020 10:45:00 PM 5.63 42.134 0.206 8.08 9.03 12.04
11/2/2020 11:00:00 PM 5.62 42.116 0.205 8.07 9.1 12.04
11/2/2020 11:15:00 PM 5.61 42.098 0.205 8.12 8.95 12.03
11/2/2020 11:30:00 PM 5.61 42.098 0.205 8.08 8.61 12.03
11/2/2020 11:45:00 PM 5.6 42.08 0.205 8.09 8.57 12.03
11/3/2020 12:00:00 AM 5.6 42.08 0.204 8.06 8.78 12.03
11/3/2020 12:15:00 AM 5.6 42.08 0.204 8.08 8.53 12.03
11/3/2020 12:30:00 AM 5.6 42.08 0.204 8.14 8.77 12.03
11/3/2020 12:45:00 AM 5.59 42.062 0.204 8.05 8.49 12.03
11/3/2020 1:00:00 AM 5.58 42.044 0.203 8.17 8.17 12.03
11/3/2020 1:15:00 AM 5.57 42.026 0.203 8.2 8.64 12.03
11/3/2020 1:30:00 AM 5.56 42.008 0.203 8.2 8.6 12.04
11/3/2020 1:45:00 AM 5.55 41.99 0.203 8.08 8.84 12.04
11/3/2020 2:00:00 AM 5.54 41.972 0.203 8.01 13.6 12.04
11/3/2020 2:15:00 AM 5.53 41.954 0.202 8.05 8.46 12.04
11/3/2020 2:30:00 AM 5.52 41.936 0.202 8.15 8.31 12.05
11/3/2020 2:45:00 AM 5.52 41.936 0.202 8.19 9.8 12.04
11/3/2020 3:00:00 AM 5.51 41.918 0.202 8.13 10.01 12.04
11/3/2020 3:15:00 AM 5.51 41.918 0.202 8.15 8.42 12.05
11/3/2020 3:30:00 AM 5.51 41.918 0.202 8.06 9.43 12.05
11/3/2020 3:45:00 AM 5.52 41.936 0.201 8.08 8.96 12.05
11/3/2020 4:00:00 AM 5.53 41.954 0.201 8.05 18.15 12.05
11/3/2020 4:15:00 AM 5.54 41.972 0.201 8.02 9.24 12.04
11/3/2020 4:30:00 AM 5.55 41.99 0.201 8.01 8.35 12.04
11/3/2020 4:45:00 AM 5.57 42.026 0.201 8 8.36 12.05
11/3/2020 5:00:00 AM 5.59 42.062 0.2 7.98 8.46 12.04
11/3/2020 5:15:00 AM 5.6 42.08 0.2 7.97 8 12.04
11/3/2020 5:30:00 AM 5.61 42.098 0.2 8.03 8.21 12.04
11/3/2020 5:45:00 AM 5.63 42.134 0.2 7.93 7.97 12.04
11/3/2020 6:00:00 AM 5.64 42.152 0.2 7.98 8.16 12.04
11/3/2020 6:15:00 AM 5.65 42.17 0.2 7.95 8.05 12.04
11/3/2020 6:30:00 AM 5.67 42.206 0.199 8.02 8.13 12.04
11/3/2020 6:45:00 AM 5.67 42.206 0.199 7.98 7.99 12.04
11/3/2020 7:00:00 AM 5.69 42.242 0.199 7.97 7.78 12.04
11/3/2020 7:15:00 AM 5.7 42.26 0.199 7.95 8.05 12.04
11/3/2020 7:30:00 AM 5.7 42.26 0.199 7.97 7.64 12.03
11/3/2020 7:45:00 AM 5.71 42.278 0.199 7.97 8.6 12.03
11/3/2020 8:00:00 AM 5.71 42.278 0.199 7.93 9.29 12.04
11/3/2020 8:15:00 AM 5.71 42.278 0.199 7.94 8.38 12.05
11/3/2020 8:30:00 AM 5.73 42.314 0.199 7.96 7.89 12.06
11/3/2020 8:45:00 AM 5.73 42.314 0.199 7.95 7.67 12.07
11/3/2020 9:00:00 AM 5.73 42.314 0.199 7.97 7.76 12.08
11/3/2020 9:15:00 AM 5.75 42.35 0.199 7.96 8.24 12.11
11/3/2020 9:30:00 AM 5.75 42.35 0.198 7.98 7.72 12.12
11/3/2020 9:45:00 AM 5.76 42.368 0.198 7.99 7.77 12.15
11/3/2020 10:00:00 AM 5.76 42.368 0.198 8.02 7.68 12.18
11/3/2020 10:15:00 AM 5.77 42.386 0.198 7.95 7.71 12.21
11/3/2020 10:30:00 AM 5.8 42.44 0.198 7.96 7.44 12.23
11/3/2020 10:45:00 AM 5.84 42.512 0.198 7.98 7.78 12.26
11/3/2020 11:00:00 AM 5.86 42.548 0.198 7.97 7.47 12.29
11/3/2020 11:15:00 AM 5.94 42.692 0.198 8.07 7.56 12.33
11/3/2020 11:30:00 AM 6.01 42.818 0.198 8.12 7.11 12.36
11/3/2020 11:45:00 AM 6.1 42.98 0.198 8.1 7.5 12.39
11/3/2020 12:00:00 PM 6.23 43.214 0.198 8.08 8.21 12.43
11/3/2020 12:15:00 PM 6.33 43.394 0.198 8.08 9.94 12.46
11/3/2020 12:30:00 PM 6.45 43.61 0.198 8.11 9.75 12.49
11/3/2020 12:45:00 PM 6.53 43.754 0.197 8.1 8.11 12.51
11/3/2020 1:00:00 PM 6.59 43.862 0.197 8.12 7.23 12.54
11/3/2020 1:15:00 PM 6.63 43.934 0.197 8.11 7.58 12.56
11/3/2020 1:30:00 PM 6.66 43.988 0.197 8.07 7.69 12.58
11/3/2020 1:45:00 PM 6.67 44.006 0.197 8.1 7.37 12.59
11/3/2020 2:00:00 PM 6.68 44.024 0.197 8.13 7.2 12.61
11/3/2020 2:15:00 PM 6.67 44.006 0.197 8.12 7.08 12.63
11/3/2020 2:30:00 PM 6.67 44.006 0.197 8.11 7.23 12.64
11/3/2020 2:45:00 PM 6.64 43.952 0.197 8.4 7.26 12.65
11/3/2020 3:00:00 PM 6.61 43.898 0.197 8.4 7.39 12.66
11/3/2020 3:15:00 PM 6.58 43.844 0.197 8.37 7.05 12.67
11/3/2020 3:30:00 PM 6.58 43.844 0.197 8.25 7 12.67
11/3/2020 3:45:00 PM 6.55 43.79 0.197 8.2 7.09 12.67
11/3/2020 4:00:00 PM 6.5 43.7 0.197 8.17 7.02 12.67
11/3/2020 4:15:00 PM 6.45 43.61 0.197 8.15 7.3 12.66
11/3/2020 4:30:00 PM 6.4 43.52 0.197 8.14 6.97 12.64
11/3/2020 4:45:00 PM 6.34 43.412 0.197 8.09 6.91 12.62
11/3/2020 5:00:00 PM 6.28 43.304 0.197 8.07 7.04 12.59
11/3/2020 5:15:00 PM 6.21 43.178 0.197 8.03 10.19 12.56
11/3/2020 5:30:00 PM 6.15 43.07 0.197 8.09 7.56 12.53
11/3/2020 5:45:00 PM 6.09 42.962 0.197 7.95 7.16 12.49
11/3/2020 6:00:00 PM 6.02 42.836 0.197 7.89 7.27 12.46
11/3/2020 6:15:00 PM 5.97 42.746 0.197 7.88 7.29 12.43
11/3/2020 6:30:00 PM 5.91 42.638 0.197 7.89 7.35 12.4
11/3/2020 6:45:00 PM 5.86 42.548 0.197 7.98 7.62 12.37
11/3/2020 7:00:00 PM 5.81 42.458 0.197 7.94 7.67 12.35
11/3/2020 7:15:00 PM 5.76 42.368 0.197 7.98 8.99 12.33
11/3/2020 7:30:00 PM 5.72 42.296 0.197 7.94 9.07 12.31
11/3/2020 7:45:00 PM 5.67 42.206 0.197 7.94 9.76 12.29
11/3/2020 8:00:00 PM 5.63 42.134 0.197 7.89 10.16 12.27
11/3/2020 8:15:00 PM 5.58 42.044 0.197 7.97 8.28 12.26
11/3/2020 8:30:00 PM 5.55 41.99 0.197 7.91 8.06 12.24
11/3/2020 8:45:00 PM 5.51 41.918 0.197 8 7.84 12.23
11/3/2020 9:00:00 PM 5.47 41.846 0.197 8.08 8.2 12.21
11/3/2020 9:15:00 PM 5.44 41.792 0.197 8.09 7.43 12.2
11/3/2020 9:30:00 PM 5.4 41.72 0.197 8 7.76 12.2
11/3/2020 9:45:00 PM 5.38 41.684 0.197 7.92 7.56 12.19
11/3/2020 10:00:00 PM 5.36 41.648 0.197 7.95 7.71 12.18
11/3/2020 10:15:00 PM 5.34 41.612 0.197 7.93 8.58 12.17
11/3/2020 10:30:00 PM 5.9 42.62 0.201 7.84 19.62 11.71
11/3/2020 10:45:00 PM 5.31 41.558 0.197 7.94 7.57 12.16
11/3/2020 11:00:00 PM 5.28 41.504 0.197 7.95 7.74 12.17
11/3/2020 11:15:00 PM 5.26 41.468 0.197 7.94 7.63 12.17
11/3/2020 11:30:00 PM 5.24 41.432 0.197 7.91 12.16 12.17
11/3/2020 11:45:00 PM 5.23 41.414 0.197 7.93 8.08 12.17
11/4/2020 12:00:00 AM 5.22 41.396 0.198 7.97 7.8 12.18
11/4/2020 12:15:00 AM 5.21 41.378 0.198 7.92 7.72 12.18
11/4/2020 12:30:00 AM 5.19 41.342 0.198 7.98 7.83 12.19
11/4/2020 12:45:00 AM 5.19 41.342 0.198 7.92 8.39 12.19
11/4/2020 1:00:00 AM 5.18 41.324 0.198 7.89 8.06 12.19
11/4/2020 1:15:00 AM 5.17 41.306 0.198 7.9 7.85 12.19
11/4/2020 1:30:00 AM 5.17 41.306 0.198 7.88 7.82 12.2
11/4/2020 1:45:00 AM 5.17 41.306 0.198 7.91 8.12 12.2
11/4/2020 2:00:00 AM 5.16 41.288 0.198 7.95 9.39 12.21
11/4/2020 2:15:00 AM 5.15 41.27 0.198 7.95 8.1 12.21
11/4/2020 2:30:00 AM 5.15 41.27 0.198 8.01 8.02 12.22
11/4/2020 2:45:00 AM 5.14 41.252 0.198 8.02 7.86 12.22
11/4/2020 3:00:00 AM 5.13 41.234 0.198 7.99 7.78 12.23
11/4/2020 3:15:00 AM 5.12 41.216 0.198 8.02 7.85 12.23
11/4/2020 3:30:00 AM 5.12 41.216 0.198 8.02 7.73 12.24
11/4/2020 3:45:00 AM 5.12 41.216 0.198 7.99 7.56 12.25
11/4/2020 4:00:00 AM 5.09 41.162 0.198 7.97 7.45 12.25
11/4/2020 4:15:00 AM 5.09 41.162 0.199 7.95 7.39 12.26
11/4/2020 4:30:00 AM 5.09 41.162 0.199 7.97 8.37 12.27
11/4/2020 4:45:00 AM 5.09 41.162 0.199 7.96 7.9 12.27
11/4/2020 5:00:00 AM 5.08 41.144 0.199 7.95 8.24 12.28
11/4/2020 5:15:00 AM 5.07 41.126 0.199 8.02 8.44 12.29
11/4/2020 5:30:00 AM 5.05 41.09 0.199 7.99 8.06 12.29
11/4/2020 5:45:00 AM 5.05 41.09 0.199 7.98 7.99 12.31
11/4/2020 6:00:00 AM 5.05 41.09 0.199 7.92 7.5 12.31
11/4/2020 6:15:00 AM 5.04 41.072 0.199 7.93 7.9 12.33
11/4/2020 6:30:00 AM 5.03 41.054 0.199 7.94 10.31 12.33
11/4/2020 6:45:00 AM 5.02 41.036 0.2 7.9 7.62 12.34
11/4/2020 7:00:00 AM 5.02 41.036 0.2 7.89 7.45 12.36
11/4/2020 7:15:00 AM 5.01 41.018 0.2 7.86 7.25 12.37
11/4/2020 7:30:00 AM 5.01 41.018 0.2 7.91 7.2 12.38
11/4/2020 7:45:00 AM 5.02 41.036 0.2 7.85 7.37 12.4
11/4/2020 8:00:00 AM 5.02 41.036 0.2 7.88 7.34 12.43
11/4/2020 8:15:00 AM 5.04 41.072 0.2 7.87 7.38 12.46
11/4/2020 8:30:00 AM 5.07 41.126 0.2 7.94 7.18 12.49
11/4/2020 8:45:00 AM 5.11 41.198 0.2 8.01 7.97 12.53
11/4/2020 9:00:00 AM 5.16 41.288 0.2 8.02 8.76 12.56
11/4/2020 9:15:00 AM 5.22 41.396 0.2 8.05 8.53 12.6
11/4/2020 9:30:00 AM 5.31 41.558 0.2 8.1 14.45 12.63
11/4/2020 9:45:00 AM 5.41 41.738 0.2 8.08 10.68 12.67
11/4/2020 10:00:00 AM 5.53 41.954 0.2 8.12 9.08 12.7
11/4/2020 10:15:00 AM 5.66 42.188 0.201 8.16 7.93 12.73
11/4/2020 10:30:00 AM 5.8 42.44 0.201 8.15 7.57 12.76
11/4/2020 10:45:00 AM 5.96 42.728 0.201 8.16 7.73 12.79
11/4/2020 11:00:00 AM 6.1 42.98 0.201 8.21 7.39 12.81
11/4/2020 11:15:00 AM 6.26 43.268 0.201 8.19 7.31 12.84
11/4/2020 11:30:00 AM 6.42 43.556 0.201 8.22 7.29 12.87
11/4/2020 11:45:00 AM 6.59 43.862 0.201 8.27 7.46 12.9
11/4/2020 12:00:00 PM 6.75 44.15 0.201 8.27 7.13 12.93
11/4/2020 12:15:00 PM 6.91 44.438 0.201 8.23 6.82 12.95
11/4/2020 12:30:00 PM 7.09 44.762 0.201 8.19 7.32 12.96
11/4/2020 12:45:00 PM 7.24 45.032 0.201 8.19 7.87 12.99
11/4/2020 1:00:00 PM 7.41 45.338 0.201 8.2 7.73 13.01
11/4/2020 1:15:00 PM 7.55 45.59 0.201 8.2 7.46 13.03
11/4/2020 1:30:00 PM 7.71 45.878 0.201 8.22 8.36 13.04
11/4/2020 1:45:00 PM 7.84 46.112 0.201 8.31 7.22 13.06
11/4/2020 2:00:00 PM 7.94 46.292 0.201 8.32 6.73 13.07
11/4/2020 2:15:00 PM 8 46.4 0.201 8.26 6.74 13.09
11/4/2020 2:30:00 PM 8.09 46.562 0.201 8.24 6.58 13.1
11/4/2020 2:45:00 PM 8.13 46.634 0.202 8.24 6.88 13.09
11/4/2020 3:00:00 PM 8.15 46.67 0.202 8.22 6.66 13.09
11/4/2020 3:15:00 PM 8.13 46.634 0.202 8.25 6.74 13.09
11/4/2020 3:30:00 PM 8.1 46.58 0.202 8.21 7.25 13.09
11/4/2020 3:45:00 PM 8.07 46.526 0.202 8.22 6.68 13.08
11/4/2020 4:00:00 PM 8.01 46.418 0.202 8.17 6.41 13.06
11/4/2020 4:15:00 PM 7.93 46.274 0.202 8.17 6.47 13.03
11/4/2020 4:30:00 PM 7.84 46.112 0.202 8.18 6.9 12.99
11/4/2020 4:45:00 PM 7.76 45.968 0.202 8.13 7.12 12.95
11/4/2020 5:00:00 PM 7.65 45.77 0.203 8.07 7.45 12.9
11/4/2020 5:15:00 PM 7.54 45.572 0.203 8.07 7.25 12.85
11/4/2020 5:30:00 PM 7.43 45.374 0.203 8.05 7.38 12.8
11/4/2020 5:45:00 PM 7.32 45.176 0.203 8.03 7.43 12.75
11/4/2020 6:00:00 PM 7.23 45.014 0.203 8.02 7.84 12.69
11/4/2020 6:15:00 PM 7.12 44.816 0.203 8.02 7 12.65
11/4/2020 6:30:00 PM 7.04 44.672 0.203 7.98 6.82 12.61
11/4/2020 6:45:00 PM 6.94 44.492 0.203 7.94 6.79 12.58
11/4/2020 7:00:00 PM 6.87 44.366 0.203 7.93 7.05 12.55
11/4/2020 7:15:00 PM 6.79 44.222 0.203 7.91 7.23 12.52
11/4/2020 7:30:00 PM 6.73 44.114 0.203 7.91 7.13 12.49
11/4/2020 7:45:00 PM 6.66 43.988 0.204 7.91 6.97 12.47
11/4/2020 8:00:00 PM 6.6 43.88 0.204 7.91 6.96 12.45
11/4/2020 8:15:00 PM 6.54 43.772 0.204 7.9 6.89 12.43
11/4/2020 8:30:00 PM 6.48 43.664 0.204 7.89 7.23 12.41
11/4/2020 8:45:00 PM 6.44 43.592 0.204 7.9 7.05 12.39
11/4/2020 9:00:00 PM 6.39 43.502 0.204 7.9 7.11 12.37
11/4/2020 9:15:00 PM 6.34 43.412 0.204 7.9 7.15 12.35
11/4/2020 9:30:00 PM 6.3 43.34 0.204 7.88 8.8 12.33
11/4/2020 9:45:00 PM 6.26 43.268 0.204 7.9 7.85 12.32
11/4/2020 10:00:00 PM 6.23 43.214 0.204 7.88 7.2 12.31
11/4/2020 10:15:00 PM 6.2 43.16 0.204 7.89 6.9 12.29
11/4/2020 10:30:00 PM 6.87 44.366 0.208 7.79 23.73 11.59
11/4/2020 10:45:00 PM 6.19 43.142 0.204 7.94 7.2 12.24
11/4/2020 11:00:00 PM 6.14 43.052 0.204 7.91 7.08 12.26
11/4/2020 11:15:00 PM 6.12 43.016 0.204 7.88 7.41 12.25
11/4/2020 11:30:00 PM 6.1 42.98 0.204 7.89 7.14 12.25
11/4/2020 11:45:00 PM 6.09 42.962 0.204 7.89 7.22 12.24
11/5/2020 12:00:00 AM 6.08 42.944 0.204 7.9 6.88 12.24
11/5/2020 12:15:00 AM 6.07 42.926 0.204 7.91 7.54 12.24
11/5/2020 12:30:00 AM 6.07 42.926 0.204 7.91 7.16 12.24
11/5/2020 12:45:00 AM 6.06 42.908 0.204 7.89 7.02 12.24
11/5/2020 1:00:00 AM 6.05 42.89 0.204 7.91 7.01 12.24
11/5/2020 1:15:00 AM 6.05 42.89 0.204 7.91 7.18 12.24
11/5/2020 1:30:00 AM 6.04 42.872 0.204 7.89 7.27 12.25
11/5/2020 1:45:00 AM 6.03 42.854 0.204 7.91 6.9 12.24
11/5/2020 2:00:00 AM 6.02 42.836 0.204 7.91 7.04 12.25
11/5/2020 2:15:00 AM 6.02 42.836 0.204 7.95 7.47 12.24
11/5/2020 2:30:00 AM 6.01 42.818 0.204 7.99 7.37 12.25
11/5/2020 2:45:00 AM 6.01 42.818 0.204 7.98 7.01 12.26
11/5/2020 3:00:00 AM 6 42.8 0.204 7.96 6.99 12.25
11/5/2020 3:15:00 AM 6 42.8 0.204 7.96 6.91 12.26
11/5/2020 3:30:00 AM 5.99 42.782 0.204 7.94 7.4 12.26
11/5/2020 3:45:00 AM 5.99 42.782 0.204 7.92 7.06 12.26
11/5/2020 4:00:00 AM 5.99 42.782 0.204 7.91 7.04 12.26
11/5/2020 4:15:00 AM 5.99 42.782 0.204 7.94 6.96 12.25
11/5/2020 4:30:00 AM 5.98 42.764 0.204 7.94 7.18 12.25
11/5/2020 4:45:00 AM 6 42.8 0.204 7.93 7.86 12.26
11/5/2020 5:00:00 AM 6 42.8 0.204 7.94 7.72 12.26
11/5/2020 5:15:00 AM 6 42.8 0.204 7.93 6.98 12.25
11/5/2020 5:30:00 AM 6.01 42.818 0.204 7.91 14.56 12.25
11/5/2020 5:45:00 AM 6.01 42.818 0.204 7.94 9 12.25
11/5/2020 6:00:00 AM 6.04 42.872 0.204 7.97 7.58 12.26
11/5/2020 6:15:00 AM 6.04 42.872 0.204 7.91 7.12 12.25
11/5/2020 6:30:00 AM 6.06 42.908 0.204 7.98 9.66 12.25
11/5/2020 6:45:00 AM 6.05 42.89 0.204 7.95 7.13 12.25
11/5/2020 7:00:00 AM 6.05 42.89 0.204 7.91 7.14 12.25
11/5/2020 7:15:00 AM 6.07 42.926 0.204 7.92 6.86 12.26
11/5/2020 7:30:00 AM 6.09 42.962 0.204 7.94 9.53 12.26
11/5/2020 7:45:00 AM 6.11 42.998 0.204 7.93 7.01 12.28
11/5/2020 8:00:00 AM 6.14 43.052 0.204 7.96 6.93 12.29
11/5/2020 8:15:00 AM 6.18 43.124 0.204 7.99 7.36 12.31
11/5/2020 8:30:00 AM 6.22 43.196 0.204 8.01 7.2 12.33
11/5/2020 8:45:00 AM 6.29 43.322 0.204 8.05 6.95 12.38
11/5/2020 9:00:00 AM 6.35 43.43 0.204 8.11 7 12.42
11/5/2020 9:15:00 AM 6.45 43.61 0.204 8.1 6.99 12.46
11/5/2020 9:30:00 AM 6.54 43.772 0.204 8.1 6.79 12.49
11/5/2020 9:45:00 AM 6.66 43.988 0.204 8.16 6.82 12.53
11/5/2020 10:00:00 AM 6.78 44.204 0.204 8.15 8.83 12.57
11/5/2020 10:15:00 AM 6.93 44.474 0.204 8.18 7.58 12.6
11/5/2020 10:30:00 AM 7.08 44.744 0.204 8.21 7.93 12.64
11/5/2020 10:45:00 AM 7.23 45.014 0.204 8.24 6.65 12.67
11/5/2020 11:00:00 AM 7.4 45.32 0.204 8.23 9.2 12.71
11/5/2020 11:15:00 AM 7.56 45.608 0.204 8.27 10.58 12.73
11/5/2020 11:30:00 AM 7.73 45.914 0.204 8.28 7.67 12.78
11/5/2020 11:45:00 AM 7.88 46.184 0.204 8.29 7.14 12.81
11/5/2020 12:00:00 PM 8.04 46.472 0.204 8.31 6.41 12.84
11/5/2020 12:15:00 PM 8.2 46.76 0.204 8.32 6.21 12.87
11/5/2020 12:30:00 PM 8.38 47.084 0.204 8.33 6.41 12.89
11/5/2020 12:45:00 PM 8.53 47.354 0.204 8.34 6.46 12.92
11/5/2020 1:00:00 PM 8.69 47.642 0.204 8.33 6.17 12.95
11/5/2020 1:15:00 PM 8.82 47.876 0.204 8.36 6.41 12.97
11/5/2020 1:30:00 PM 8.94 48.092 0.204 8.37 6.39 13
11/5/2020 1:45:00 PM 9.07 48.326 0.204 8.37 6.19 13.01
11/5/2020 2:00:00 PM 9.13 48.434 0.204 8.37 6.27 13.03
11/5/2020 2:15:00 PM 9.2 48.56 0.204 8.35 6.2 13.04
11/5/2020 2:30:00 PM 9.2 48.56 0.204 8.38 6.3 13.06
11/5/2020 2:45:00 PM 9.18 48.524 0.204 8.35 6.22 13.07
11/5/2020 3:00:00 PM 9.18 48.524 0.204 8.33 6.11 13.07
11/5/2020 3:15:00 PM 9.13 48.434 0.204 8.32 6.12 13.07
11/5/2020 3:30:00 PM 9.09 48.362 0.204 8.38 5.96 13.06
11/5/2020 3:45:00 PM 9.02 48.236 0.204 8.34 6.1 13.06
11/5/2020 4:00:00 PM 8.98 48.164 0.205 8.32 6.29 13.02
11/5/2020 4:15:00 PM 8.89 48.002 0.205 8.3 6.79 12.99
11/5/2020 4:30:00 PM 8.79 47.822 0.205 8.27 6.44 12.95
11/5/2020 4:45:00 PM 8.7 47.66 0.205 8.29 6.18 12.9
11/5/2020 5:00:00 PM 8.59 47.462 0.205 8.25 6.34 12.84
11/5/2020 5:15:00 PM 8.48 47.264 0.205 8.21 6.3 12.78
11/5/2020 5:30:00 PM 8.39 47.102 0.205 8.2 7.44 12.72
11/5/2020 5:45:00 PM 8.27 46.886 0.205 8.15 8.16 12.66
11/5/2020 6:00:00 PM 8.18 46.724 0.206 8.14 11.42 12.59
11/5/2020 6:15:00 PM 8.08 46.544 0.206 8.12 6.56 12.55
11/5/2020 6:30:00 PM 7.99 46.382 0.206 8.12 6.48 12.51
11/5/2020 6:45:00 PM 7.89 46.202 0.206 8.09 6.57 12.47
11/5/2020 7:00:00 PM 7.8 46.04 0.206 8.09 6.43 12.43
11/5/2020 7:15:00 PM 7.73 45.914 0.206 8.08 6.35 12.39
11/5/2020 7:30:00 PM 7.63 45.734 0.206 8.05 6.36 12.37
11/5/2020 7:45:00 PM 7.56 45.608 0.206 8.05 6.41 12.34
11/5/2020 8:00:00 PM 7.49 45.482 0.207 8.04 6.42 12.31
11/5/2020 8:15:00 PM 7.41 45.338 0.207 8.02 6.44 12.29
11/5/2020 8:30:00 PM 7.33 45.194 0.207 7.99 7.68 12.27
11/5/2020 8:45:00 PM 7.27 45.086 0.207 7.98 7.04 12.24
11/5/2020 9:00:00 PM 7.21 44.978 0.207 7.97 6.81 12.22
11/5/2020 9:15:00 PM 7.14 44.852 0.207 8 7.39 12.21
11/5/2020 9:30:00 PM 7.1 44.78 0.207 7.97 6.87 12.19
11/5/2020 9:45:00 PM 7.05 44.69 0.207 7.96 6.66 12.17
11/5/2020 10:00:00 PM 7.01 44.618 0.207 8.02 10.92 12.16
11/5/2020 10:15:00 PM 6.98 44.564 0.207 7.98 6.78 12.14
11/5/2020 10:30:00 PM 7.61 45.698 0.212 7.96 14.3 11.54
11/5/2020 10:45:00 PM 6.94 44.492 0.207 8.03 7.05 12.11
11/5/2020 11:00:00 PM 6.9 44.42 0.207 7.98 6.79 12.12
11/5/2020 11:15:00 PM 6.88 44.384 0.207 7.99 6.47 12.11
11/5/2020 11:30:00 PM 6.86 44.348 0.207 7.98 6.85 12.11
11/5/2020 11:45:00 PM 6.84 44.312 0.207 7.99 6.7 12.11
11/6/2020 12:00:00 AM 6.83 44.294 0.207 8.04 6.84 12.1
11/6/2020 12:15:00 AM 6.82 44.276 0.207 8.1 6.76 12.1
11/6/2020 12:30:00 AM 6.82 44.276 0.207 8.08 6.65 12.1
11/6/2020 12:45:00 AM 6.82 44.276 0.207 8.11 6.78 12.1
11/6/2020 1:00:00 AM 6.83 44.294 0.207 8.04 7.13 12.1
11/6/2020 1:15:00 AM 6.84 44.312 0.207 8.01 6.85 12.1
11/6/2020 1:30:00 AM 6.84 44.312 0.207 8.05 6.66 12.11
11/6/2020 1:45:00 AM 6.84 44.312 0.207 8.05 6.83 12.11
11/6/2020 2:00:00 AM 6.84 44.312 0.207 8.08 6.77 12.11
11/6/2020 2:15:00 AM 6.85 44.33 0.207 8.02 6.68 12.11
11/6/2020 2:30:00 AM 6.85 44.33 0.207 8.07 6.88 12.12
11/6/2020 2:45:00 AM 6.85 44.33 0.207 8.09 6.4 12.12
11/6/2020 3:00:00 AM 6.86 44.348 0.207 8.1 6.64 12.12
11/6/2020 3:15:00 AM 6.85 44.33 0.207 8.12 6.64 12.12
11/6/2020 3:30:00 AM 6.85 44.33 0.207 8.12 6.96 12.12
11/6/2020 3:45:00 AM 6.87 44.366 0.207 8.07 6.75 12.12
11/6/2020 4:00:00 AM 6.87 44.366 0.207 8.11 7.02 12.11
11/6/2020 4:15:00 AM 6.87 44.366 0.207 8.07 6.69 12.11
11/6/2020 4:30:00 AM 6.87 44.366 0.207 8.04 6.7 12.11
11/6/2020 4:45:00 AM 6.87 44.366 0.207 8.06 6.45 12.1
11/6/2020 5:00:00 AM 6.87 44.366 0.207 8.03 6.38 12.1
11/6/2020 5:15:00 AM 6.87 44.366 0.207 8.01 6.6 12.1
11/6/2020 5:30:00 AM 6.88 44.384 0.207 8.03 6.45 12.09
11/6/2020 5:45:00 AM 6.88 44.384 0.207 8.11 7.82 12.09
11/6/2020 6:00:00 AM 6.89 44.402 0.207 8.28 7.24 12.09
11/6/2020 6:15:00 AM 6.89 44.402 0.207 8.09 6.67 12.09
11/6/2020 6:30:00 AM 6.88 44.384 0.207 8.05 7.2 12.08
11/6/2020 6:45:00 AM 6.89 44.402 0.207 8.04 6.73 12.09
11/6/2020 7:00:00 AM 6.9 44.42 0.207 8.06 7.03 12.09
11/6/2020 7:15:00 AM 6.9 44.42 0.207 8.03 6.75 12.09
11/6/2020 7:30:00 AM 6.91 44.438 0.207 8.05 6.79 12.1
11/6/2020 7:45:00 AM 6.92 44.456 0.207 8.06 6.68 12.11
11/6/2020 8:00:00 AM 6.94 44.492 0.207 8.07 6.54 12.12
11/6/2020 8:15:00 AM 6.97 44.546 0.207 8.08 6.63 12.16
11/6/2020 8:30:00 AM 7 44.6 0.207 8.1 6.65 12.19
11/6/2020 8:45:00 AM 7.05 44.69 0.207 8.1 6.36 12.24
11/6/2020 9:00:00 AM 7.1 44.78 0.207 8.13 6.71 12.28
11/6/2020 9:15:00 AM 7.17 44.906 0.207 8.16 6.38 12.33
11/6/2020 9:30:00 AM 7.26 45.068 0.207 8.25 6.56 12.38
11/6/2020 9:45:00 AM 7.33 45.194 0.207 8.31 6.22 12.42
11/6/2020 10:00:00 AM 7.46 45.428 0.207 8.27 6.43 12.48
11/6/2020 10:15:00 AM 7.59 45.662 0.207 8.34 6.39 12.53
11/6/2020 10:30:00 AM 7.71 45.878 0.207 8.37 6.15 12.56
11/6/2020 10:45:00 AM 7.86 46.148 0.207 8.32 6.3 12.61
11/6/2020 11:00:00 AM 8.02 46.436 0.207 8.35 6.06 12.65
11/6/2020 11:15:00 AM 8.18 46.724 0.207 8.37 6.09 12.69
11/6/2020 11:30:00 AM 8.35 47.03 0.207 8.38 6.02 12.74
11/6/2020 11:45:00 AM 8.51 47.318 0.207 8.43 6.23 12.78
11/6/2020 12:00:00 PM 8.66 47.588 0.207 8.43 6.04 12.81
11/6/2020 12:15:00 PM 8.82 47.876 0.207 8.44 5.99 12.86
11/6/2020 12:30:00 PM 8.99 48.182 0.207 8.44 6.03 12.89
11/6/2020 12:45:00 PM 9.13 48.434 0.207 8.43 6.1 12.91
11/6/2020 1:00:00 PM 9.31 48.758 0.207 8.46 6.37 12.96
11/6/2020 1:15:00 PM 9.45 49.01 0.207 8.5 6.33 12.98
11/6/2020 1:30:00 PM 9.61 49.298 0.207 8.51 6.14 13.01
11/6/2020 1:45:00 PM 9.72 49.496 0.207 8.51 6.02 13.03
11/6/2020 2:00:00 PM 9.83 49.694 0.207 8.5 5.94 13.06
11/6/2020 2:15:00 PM 9.89 49.802 0.207 8.51 5.87 13.08
11/6/2020 2:30:00 PM 9.95 49.91 0.207 8.55 6.31 13.09
11/6/2020 2:45:00 PM 9.98 49.964 0.207 8.54 6.28 13.1
11/6/2020 3:00:00 PM 10 50 0.208 8.55 6.06 13.1
11/6/2020 3:15:00 PM 9.98 49.964 0.208 8.54 5.95 13.09
11/6/2020 3:30:00 PM 9.95 49.91 0.208 8.5 5.94 13.09
11/6/2020 3:45:00 PM 9.9 49.82 0.208 8.47 5.82 13.07
11/6/2020 4:00:00 PM 9.82 49.676 0.208 8.47 5.96 13.03
11/6/2020 4:15:00 PM 9.73 49.514 0.208 8.47 5.9 12.98
11/6/2020 4:30:00 PM 9.64 49.352 0.208 8.45 6 12.92
11/6/2020 4:45:00 PM 9.53 49.154 0.208 8.43 6.03 12.86
11/6/2020 5:00:00 PM -99999.99 -179968 -99999.99 -99999.99 -99999.99 -99999.99
11/6/2020 5:15:00 PM -99999.99 -179968 -99999.99 -99999.99 -99999.99 -99999.99
11/6/2020 5:30:00 PM -99999.99 -179968 -99999.99 -99999.99 -99999.99 -99999.99
11/6/2020 5:45:00 PM -99999.99 -179968 -99999.99 -99999.99 -99999.99 -99999.99
11/6/2020 6:00:00 PM -99999.99 -179968 -99999.99 -99999.99 -99999.99 -99999.99
11/6/2020 6:15:00 PM -99999.99 -179968 -99999.99 -99999.99 -99999.99 -99999.99
11/6/2020 6:30:00 PM -99999.99 -179968 -99999.99 -99999.99 -99999.99 -99999.99
11/6/2020 6:45:00 PM -99999.99 -179968 -99999.99 -99999.99 -99999.99 -99999.99
11/6/2020 7:00:00 PM -99999.99 -179968 -99999.99 -99999.99 -99999.99 -99999.99
11/9/2020 7:00:00 AM 7.51 45.518 0.218 8.74 11.67 11.61
11/9/2020 7:15:00 AM 7.52 45.536 0.218 8.87 5.08 11.64
11/9/2020 7:30:00 AM 7.51 45.518 0.218 8.87 5.42 11.66
11/9/2020 7:45:00 AM 7.52 45.536 0.218 8.91 5.15 11.69
11/9/2020 8:00:00 AM 7.53 45.554 0.218 8.94 5.07 11.72
11/9/2020 8:15:00 AM 7.57 45.626 0.218 8.97 5.14 11.79
11/9/2020 8:30:00 AM 7.59 45.662 0.218 8.96 5.24 11.85
11/9/2020 8:45:00 AM 7.64 45.752 0.218 8.96 4.98 11.95
11/9/2020 9:00:00 AM 7.69 45.842 0.218 8.98 4.97 12.03
11/9/2020 9:15:00 AM 7.78 46.004 0.218 9.02 5.11 12.15
11/9/2020 9:30:00 AM 7.87 46.166 0.218 9.03 5.01 12.27
11/9/2020 9:45:00 AM 7.97 46.346 0.218 9.05 4.91 12.36
11/9/2020 10:00:00 AM 8.13 46.634 0.218 9.09 5.02 12.48
11/9/2020 10:15:00 AM 8.26 46.868 0.218 9.11 4.86 12.57
11/9/2020 10:30:00 AM 8.42 47.156 0.218 9.13 4.81 12.66
11/9/2020 10:45:00 AM 8.6 47.48 0.218 9.14 4.77 12.76
11/9/2020 11:00:00 AM 8.77 47.786 0.218 9.19 4.91 12.85
11/9/2020 11:15:00 AM 8.96 48.128 0.218 9.23 4.83 12.94
11/9/2020 11:30:00 AM 9.16 48.488 0.218 9.27 4.88 13.04
11/9/2020 11:45:00 AM 9.35 48.83 0.218 9.28 4.79 13.12
11/9/2020 12:00:00 PM 9.53 49.154 0.218 9.28 4.66 13.19
11/9/2020 12:15:00 PM 9.71 49.478 0.218 9.32 4.75 13.26
11/9/2020 12:30:00 PM 9.94 49.892 0.218 9.34 4.66 13.35
11/9/2020 12:45:00 PM 10.13 50.234 0.218 9.37 4.65 13.43
11/9/2020 1:00:00 PM 10.32 50.576 0.218 9.37 4.54 13.5
11/9/2020 1:15:00 PM 10.5 50.9 0.218 9.27 5.56 13.57
11/9/2020 1:30:00 PM 10.68 51.224 0.218 9.35 4.66 13.62
11/9/2020 1:45:00 PM 10.84 51.512 0.218 9.41 4.52 13.68
11/9/2020 2:00:00 PM 10.98 51.764 0.218 9.29 4.55 13.73
11/9/2020 2:15:00 PM 11.08 51.944 0.218 9.29 5.45 13.78
11/9/2020 2:30:00 PM 11.16 52.088 0.218 9.32 4.91 13.82
11/9/2020 2:45:00 PM 11.21 52.178 0.218 9.35 4.79 13.84
11/9/2020 3:00:00 PM 11.24 52.232 0.218 9.41 4.69 13.87
11/9/2020 3:15:00 PM 11.25 52.25 0.218 9.45 4.65 13.89
11/9/2020 3:30:00 PM 11.24 52.232 0.218 9.49 4.71 13.9
11/9/2020 3:45:00 PM 11.21 52.178 0.218 9.5 4.63 13.88
11/9/2020 4:00:00 PM 11.14 52.052 0.219 9.29 4.63 13.85
11/9/2020 4:15:00 PM 11.07 51.926 0.219 9.35 4.65 13.78
11/9/2020 4:30:00 PM 10.99 51.782 0.219 9.36 4.77 13.7
11/9/2020 4:45:00 PM 10.89 51.602 0.219 9.17 4.86 13.59
11/9/2020 5:00:00 PM 10.8 51.44 0.219 9.05 4.88 13.47
11/9/2020 5:15:00 PM 10.7 51.26 0.22 9.17 4.94 13.33
11/9/2020 5:30:00 PM 10.59 51.062 0.22 9.03 4.88 13.19
11/9/2020 5:45:00 PM 10.48 50.864 0.22 9.01 4.93 13.05
11/9/2020 6:00:00 PM 10.38 50.684 0.221 8.81 5.05 12.93
11/9/2020 6:15:00 PM 10.27 50.486 0.221 8.74 5.19 12.79
11/9/2020 6:30:00 PM 10.17 50.306 0.221 8.89 5.14 12.67
11/9/2020 6:45:00 PM 10.08 50.144 0.221 8.78 5.23 12.56
11/9/2020 7:00:00 PM 9.98 49.964 0.222 9.06 5.23 12.45
11/9/2020 7:15:00 PM 9.88 49.784 0.222 9.07 5.36 12.35
11/9/2020 7:30:00 PM 9.8 49.64 0.222 8.91 5.48 12.25
11/9/2020 7:45:00 PM 9.71 49.478 0.222 8.78 5.82 12.17
11/9/2020 8:00:00 PM 9.62 49.316 0.222 8.64 6.24 12.08
11/9/2020 8:15:00 PM 9.54 49.172 0.223 8.5 5.72 12.01
11/9/2020 8:30:00 PM 9.46 49.028 0.223 8.7 5.31 11.93
11/9/2020 8:45:00 PM 9.39 48.902 0.223 8.43 5.47 11.86
11/9/2020 9:00:00 PM 9.3 48.74 0.223 8.47 5.16 11.81
11/9/2020 9:15:00 PM 9.21 48.578 0.223 8.9 7.33 11.74
11/9/2020 9:30:00 PM 9.15 48.47 0.223 8.77 22.3 11.68
11/9/2020 9:45:00 PM 9.07 48.326 0.224 8.77 5.37 11.63
11/9/2020 10:00:00 PM 9.01 48.218 0.224 8.77 5.22 11.58
11/9/2020 10:15:00 PM 8.94 48.092 0.224 8.78 5.25 11.54
11/9/2020 10:30:00 PM 10.52 50.936 0.241 8.3 37.68 9.92
11/9/2020 10:45:00 PM 9.13 48.434 0.227 8.28 7.46 11.17
11/9/2020 11:00:00 PM 8.82 47.876 0.224 8.68 5.77 11.4
11/9/2020 11:15:00 PM 8.74 47.732 0.224 8.76 5.47 11.39
11/9/2020 11:30:00 PM 8.69 47.642 0.224 8.72 5.54 11.38
11/9/2020 11:45:00 PM 8.65 47.57 0.224 8.68 5.37 11.36
11/10/2020 12:00:00 AM 8.62 47.516 0.224 8.69 5.4 11.32
11/10/2020 12:15:00 AM 8.58 47.444 0.224 8.69 5.41 11.31
11/10/2020 12:30:00 AM 8.54 47.372 0.224 8.67 5.35 11.3
11/10/2020 12:45:00 AM 8.51 47.318 0.224 8.66 5.52 11.28
11/10/2020 1:00:00 AM 8.47 47.246 0.225 8.61 5.28 11.28
11/10/2020 1:15:00 AM 8.44 47.192 0.225 8.59 5.27 11.27
11/10/2020 1:30:00 AM 8.41 47.138 0.225 8.59 5.46 11.26
11/10/2020 1:45:00 AM 8.39 47.102 0.225 8.58 5.44 11.26
11/10/2020 2:00:00 AM 8.35 47.03 0.225 8.58 5.18 11.26
11/10/2020 2:15:00 AM 8.34 47.012 0.225 8.54 5.22 11.25
11/10/2020 2:30:00 AM 8.3 46.94 0.225 8.52 5.18 11.26
11/10/2020 2:45:00 AM 8.28 46.904 0.225 8.5 5.23 11.26
11/10/2020 3:00:00 AM 8.26 46.868 0.225 8.5 5.15 11.26
11/10/2020 3:15:00 AM 8.25 46.85 0.225 8.48 5.35 11.26
11/10/2020 3:30:00 AM 8.22 46.796 0.225 8.46 5.35 11.26
11/10/2020 3:45:00 AM 8.2 46.76 0.225 8.4 5.33 11.27
11/10/2020 4:00:00 AM 8.18 46.724 0.225 8.4 5.34 11.27
11/10/2020 4:15:00 AM 8.16 46.688 0.225 8.37 5.37 11.27
11/10/2020 4:30:00 AM 8.14 46.652 0.225 8.35 5.64 11.28
11/10/2020 4:45:00 AM 8.12 46.616 0.225 8.34 6.67 11.27
11/10/2020 5:00:00 AM 8.11 46.598 0.225 8.31 95.31 11.24
11/10/2020 5:15:00 AM 8.09 46.562 0.225 8.34 6.67 11.27
11/10/2020 5:30:00 AM 8.08 46.544 0.225 8.32 6.08 11.28
11/10/2020 5:45:00 AM 8.06 46.508 0.225 8.37 5.59 11.29
11/10/2020 6:00:00 AM 8.07 46.526 0.225 8.35 5.42 11.27
11/10/2020 6:15:00 AM 8.07 46.526 0.225 8.39 5.47 11.27
11/10/2020 6:30:00 AM 8.08 46.544 0.225 8.37 6.01 11.26
11/10/2020 6:45:00 AM 8.09 46.562 0.225 8.37 5.78 11.26
11/10/2020 7:00:00 AM 8.1 46.58 0.225 8.34 5.2 11.25
11/10/2020 7:15:00 AM 8.12 46.616 0.225 8.35 8.51 11.25
11/10/2020 7:30:00 AM 8.14 46.652 0.225 8.33 5.14 11.28
11/10/2020 7:45:00 AM 8.17 46.706 0.225 8.34 5.13 11.29
11/10/2020 8:00:00 AM 8.2 46.76 0.225 8.37 5.52 11.33
11/10/2020 8:15:00 AM 8.24 46.832 0.225 8.4 4.97 11.37
11/10/2020 8:30:00 AM 8.28 46.904 0.225 8.44 5.55 11.44
11/10/2020 8:45:00 AM 8.33 46.994 0.225 8.45 5.31 11.54
11/10/2020 9:00:00 AM 8.37 47.066 0.225 8.46 12.77 11.59
11/10/2020 9:15:00 AM 8.42 47.156 0.224 8.51 6.66 11.69
11/10/2020 9:30:00 AM 8.49 47.282 0.224 8.57 4.89 11.87
11/10/2020 9:45:00 AM 8.57 47.426 0.224 8.61 5.63 12
11/10/2020 10:00:00 AM 8.7 47.66 0.224 8.63 5.82 12.15
11/10/2020 10:15:00 AM 8.85 47.93 0.224 8.66 5.19 12.27
11/10/2020 10:30:00 AM 9.02 48.236 0.224 8.69 5.34 12.44
11/10/2020 10:45:00 AM 9.23 48.614 0.223 8.73 4.79 12.57
11/10/2020 11:00:00 AM 9.43 48.974 0.223 8.79 4.91 12.7
11/10/2020 11:15:00 AM 9.67 49.406 0.223 8.85 10.99 12.89
11/10/2020 11:30:00 AM 9.86 49.748 0.223 8.89 5.44 12.96
11/10/2020 11:45:00 AM 10.06 50.108 0.223 8.89 5.47 12.98
11/10/2020 12:00:00 PM 10.29 50.522 0.223 8.95 5.78 13.06
11/10/2020 12:15:00 PM 10.53 50.954 0.222 9.05 4.94 13.32
11/10/2020 12:30:00 PM 10.75 51.35 0.222 9.08 5.76 13.31
11/10/2020 12:45:00 PM 10.98 51.764 0.222 9.14 5 13.41
11/10/2020 1:00:00 PM 11.19 52.142 0.222 9.19 4.96 13.49
11/10/2020 1:15:00 PM 11.4 52.52 0.222 9.22 4.97 13.59
11/10/2020 1:30:00 PM 11.63 52.934 0.222 9.3 5.26 13.7
11/10/2020 1:45:00 PM 11.84 53.312 0.222 9.31 5.07 13.63
11/10/2020 2:00:00 PM 12 53.6 0.222 9.29 4.71 13.64
11/10/2020 2:15:00 PM 12.13 53.834 0.221 9.37 4.61 13.79
11/10/2020 2:30:00 PM 12.26 54.068 0.222 9.38 4.79 13.7
11/10/2020 2:45:00 PM 12.35 54.23 0.221 9.46 4.63 13.8
11/10/2020 3:00:00 PM 12.4 54.32 0.221 9.49 4.8 13.82
11/10/2020 3:15:00 PM 12.44 54.392 0.221 9.49 4.96 13.78
11/10/2020 3:30:00 PM 12.43 54.374 0.221 9.53 4.64 13.84
11/10/2020 3:45:00 PM 12.41 54.338 0.221 9.51 5.46 13.8
11/10/2020 4:00:00 PM 12.32 54.176 0.221 9.5 4.88 13.83
11/10/2020 4:15:00 PM 12.26 54.068 0.221 9.47 4.99 13.72
11/10/2020 4:30:00 PM 12.2 53.96 0.221 9.48 5.16 13.67
11/10/2020 4:45:00 PM 12.14 53.852 0.221 9.41 4.64 13.54
11/10/2020 5:00:00 PM 12.05 53.69 0.221 9.39 4.52 13.48
11/10/2020 5:15:00 PM 11.97 53.546 0.222 9.37 4.57 13.3
11/10/2020 5:30:00 PM 11.87 53.366 0.222 9.34 4.91 13.17
11/10/2020 5:45:00 PM 11.78 53.204 0.222 9.27 4.73 13.09
11/10/2020 6:00:00 PM 11.68 53.024 0.222 9.26 5.01 12.98
11/10/2020 6:15:00 PM 11.61 52.898 0.222 9.18 4.57 12.75
11/10/2020 6:30:00 PM 11.51 52.718 0.223 9.15 5.88 12.66
11/10/2020 6:45:00 PM 11.42 52.556 0.223 9.09 5.04 12.52
11/10/2020 7:00:00 PM 11.34 52.412 0.223 9.04 5.13 12.36
11/10/2020 7:15:00 PM 11.26 52.268 0.223 9 4.93 12.28
11/10/2020 7:30:00 PM 11.19 52.142 0.223 9 5.36 12.16
11/10/2020 7:45:00 PM 11.1 51.98 0.224 8.94 5.1 12.03
11/10/2020 8:00:00 PM 11.04 51.872 0.224 8.89 4.77 11.92
11/10/2020 8:15:00 PM 10.99 51.782 0.224 8.79 4.78 11.77
11/10/2020 8:30:00 PM 10.92 51.656 0.224 8.77 4.75 11.72
11/10/2020 8:45:00 PM 10.86 51.548 0.224 8.74 4.7 11.64
11/10/2020 9:00:00 PM 10.79 51.422 0.224 8.69 4.59 11.56
11/10/2020 9:15:00 PM 10.74 51.332 0.224 8.64 4.84 11.43
11/10/2020 9:30:00 PM 10.67 51.206 0.224 8.63 4.71 11.42
11/10/2020 9:45:00 PM 10.62 51.116 0.224 8.6 4.78 11.3
11/10/2020 10:00:00 PM 10.59 51.062 0.225 8.58 4.83 11.22
11/10/2020 10:15:00 PM 10.54 50.972 0.225 8.53 16.94 11.11
11/10/2020 10:30:00 PM 10.98 51.764 0.232 8.23 22.15 10.61
11/10/2020 10:45:00 PM 10.95 51.71 0.232 8.25 10.08 10.38
11/10/2020 11:00:00 PM 10.67 51.206 0.227 8.33 5.97 10.63
11/10/2020 11:15:00 PM 10.45 50.81 0.225 8.41 5.17 10.79
11/10/2020 11:30:00 PM 10.36 50.648 0.225 8.43 5 10.83
11/10/2020 11:45:00 PM 10.3 50.54 0.225 8.39 5.04 10.79
11/11/2020 12:00:00 AM 10.26 50.468 0.225 8.4 4.86 10.78
11/11/2020 12:15:00 AM 10.22 50.396 0.225 8.39 7.27 10.74
11/11/2020 12:30:00 AM 10.19 50.342 0.225 8.41 5.02 10.72
11/11/2020 12:45:00 AM 10.16 50.288 0.225 8.38 4.68 10.71
11/11/2020 1:00:00 AM 10.14 50.252 0.225 8.36 4.73 10.64
11/11/2020 1:15:00 AM 10.11 50.198 0.225 8.37 4.84 10.63
11/11/2020 1:30:00 AM 10.08 50.144 0.225 8.37 4.78 10.63
11/11/2020 1:45:00 AM 10.04 50.072 0.225 8.36 4.74 10.63
11/11/2020 2:00:00 AM 10.02 50.036 0.225 8.34 4.81 10.61
11/11/2020 2:15:00 AM 9.98 49.964 0.225 8.32 4.75 10.61
11/11/2020 2:30:00 AM 9.96 49.928 0.225 8.3 4.94 10.59
11/11/2020 2:45:00 AM 9.94 49.892 0.225 8.28 4.74 10.52
11/11/2020 3:00:00 AM 9.91 49.838 0.225 8.29 4.91 10.54
11/11/2020 3:15:00 AM 9.89 49.802 0.225 8.25 4.85 10.45
11/11/2020 3:30:00 AM 9.86 49.748 0.225 8.25 4.83 10.47
11/11/2020 3:45:00 AM 9.83 49.694 0.224 8.23 5.01 10.48
11/11/2020 4:00:00 AM 9.81 49.658 0.224 8.24 4.72 10.5
11/11/2020 4:15:00 AM 9.79 49.622 0.224 8.26 5.83 10.5
11/11/2020 4:30:00 AM 9.77 49.586 0.224 8.24 4.89 10.5
11/11/2020 4:45:00 AM 9.76 49.568 0.224 8.22 4.93 10.5
11/11/2020 5:00:00 AM 9.74 49.532 0.224 8.23 5.03 10.47
11/11/2020 5:15:00 AM 9.73 49.514 0.224 8.22 4.7 10.5
11/11/2020 5:30:00 AM 9.72 49.496 0.224 8.25 4.75 10.45
11/11/2020 5:45:00 AM 9.72 49.496 0.224 8.22 4.64 10.46
11/11/2020 6:00:00 AM 9.72 49.496 0.224 8.24 5.81 10.49
11/11/2020 6:15:00 AM 9.73 49.514 0.224 8.17 4.91 10.44
11/11/2020 6:30:00 AM 9.74 49.532 0.223 8.21 4.83 10.46
11/11/2020 6:45:00 AM 9.75 49.55 0.223 8.2 5.21 10.42
11/11/2020 7:00:00 AM 9.79 49.622 0.223 8.18 4.66 10.38
11/11/2020 7:15:00 AM 9.83 49.694 0.223 8.22 4.62 10.4
11/11/2020 7:30:00 AM 9.87 49.766 0.223 8.21 4.59 10.4
11/11/2020 7:45:00 AM 9.91 49.838 0.223 8.18 4.75 10.41
11/11/2020 8:00:00 AM 9.96 49.928 0.223 8.16 4.6 10.43
11/11/2020 8:15:00 AM 10.03 50.054 0.223 8.2 4.78 10.54
11/11/2020 8:30:00 AM 10.1 50.18 0.222 8.2 4.7 10.61
11/11/2020 8:45:00 AM 10.14 50.252 0.222 8.17 4.56 10.64
11/11/2020 9:00:00 AM 10.2 50.36 0.222 8.19 4.68 10.76
11/11/2020 9:15:00 AM 10.25 50.45 0.222 8.25 4.76 10.9
11/11/2020 9:30:00 AM 10.3 50.54 0.222 8.27 4.75 11.03
11/11/2020 9:45:00 AM 10.35 50.63 0.222 8.28 5.47 11.02
11/11/2020 10:00:00 AM 10.4 50.72 0.222 8.28 5.15 11.01
11/11/2020 10:15:00 AM 10.45 50.81 0.223 8.28 4.94 11.09
11/11/2020 10:30:00 AM 10.51 50.918 0.224 8.3 5.5 11.13
11/11/2020 10:45:00 AM 10.57 51.026 0.222 8.31 5.4 11.08
11/11/2020 11:00:00 AM 10.65 51.17 0.221 8.34 5.48 11.15
11/11/2020 11:15:00 AM 10.71 51.278 0.22 8.32 5.02 11.13
11/11/2020 11:30:00 AM 10.74 51.332 0.219 8.33 4.86 11.18
11/11/2020 11:45:00 AM 10.78 51.404 0.218 8.35 4.84 11.26
11/11/2020 12:00:00 PM 10.85 51.53 0.218 8.37 4.76 11.28
11/11/2020 12:15:00 PM 10.89 51.602 0.218 8.34 5.05 11.26
11/11/2020 12:30:00 PM 10.93 51.674 0.217 8.34 5.05 11.3
11/11/2020 12:45:00 PM 10.98 51.764 0.217 8.37 7.95 11.35
11/11/2020 1:00:00 PM 10.99 51.782 0.216 8.38 5.24 11.45
11/11/2020 1:15:00 PM 11.02 51.836 0.216 8.41 4.92 11.45
11/11/2020 1:30:00 PM 11.04 51.872 0.215 8.43 4.74 11.51
11/11/2020 1:45:00 PM 11.08 51.944 0.215 8.42 4.82 11.52
11/11/2020 2:00:00 PM 11.11 51.998 0.215 8.43 5.26 11.57
11/11/2020 2:15:00 PM 11.15 52.07 0.214 8.46 4.64 11.64
11/11/2020 2:30:00 PM 11.18 52.124 0.214 8.43 4.59 11.61
11/11/2020 2:45:00 PM 11.21 52.178 0.214 8.51 4.73 11.68
11/11/2020 3:00:00 PM 11.23 52.214 0.214 8.49 5.05 11.69
11/11/2020 3:15:00 PM 11.24 52.232 0.214 8.46 4.68 11.68
11/11/2020 3:30:00 PM 11.25 52.25 0.214 8.46 4.68 11.7
11/11/2020 3:45:00 PM 11.27 52.286 0.214 8.45 4.61 11.65
11/11/2020 4:00:00 PM 11.27 52.286 0.214 8.48 4.52 11.7
11/11/2020 4:15:00 PM 11.29 52.322 0.214 8.45 4.62 11.63
11/11/2020 4:30:00 PM 11.32 52.376 0.213 8.44 4.73 11.62
11/11/2020 4:45:00 PM 11.31 52.358 0.213 8.51 9.83 11.56
11/11/2020 5:00:00 PM 11.31 52.358 0.213 8.46 4.85 11.46
11/11/2020 5:15:00 PM 11.3 52.34 0.214 8.4 4.72 11.41
11/11/2020 5:30:00 PM 11.28 52.304 0.214 8.38 4.93 11.44
11/11/2020 5:45:00 PM 11.27 52.286 0.214 8.4 4.93 11.44
11/11/2020 6:00:00 PM 11.26 52.268 0.215 8.4 4.73 11.35
11/11/2020 6:15:00 PM 11.26 52.268 0.215 8.36 4.51 11.27
11/11/2020 6:30:00 PM 11.25 52.25 0.215 8.36 4.68 11.25
11/11/2020 6:45:00 PM 11.24 52.232 0.216 8.33 4.69 11.07
11/11/2020 7:00:00 PM 11.23 52.214 0.216 8.28 4.63 11
11/11/2020 7:15:00 PM 11.2 52.16 0.217 8.28 4.69 11.05
11/11/2020 7:30:00 PM 11.19 52.142 0.217 8.28 5 11.03
11/11/2020 7:45:00 PM 11.17 52.106 0.218 8.28 4.84 10.99
11/11/2020 8:00:00 PM 11.16 52.088 0.218 8.23 4.67 10.93
11/11/2020 8:15:00 PM 11.14 52.052 0.219 8.26 4.65 10.87
11/11/2020 8:30:00 PM 11.12 52.016 0.219 8.23 5.2 10.82
11/11/2020 8:45:00 PM 11.1 51.98 0.22 8.22 4.85 10.78
11/11/2020 9:00:00 PM 11.07 51.926 0.22 8.19 4.78 10.73
11/11/2020 9:15:00 PM 11.04 51.872 0.221 8.18 5.54 10.69
11/11/2020 9:30:00 PM 11.02 51.836 0.221 8.18 4.84 10.63
11/11/2020 9:45:00 PM 11 51.8 0.221 8.12 4.93 10.6
11/11/2020 10:00:00 PM 11 51.8 0.222 8.05 5.39 10.63
11/11/2020 10:15:00 PM 10.99 51.782 0.222 8.05 5.18 10.54
11/11/2020 10:30:00 PM 12.01 53.618 0.237 7.81 27.37 9.35
11/11/2020 10:45:00 PM 11.27 52.286 0.227 7.99 7.38 10.11
11/11/2020 11:00:00 PM 10.99 51.782 0.223 8.07 5.45 10.4
11/11/2020 11:15:00 PM 10.92 51.656 0.223 8.06 5.16 10.45
11/11/2020 11:30:00 PM 10.9 51.62 0.223 8.06 5.51 10.44
11/11/2020 11:45:00 PM 10.87 51.566 0.223 8.09 5.4 10.42
11/12/2020 12:00:00 AM 10.85 51.53 0.223 8.03 5.53 10.41
11/12/2020 12:15:00 AM 10.83 51.494 0.223 8.03 5.51 10.39
11/12/2020 12:30:00 AM 10.81 51.458 0.223 8.01 5.66 10.39
11/12/2020 12:45:00 AM 10.79 51.422 0.223 8.01 5.64 10.38
11/12/2020 1:00:00 AM 10.77 51.386 0.223 7.99 5.54 10.37
11/12/2020 1:15:00 AM 10.75 51.35 0.222 7.97 5.76 10.36
11/12/2020 1:30:00 AM 10.73 51.314 0.222 7.97 5.62 10.35
11/12/2020 1:45:00 AM 10.7 51.26 0.222 7.94 6.06 10.35
11/12/2020 2:00:00 AM 10.67 51.206 0.222 7.97 6.1 10.34
11/12/2020 2:15:00 AM 10.64 51.152 0.221 7.97 6.19 10.35
11/12/2020 2:30:00 AM 10.61 51.098 0.221 7.96 6.25 10.34
11/12/2020 2:45:00 AM 10.59 51.062 0.221 7.98 6.39 10.35
11/12/2020 3:00:00 AM 10.56 51.008 0.22 7.96 6.41 10.36
11/12/2020 3:15:00 AM 10.53 50.954 0.22 7.96 6.81 10.36
11/12/2020 3:30:00 AM 10.51 50.918 0.22 7.96 6.34 10.37
11/12/2020 3:45:00 AM 10.48 50.864 0.22 8 6.56 10.38
11/12/2020 4:00:00 AM 10.45 50.81 0.219 7.94 6.1 10.37
11/12/2020 4:15:00 AM 10.42 50.756 0.219 8 6.24 10.39
11/12/2020 4:30:00 AM 10.39 50.702 0.219 8 7.41 10.39
11/12/2020 4:45:00 AM 10.35 50.63 0.219 8.04 6.22 10.39
11/12/2020 5:00:00 AM 10.31 50.558 0.218 8.08 8.11 10.39
11/12/2020 5:15:00 AM 10.29 50.522 0.218 8.17 6.01 10.41
11/12/2020 5:30:00 AM 10.27 50.486 0.217 8.21 6.1 10.42
11/12/2020 5:45:00 AM 10.23 50.414 0.217 8.32 5.89 10.42
11/12/2020 6:00:00 AM 10.18 50.324 0.217 8.36 6.02 10.44
11/12/2020 6:15:00 AM 10.14 50.252 0.216 8.36 6.07 10.44
11/12/2020 6:30:00 AM 10.11 50.198 0.216 8.39 6.04 10.45
11/12/2020 6:45:00 AM 10.08 50.144 0.216 8.44 6.13 10.45
11/12/2020 7:00:00 AM 10.05 50.09 0.215 8.44 6.08 10.46
11/12/2020 7:15:00 AM 10.01 50.018 0.215 8.41 6.3 10.47
11/12/2020 7:30:00 AM 9.99 49.982 0.215 8.28 6.09 10.49
11/12/2020 7:45:00 AM 9.95 49.91 0.215 8.32 6.11 10.49
11/12/2020 8:00:00 AM 9.93 49.874 0.214 8.27 5.98 10.53
11/12/2020 8:15:00 AM 9.91 49.838 0.214 8.42 5.75 10.56
11/12/2020 8:30:00 AM 9.89 49.802 0.214 8.48 5.81 10.59
11/12/2020 8:45:00 AM 9.87 49.766 0.214 8.43 5.54 10.64
11/12/2020 9:00:00 AM 9.86 49.748 0.214 8.46 5.65 10.71
11/12/2020 9:15:00 AM 9.84 49.712 0.214 8.58 5.7 10.79
11/12/2020 9:30:00 AM 9.83 49.694 0.213 8.52 5.49 10.86
11/12/2020 9:45:00 AM 9.84 49.712 0.213 8.55 5.39 10.97
11/12/2020 10:00:00 AM 9.83 49.694 0.213 8.53 5.42 11.06
11/12/2020 10:15:00 AM 9.82 49.676 0.213 8.55 5.35 11.15
11/12/2020 10:30:00 AM 9.82 49.676 0.213 8.56 5.83 11.25
11/12/2020 10:45:00 AM 9.81 49.658 0.213 8.53 5.72 11.33
11/12/2020 11:00:00 AM 9.82 49.676 0.212 8.58 5.65 11.43
11/12/2020 11:15:00 AM 9.82 49.676 0.212 8.62 5.61 11.52
11/12/2020 11:30:00 AM 9.85 49.73 0.212 8.63 5.43 11.61
11/12/2020 11:45:00 AM 9.9 49.82 0.212 8.66 5.45 11.73
11/12/2020 12:00:00 PM 9.91 49.838 0.212 8.66 5.23 11.81
11/12/2020 12:15:00 PM 9.93 49.874 0.212 8.71 5.29 11.92
11/12/2020 12:30:00 PM 9.95 49.91 0.211 8.74 5.17 12.02
11/12/2020 12:45:00 PM 9.98 49.964 0.211 8.69 5.22 12.11
11/12/2020 1:00:00 PM 10 50 0.211 8.73 5.24 12.21
11/12/2020 1:15:00 PM 10 50 0.211 8.74 5.07 12.25
11/12/2020 1:30:00 PM 10.03 50.054 0.211 8.78 5.13 12.35
11/12/2020 1:45:00 PM 10.04 50.072 0.211 8.89 5.21 12.4
11/12/2020 2:00:00 PM 10.08 50.144 0.211 8.89 5.19 12.5
11/12/2020 2:15:00 PM 10.1 50.18 0.211 8.91 5.1 12.57
11/12/2020 2:30:00 PM 10.1 50.18 0.211 8.92 5.17 12.62
11/12/2020 2:45:00 PM 10.12 50.216 0.21 8.94 5.15 12.68
11/12/2020 3:00:00 PM 10.14 50.252 0.21 8.94 5.26 12.75
11/12/2020 3:15:00 PM 10.12 50.216 0.21 8.89 4.98 12.78
11/12/2020 3:30:00 PM 10.11 50.198 0.21 8.89 5.08 12.81
11/12/2020 3:45:00 PM 10.11 50.198 0.21 8.92 5 12.82
11/12/2020 4:00:00 PM 10.08 50.144 0.21 8.97 5.19 12.8
11/12/2020 4:15:00 PM 10.06 50.108 0.21 8.94 5.12 12.77
11/12/2020 4:30:00 PM 10.04 50.072 0.21 8.92 5.03 12.72
11/12/2020 4:45:00 PM 10.01 50.018 0.21 8.92 5.01 12.64
11/12/2020 5:00:00 PM 9.97 49.946 0.211 8.83 4.97 12.56
11/12/2020 5:15:00 PM 9.93 49.874 0.211 8.8 4.99 12.46
11/12/2020 5:30:00 PM 9.88 49.784 0.211 8.82 5.16 12.36
11/12/2020 5:45:00 PM 9.84 49.712 0.211 8.71 5.02 12.25
11/12/2020 6:00:00 PM 9.79 49.622 0.211 8.69 5.24 12.15
11/12/2020 6:15:00 PM 9.73 49.514 0.211 8.71 5.64 12.05
11/12/2020 6:30:00 PM 9.69 49.442 0.211 8.69 5.28 11.95
11/12/2020 6:45:00 PM 9.63 49.334 0.212 8.63 5.4 11.86
11/12/2020 7:00:00 PM 9.6 49.28 0.212 8.58 5.42 11.78
11/12/2020 7:15:00 PM 9.55 49.19 0.212 8.53 5.31 11.7
11/12/2020 7:30:00 PM 9.5 49.1 0.212 8.51 6.39 11.63
11/12/2020 7:45:00 PM 9.45 49.01 0.212 8.44 5.76 11.56
11/12/2020 8:00:00 PM 9.41 48.938 0.212 8.42 5.42 11.49
11/12/2020 8:15:00 PM 9.35 48.83 0.212 8.42 5.53 11.44
11/12/2020 8:30:00 PM 9.3 48.74 0.213 8.38 5.55 11.37
11/12/2020 8:45:00 PM 9.25 48.65 0.213 8.37 5.45 11.31
11/12/2020 9:00:00 PM 9.2 48.56 0.213 8.41 5.64 11.26
11/12/2020 9:15:00 PM 9.16 48.488 0.213 8.31 5.76 11.2
11/12/2020 9:30:00 PM 9.11 48.398 0.213 8.31 5.64 11.15
11/12/2020 9:45:00 PM 9.06 48.308 0.213 8.36 5.8 11.1
11/12/2020 10:00:00 PM 9 48.2 0.213 8.36 5.8 11.07
11/12/2020 10:15:00 PM 8.95 48.11 0.213 8.35 5.76 11.03
11/12/2020 10:30:00 PM 9.81 49.658 0.222 8.22 14.79 10.15
11/12/2020 10:45:00 PM 8.92 48.056 0.214 8.43 5.91 10.91
11/12/2020 11:00:00 PM 8.83 47.894 0.214 8.56 5.51 10.94
11/12/2020 11:15:00 PM 8.76 47.768 0.214 8.55 5.57 10.92
11/12/2020 11:30:00 PM 8.74 47.732 0.214 8.56 5.83 10.91
11/12/2020 11:45:00 PM 8.68 47.624 0.214 8.56 5.77 10.9
11/13/2020 12:00:00 AM 8.64 47.552 0.214 8.47 5.68 10.89
11/13/2020 12:15:00 AM 8.59 47.462 0.214 8.32 5.63 10.89
11/13/2020 12:30:00 AM 8.6 47.48 0.214 8.5 5.78 10.88
11/13/2020 12:45:00 AM 8.56 47.408 0.214 8.38 5.76 10.87
11/13/2020 1:00:00 AM 8.54 47.372 0.214 8.49 5.84 10.87
11/13/2020 1:15:00 AM 8.54 47.372 0.214 8.44 6.18 10.87
11/13/2020 1:30:00 AM 8.53 47.354 0.213 8.43 5.85 10.87
11/13/2020 1:45:00 AM 8.52 47.336 0.213 8.43 5.96 10.86
11/13/2020 2:00:00 AM 8.5 47.3 0.213 8.37 5.6 10.86
11/13/2020 2:15:00 AM 8.51 47.318 0.213 8.37 5.78 10.86
11/13/2020 2:30:00 AM 8.49 47.282 0.213 8.27 7.47 10.87
11/13/2020 2:45:00 AM 8.49 47.282 0.213 8.28 5.92 10.87
11/13/2020 3:00:00 AM 8.49 47.282 0.213 8.39 5.78 10.87
11/13/2020 3:15:00 AM 8.46 47.228 0.213 8.33 5.58 10.87
11/13/2020 3:30:00 AM 8.49 47.282 0.213 8.37 5.61 10.89
11/13/2020 3:45:00 AM 8.48 47.264 0.213 8.36 6.18 10.89
11/13/2020 4:00:00 AM 8.45 47.21 0.213 8.34 5.72 10.89
11/13/2020 4:15:00 AM 8.45 47.21 0.212 8.36 5.81 10.89
11/13/2020 4:30:00 AM 8.46 47.228 0.212 8.37 5.68 10.91
11/13/2020 4:45:00 AM 8.44 47.192 0.212 8.36 5.69 10.91
11/13/2020 5:00:00 AM 8.44 47.192 0.212 8.29 5.64 10.92
11/13/2020 5:15:00 AM 8.43 47.174 0.212 8.36 5.66 10.92
11/13/2020 5:30:00 AM 8.44 47.192 0.212 8.35 5.54 10.93
11/13/2020 5:45:00 AM 8.44 47.192 0.212 8.37 5.56 10.92
11/13/2020 6:00:00 AM 8.44 47.192 0.212 8.31 5.49 10.93
11/13/2020 6:15:00 AM 8.44 47.192 0.212 8.35 5.39 10.94
11/13/2020 6:30:00 AM 8.43 47.174 0.212 8.3 5.4 10.94
11/13/2020 6:45:00 AM 8.44 47.192 0.212 8.37 5.65 10.95
11/13/2020 7:00:00 AM 8.45 47.21 0.212 8.34 5.86 10.96
11/13/2020 7:15:00 AM 8.44 47.192 0.212 8.32 5.26 10.97
11/13/2020 7:30:00 AM 8.46 47.228 0.211 8.32 5.58 10.99
11/13/2020 7:45:00 AM 8.45 47.21 0.211 8.32 5.44 11
11/13/2020 8:00:00 AM 8.47 47.246 0.211 8.33 5.42 11.04
11/13/2020 8:15:00 AM 8.48 47.264 0.211 8.35 5.26 11.08
11/13/2020 8:30:00 AM 8.51 47.318 0.211 8.4 5.39 11.13
11/13/2020 8:45:00 AM 8.54 47.372 0.211 8.41 5.71 11.2
11/13/2020 9:00:00 AM 8.61 47.498 0.211 8.46 5.33 11.32
11/13/2020 9:15:00 AM 8.64 47.552 0.211 8.46 5.61 11.42
11/13/2020 9:30:00 AM 8.66 47.588 0.211 8.44 5.53 11.53
11/13/2020 9:45:00 AM 8.7 47.66 0.211 8.41 5.25 11.65
11/13/2020 10:00:00 AM 8.77 47.786 0.211 8.44 5.28 11.82
11/13/2020 10:15:00 AM 8.82 47.876 0.211 8.48 5.06 11.92
11/13/2020 10:30:00 AM 8.94 48.092 0.211 8.51 5.06 12.06
11/13/2020 10:45:00 AM 9.05 48.29 0.211 8.57 4.92 12.17
11/13/2020 11:00:00 AM 9.16 48.488 0.21 8.61 5.07 12.3
11/13/2020 11:15:00 AM 9.25 48.65 0.21 8.68 4.86 12.43
11/13/2020 11:30:00 AM 9.36 48.848 0.21 8.73 4.83 12.54
11/13/2020 11:45:00 AM 9.5 49.1 0.21 8.79 4.73 12.67
11/13/2020 12:00:00 PM 9.59 49.262 0.21 8.8 4.68 12.76
11/13/2020 12:15:00 PM 9.68 49.424 0.21 8.84 4.77 12.88
11/13/2020 12:30:00 PM 9.75 49.55 0.21 8.9 4.63 12.97
11/13/2020 12:45:00 PM 9.8 49.64 0.21 8.91 4.62 13.04
11/13/2020 1:00:00 PM 9.85 49.73 0.21 8.97 4.5 13.15
11/13/2020 1:15:00 PM 9.87 49.766 0.21 8.98 4.54 13.21
11/13/2020 1:30:00 PM 9.91 49.838 0.21 9.04 4.52 13.28
11/13/2020 1:45:00 PM 9.98 49.964 0.211 9.06 4.51 13.36
11/13/2020 2:00:00 PM 10.05 50.09 0.211 9.1 4.54 13.44
11/13/2020 2:15:00 PM 10.11 50.198 0.211 9.15 4.49 13.5
11/13/2020 2:30:00 PM 10.16 50.288 0.211 9.17 4.46 13.56
11/13/2020 2:45:00 PM 10.18 50.324 0.211 9.14 4.51 13.61
11/13/2020 3:00:00 PM 10.19 50.342 0.211 9.14 4.52 13.66
11/13/2020 3:15:00 PM 10.18 50.324 0.211 9.16 4.59 13.69
11/13/2020 3:30:00 PM 10.17 50.306 0.211 9.16 4.52 13.7
11/13/2020 3:45:00 PM 10.12 50.216 0.211 9.14 4.62 13.69
11/13/2020 4:00:00 PM 10.06 50.108 0.212 9.11 4.49 13.64
11/13/2020 4:15:00 PM 9.99 49.982 0.212 9.13 4.59 13.59
11/13/2020 4:30:00 PM 9.94 49.892 0.212 9.08 4.5 13.49
11/13/2020 4:45:00 PM 9.87 49.766 0.212 9.04 13.77 13.38
11/13/2020 5:00:00 PM 9.81 49.658 0.213 8.96 4.59 13.27
11/13/2020 5:15:00 PM 9.73 49.514 0.213 8.92 4.5 13.13
11/13/2020 5:30:00 PM 9.64 49.352 0.213 8.95 4.84 13
11/13/2020 5:45:00 PM 9.55 49.19 0.214 8.91 9.57 12.86
11/13/2020 6:00:00 PM 9.47 49.046 0.214 8.87 4.77 12.73
11/13/2020 6:15:00 PM 9.4 48.92 0.214 8.81 4.68 12.61
11/13/2020 6:30:00 PM 9.32 48.776 0.215 8.78 4.66 12.49
11/13/2020 6:45:00 PM 9.23 48.614 0.215 8.72 4.67 12.37
11/13/2020 7:00:00 PM 9.16 48.488 0.215 8.66 4.78 12.26
11/13/2020 7:15:00 PM 9.1 48.38 0.215 8.63 4.84 12.16
11/13/2020 7:30:00 PM 9.04 48.272 0.216 8.6 4.86 12.06
11/13/2020 7:45:00 PM 8.99 48.182 0.216 8.55 5.09 11.97
11/13/2020 8:00:00 PM 8.94 48.092 0.216 8.53 5.11 11.88
11/13/2020 8:15:00 PM 8.88 47.984 0.216 8.49 5.11 11.79
11/13/2020 8:30:00 PM 8.83 47.894 0.216 8.45 5.13 11.71
11/13/2020 8:45:00 PM 8.79 47.822 0.216 8.42 5.43 11.64
11/13/2020 9:00:00 PM 8.75 47.75 0.216 8.4 5.44 11.57
11/13/2020 9:15:00 PM 8.71 47.678 0.217 8.35 5.31 11.5
11/13/2020 9:30:00 PM 8.66 47.588 0.217 8.32 5.24 11.44
11/13/2020 9:45:00 PM 8.61 47.498 0.217 8.29 5.3 11.38
11/13/2020 10:00:00 PM 8.57 47.426 0.216 8.27 5.52 11.34
11/13/2020 10:15:00 PM 8.53 47.354 0.216 8.27 6 11.29
11/13/2020 10:30:00 PM 9.21 48.578 0.222 8.13 9.41 10.57
11/13/2020 10:45:00 PM 8.48 47.264 0.216 8.37 5.49 11.2
11/13/2020 11:00:00 PM 8.43 47.174 0.216 8.31 5.41 11.19
11/13/2020 11:15:00 PM 8.41 47.138 0.216 8.24 5.35 11.18
11/13/2020 11:30:00 PM 8.4 47.12 0.216 8.21 5.34 11.16
11/13/2020 11:45:00 PM 8.39 47.102 0.216 8.22 5.44 11.14
11/14/2020 12:00:00 AM 8.38 47.084 0.216 8.22 5.43 11.13
11/14/2020 12:15:00 AM 8.39 47.102 0.216 8.23 5.38 11.12
11/14/2020 12:30:00 AM 8.39 47.102 0.215 8.22 5.46 11.11
11/14/2020 12:45:00 AM 8.4 47.12 0.215 8.21 5.39 11.11
11/14/2020 1:00:00 AM 8.4 47.12 0.215 8.18 5.57 11.12
11/14/2020 1:15:00 AM 8.37 47.066 0.215 8.18 5.42 11.11
11/14/2020 1:30:00 AM 8.37 47.066 0.215 8.17 5.46 11.11
11/14/2020 1:45:00 AM 8.36 47.048 0.215 8.15 5.49 11.12
11/14/2020 2:00:00 AM 8.35 47.03 0.214 8.16 5.37 11.13
11/14/2020 2:15:00 AM 8.31 46.958 0.214 8.17 5.43 11.12
11/14/2020 2:30:00 AM 8.29 46.922 0.214 8.16 6.22 11.13
11/14/2020 2:45:00 AM 8.27 46.886 0.214 8.21 5.5 11.14
11/14/2020 3:00:00 AM 8.24 46.832 0.214 8.17 5.79 11.15
11/14/2020 3:15:00 AM 8.23 46.814 0.214 8.18 5.57 11.16
11/14/2020 3:30:00 AM 8.21 46.778 0.214 8.19 5.54 11.17
11/14/2020 3:45:00 AM 8.18 46.724 0.214 8.17 5.73 11.18
11/14/2020 4:00:00 AM 8.14 46.652 0.214 8.15 5.57 11.18
11/14/2020 4:15:00 AM 8.13 46.634 0.213 8.13 5.64 11.21
11/14/2020 4:30:00 AM 8.11 46.598 0.213 8.14 5.59 11.21
11/14/2020 4:45:00 AM 8.1 46.58 0.213 8.14 5.72 11.24
11/14/2020 5:00:00 AM 8.06 46.508 0.213 8.14 5.71 11.25
11/14/2020 5:15:00 AM 8.05 46.49 0.213 8.15 5.77 11.27
11/14/2020 5:30:00 AM 8.02 46.436 0.213 8.14 5.69 11.27
11/14/2020 5:45:00 AM 8.03 46.454 0.213 8.16 5.63 11.3
11/14/2020 6:00:00 AM 8.01 46.418 0.213 8.17 5.78 11.31
11/14/2020 6:15:00 AM 7.97 46.346 0.214 8.18 5.9 11.33
11/14/2020 6:30:00 AM 7.95 46.31 0.214 8.18 5.68 11.35
11/14/2020 6:45:00 AM 7.92 46.256 0.214 8.18 5.62 11.37
11/14/2020 7:00:00 AM 7.9 46.22 0.214 8.18 5.61 11.39
11/14/2020 7:15:00 AM 7.87 46.166 0.214 8.19 5.61 11.41
11/14/2020 7:30:00 AM 7.85 46.13 0.214 8.18 5.45 11.44
11/14/2020 7:45:00 AM 7.85 46.13 0.214 8.21 5.49 11.48
11/14/2020 8:00:00 AM 7.84 46.112 0.214 8.2 5.43 11.53
11/14/2020 8:15:00 AM 7.82 46.076 0.214 8.24 5.35 11.58
11/14/2020 8:30:00 AM 7.82 46.076 0.214 8.25 6.09 11.66
11/14/2020 8:45:00 AM 7.83 46.094 0.215 8.28 5.29 11.74
11/14/2020 9:00:00 AM 7.87 46.166 0.215 8.34 5.34 11.85
11/14/2020 9:15:00 AM 7.9 46.22 0.215 8.39 5.31 11.95
11/14/2020 9:30:00 AM 7.96 46.328 0.215 8.42 5.31 12.08
11/14/2020 9:45:00 AM 8.02 46.436 0.215 8.47 5.2 12.19
11/14/2020 10:00:00 AM 8.12 46.616 0.215 8.51 5.3 12.32
11/14/2020 10:15:00 AM 8.18 46.724 0.215 8.55 5.21 12.41
11/14/2020 10:30:00 AM 8.29 46.922 0.215 8.59 5.19 12.52
11/14/2020 10:45:00 AM 8.35 47.03 0.216 8.6 5.1 12.6
11/14/2020 11:00:00 AM 8.43 47.174 0.216 8.65 5.07 12.68
11/14/2020 11:15:00 AM 8.54 47.372 0.216 8.7 5.11 12.77
11/14/2020 11:30:00 AM 8.66 47.588 0.216 8.76 4.97 12.86
11/14/2020 11:45:00 AM 8.72 47.696 0.216 8.79 4.98 12.96
11/14/2020 12:00:00 PM 8.79 47.822 0.216 8.84 4.99 13.05
11/14/2020 12:15:00 PM 8.83 47.894 0.217 8.77 4.96 13.13
11/14/2020 12:30:00 PM 8.84 47.912 0.217 8.89 4.98 13.2
11/14/2020 12:45:00 PM 8.87 47.966 0.217 8.93 4.84 13.27
11/14/2020 1:00:00 PM 8.95 48.11 0.217 8.96 4.98 13.34
11/14/2020 1:15:00 PM 9.07 48.326 0.217 9.01 4.9 13.4
11/14/2020 1:30:00 PM 9.17 48.506 0.217 9.02 4.93 13.46
11/14/2020 1:45:00 PM 9.26 48.668 0.217 9.02 4.82 13.52
11/14/2020 2:00:00 PM 9.32 48.776 0.217 9.06 4.79 13.6
11/14/2020 2:15:00 PM 9.38 48.884 0.217 9.1 4.76 13.63
11/14/2020 2:30:00 PM 9.41 48.938 0.217 9.11 4.71 13.66
11/14/2020 2:45:00 PM 9.4 48.92 0.217 9.1 4.77 13.69
11/14/2020 3:00:00 PM 9.38 48.884 0.217 9.12 4.67 13.71
11/14/2020 3:15:00 PM 9.32 48.776 0.217 9.12 4.69 13.72
11/14/2020 3:30:00 PM 9.27 48.686 0.218 9.08 4.69 13.74
11/14/2020 3:45:00 PM 9.19 48.542 0.218 9.06 4.69 13.73
11/14/2020 4:00:00 PM 9.09 48.362 0.218 9.04 4.63 13.67
11/14/2020 4:15:00 PM 8.99 48.182 0.218 9.04 4.63 13.62
11/14/2020 4:30:00 PM 8.88 47.984 0.218 9.02 4.66 13.54
11/14/2020 4:45:00 PM 8.79 47.822 0.218 8.96 5.5 13.45
11/14/2020 5:00:00 PM 8.68 47.624 0.218 8.92 4.69 13.33
11/14/2020 5:15:00 PM 8.58 47.444 0.219 8.87 4.72 13.21
11/14/2020 5:30:00 PM 8.47 47.246 0.219 8.84 11.54 13.09
11/14/2020 5:45:00 PM 8.37 47.066 0.219 8.78 4.85 12.97
11/14/2020 6:00:00 PM 8.27 46.886 0.219 8.74 5.24 12.86
11/14/2020 6:15:00 PM 8.17 46.706 0.219 8.7 5 12.76
11/14/2020 6:30:00 PM 8.08 46.544 0.219 8.63 5.08 12.67
11/14/2020 6:45:00 PM 8 46.4 0.219 8.62 4.93 12.58
11/14/2020 7:00:00 PM 7.92 46.256 0.219 8.59 4.89 12.5
11/14/2020 7:15:00 PM 7.84 46.112 0.219 8.61 4.86 12.43
11/14/2020 7:30:00 PM 7.79 46.022 0.219 8.6 5.06 12.33
11/14/2020 7:45:00 PM 7.7 45.86 0.219 8.55 4.98 12.3
11/14/2020 8:00:00 PM 7.62 45.716 0.219 8.49 4.9 12.24
11/14/2020 8:15:00 PM 7.55 45.59 0.219 8.41 4.93 12.18
11/14/2020 8:30:00 PM 7.49 45.482 0.219 8.44 5.03 12.12
11/14/2020 8:45:00 PM 7.42 45.356 0.219 8.42 4.93 12.07
11/14/2020 9:00:00 PM 7.36 45.248 0.219 8.4 4.98 12.02
11/14/2020 9:15:00 PM 7.3 45.14 0.219 8.36 9.09 11.97
11/14/2020 9:30:00 PM 7.24 45.032 0.219 8.36 4.99 11.94
11/14/2020 9:45:00 PM 7.18 44.924 0.219 8.35 5 11.9
11/14/2020 10:00:00 PM 7.13 44.834 0.219 8.32 4.99 11.86
11/14/2020 10:15:00 PM 7.08 44.744 0.219 8.32 5.06 11.84
11/14/2020 10:30:00 PM 7.04 44.672 0.218 8.32 5.03 11.81
11/14/2020 10:45:00 PM 6.99 44.582 0.218 8.31 5.05 11.79
11/14/2020 11:00:00 PM 6.96 44.528 0.218 8.32 5.08 11.77
11/14/2020 11:15:00 PM 6.94 44.492 0.218 8.3 5.15 11.76
11/14/2020 11:30:00 PM 6.91 44.438 0.218 8.34 4.93 11.75
11/14/2020 11:45:00 PM 6.88 44.384 0.218 8.35 4.91 11.74
11/15/2020 12:00:00 AM 6.86 44.348 0.218 8.32 5.02 11.74
11/15/2020 12:15:00 AM 6.85 44.33 0.218 8.31 5.05 11.74
11/15/2020 12:30:00 AM 6.82 44.276 0.218 8.32 5.24 11.74
11/15/2020 12:45:00 AM 6.79 44.222 0.218 8.27 5.42 11.74
11/15/2020 1:00:00 AM 6.78 44.204 0.218 8.3 7.64 11.75
11/15/2020 1:15:00 AM 6.77 44.186 0.218 8.32 5.79 11.76
11/15/2020 1:30:00 AM 6.76 44.168 0.217 8.33 5.01 11.76
11/15/2020 1:45:00 AM 6.74 44.132 0.217 8.33 5.33 11.76
11/15/2020 2:00:00 AM 6.73 44.114 0.217 8.29 7.1 11.78
11/15/2020 2:15:00 AM 6.72 44.096 0.217 8.34 5.16 11.79
11/15/2020 2:30:00 AM 6.71 44.078 0.217 8.34 5.04 11.8
11/15/2020 2:45:00 AM 6.68 44.024 0.217 8.35 4.77 11.8
11/15/2020 3:00:00 AM 6.67 44.006 0.217 8.3 5.01 11.82
11/15/2020 3:15:00 AM 6.65 43.97 0.217 8.31 4.96 11.82
11/15/2020 3:30:00 AM 6.66 43.988 0.217 8.35 5.04 11.83
11/15/2020 3:45:00 AM 6.68 44.024 0.217 8.35 4.81 11.84
11/15/2020 4:00:00 AM 6.68 44.024 0.217 8.36 8 11.84
11/15/2020 4:15:00 AM 6.7 44.06 0.217 8.32 5.93 11.84
11/15/2020 4:30:00 AM 6.71 44.078 0.217 8.35 5.2 11.86
11/15/2020 4:45:00 AM 6.72 44.096 0.217 8.31 6.41 11.86
11/15/2020 5:00:00 AM 6.74 44.132 0.217 8.32 6.36 11.86
11/15/2020 5:15:00 AM 6.76 44.168 0.217 8.31 4.92 11.86
11/15/2020 5:30:00 AM 6.78 44.204 0.217 8.34 4.96 11.87
11/15/2020 5:45:00 AM 6.8 44.24 0.217 8.36 5.11 11.87
11/15/2020 6:00:00 AM 6.82 44.276 0.216 8.35 4.96 11.87
11/15/2020 6:15:00 AM 6.85 44.33 0.216 8.31 4.8 11.87
11/15/2020 6:30:00 AM 6.87 44.366 0.216 8.33 4.91 11.88
11/15/2020 6:45:00 AM 6.89 44.402 0.216 8.31 4.77 11.89
11/15/2020 7:00:00 AM 6.9 44.42 0.216 8.36 4.77 11.89
11/15/2020 7:15:00 AM 6.92 44.456 0.216 8.39 4.77 11.89
11/15/2020 7:30:00 AM 6.93 44.474 0.216 8.38 4.75 11.9
11/15/2020 7:45:00 AM 6.94 44.492 0.216 8.38 4.62 11.91
11/15/2020 8:00:00 AM 6.95 44.51 0.216 8.36 4.7 11.92
11/15/2020 8:15:00 AM 6.97 44.546 0.216 8.4 4.61 11.96
11/15/2020 8:30:00 AM 6.99 44.582 0.216 8.39 4.62 12.01
11/15/2020 8:45:00 AM 7.02 44.636 0.216 8.39 4.99 12.1
11/15/2020 9:00:00 AM 7.07 44.726 0.216 8.42 5.55 12.19
11/15/2020 9:15:00 AM 7.11 44.798 0.216 8.43 5.6 12.27
11/15/2020 9:30:00 AM 7.14 44.852 0.216 8.47 5.47 12.4
11/15/2020 9:45:00 AM 7.18 44.924 0.216 8.52 5.37 12.5
11/15/2020 10:00:00 AM 7.23 45.014 0.216 8.54 7.38 12.63
11/15/2020 10:15:00 AM 7.27 45.086 0.216 8.56 5.7 12.74
11/15/2020 10:30:00 AM 7.3 45.14 0.216 8.6 5.54 12.83
11/15/2020 10:45:00 AM 7.35 45.23 0.216 8.64 5.14 12.93
11/15/2020 11:00:00 AM 7.37 45.266 0.216 8.66 4.93 13
11/15/2020 11:15:00 AM 7.4 45.32 0.216 8.71 4.89 13.07
11/15/2020 11:30:00 AM 7.44 45.392 0.216 8.75 4.78 13.14
11/15/2020 11:45:00 AM 7.49 45.482 0.216 8.76 4.78 13.19
11/15/2020 12:00:00 PM 7.53 45.554 0.216 8.8 5.27 13.25
11/15/2020 12:15:00 PM 7.55 45.59 0.216 8.79 4.98 13.29
11/15/2020 12:30:00 PM 7.6 45.68 0.215 8.85 4.87 13.34
11/15/2020 12:45:00 PM 7.62 45.716 0.215 8.89 4.79 13.41
11/15/2020 1:00:00 PM 8.41 47.138 0.223 8.35 10.15 12.47
11/15/2020 1:15:00 PM 7.67 45.806 0.216 8.84 5.08 13.35
11/15/2020 1:30:00 PM 7.62 45.716 0.216 8.88 4.81 13.4
11/15/2020 1:45:00 PM 7.63 45.734 0.216 8.91 4.67 13.4
11/15/2020 2:00:00 PM 7.62 45.716 0.216 8.9 4.59 13.39
11/15/2020 2:15:00 PM 7.62 45.716 0.216 8.92 4.71 13.34
11/15/2020 2:30:00 PM 7.62 45.716 0.216 8.92 4.65 13.31
11/15/2020 2:45:00 PM 7.61 45.698 0.216 8.91 4.65 13.28
11/15/2020 3:00:00 PM 7.61 45.698 0.216 8.9 4.45 13.25
11/15/2020 3:15:00 PM 7.62 45.716 0.216 8.9 4.55 13.21
11/15/2020 3:30:00 PM 7.62 45.716 0.216 8.88 4.67 13.16
11/15/2020 3:45:00 PM 7.62 45.716 0.216 8.86 4.51 13.1
11/15/2020 4:00:00 PM 7.62 45.716 0.216 8.85 4.49 13.04
11/15/2020 4:15:00 PM 7.63 45.734 0.216 8.81 10.56 12.98
11/15/2020 4:30:00 PM 7.63 45.734 0.216 8.81 12.21 12.91
11/15/2020 4:45:00 PM 7.64 45.752 0.217 8.78 8.23 12.83
11/15/2020 5:00:00 PM 7.65 45.77 0.217 8.71 5.94 12.74
11/15/2020 5:15:00 PM 7.66 45.788 0.217 8.7 6.21 12.64
11/15/2020 5:30:00 PM 7.67 45.806 0.216 8.68 5.83 12.54
11/15/2020 5:45:00 PM 7.68 45.824 0.216 8.64 6.86 12.45
11/15/2020 6:00:00 PM 7.68 45.824 0.216 8.54 5.38 12.36
11/15/2020 6:15:00 PM 7.69 45.842 0.216 8.51 5.14 12.27
11/15/2020 6:30:00 PM 7.71 45.878 0.216 8.45 5.28 12.19
11/15/2020 6:45:00 PM 7.74 45.932 0.214 8.45 8.87 12.09
11/15/2020 7:00:00 PM 7.75 45.95 0.215 8.44 6.29 12.03
11/15/2020 7:15:00 PM 7.74 45.932 0.215 8.42 5.98 11.97
11/15/2020 7:30:00 PM 7.74 45.932 0.215 8.38 5.42 11.9
11/15/2020 7:45:00 PM 7.73 45.914 0.215 8.39 5.19 11.84
11/15/2020 8:00:00 PM 7.71 45.878 0.215 8.38 5.5 11.79
11/15/2020 8:15:00 PM 7.7 45.86 0.215 8.34 6.01 11.76
11/15/2020 8:30:00 PM 7.68 45.824 0.215 8.36 5.48 11.71
11/15/2020 8:45:00 PM 7.66 45.788 0.215 8.35 5.11 11.67
11/15/2020 9:00:00 PM 7.63 45.734 0.215 8.29 5.29 11.65
11/15/2020 9:15:00 PM 7.61 45.698 0.216 8.31 4.93 11.61
11/15/2020 9:30:00 PM 7.57 45.626 0.216 8.29 5.12 11.58
11/15/2020 9:45:00 PM 7.54 45.572 0.216 8.26 4.99 11.57
11/15/2020 10:00:00 PM 7.51 45.518 0.216 8.23 4.82 11.54
11/15/2020 10:15:00 PM 7.47 45.446 0.217 8.22 5.01 11.53
11/15/2020 10:30:00 PM 7.43 45.374 0.217 8.24 4.83 11.52
11/15/2020 10:45:00 PM 7.39 45.302 0.217 8.21 13.02 11.5
11/15/2020 11:00:00 PM 7.36 45.248 0.217 8.21 4.91 11.5
11/15/2020 11:15:00 PM 7.34 45.212 0.217 8.2 4.79 11.49
11/15/2020 11:30:00 PM 7.32 45.176 0.217 8.2 4.92 11.48
11/15/2020 11:45:00 PM 7.29 45.122 0.218 8.2 4.71 11.48
11/16/2020 12:00:00 AM 7.24 45.032 0.218 8.2 4.96 11.49
11/16/2020 12:15:00 AM 7.2 44.96 0.218 8.21 4.83 11.48
11/16/2020 12:30:00 AM 7.16 44.888 0.218 8.16 4.86 11.49
11/16/2020 12:45:00 AM 7.14 44.852 0.218 8.16 4.89 11.48
11/16/2020 1:00:00 AM 7.11 44.798 0.218 8.2 4.71 11.47
11/16/2020 1:15:00 AM 7.05 44.69 0.218 8.21 4.98 11.49
11/16/2020 1:30:00 AM 7 44.6 0.219 8.21 4.8 11.48
11/16/2020 1:45:00 AM 6.96 44.528 0.219 8.23 5.13 11.48
11/16/2020 2:00:00 AM 6.91 44.438 0.219 8.25 5.49 11.5
11/16/2020 2:15:00 AM 6.85 44.33 0.219 8.24 5.05 11.51
11/16/2020 2:30:00 AM 6.8 44.24 0.219 8.21 4.9 11.52
11/16/2020 2:45:00 AM 6.77 44.186 0.219 8.21 4.82 11.52
11/16/2020 3:00:00 AM 6.73 44.114 0.219 8.23 5.08 11.54
11/16/2020 3:15:00 AM 6.68 44.024 0.219 8.21 5.02 11.56
11/16/2020 3:30:00 AM 6.63 43.934 0.219 8.2 4.97 11.56
11/16/2020 3:45:00 AM 6.61 43.898 0.219 8.17 4.84 11.57
11/16/2020 4:00:00 AM 6.58 43.844 0.219 8.17 4.93 11.59
11/16/2020 4:15:00 AM 6.54 43.772 0.219 8.13 5 11.6
11/16/2020 4:30:00 AM 6.52 43.736 0.219 8.14 5.34 11.6
11/16/2020 4:45:00 AM 6.51 43.718 0.219 8.13 5.07 11.61
11/16/2020 5:00:00 AM 6.52 43.736 0.219 8.16 5.25 11.63
11/16/2020 5:15:00 AM 6.51 43.718 0.219 8.16 4.88 11.64
11/16/2020 5:30:00 AM 6.5 43.7 0.219 8.16 5.8 11.64
11/16/2020 5:45:00 AM 6.5 43.7 0.219 8.16 5.01 11.66
11/16/2020 6:00:00 AM 6.51 43.718 0.219 8.18 5.06 11.67
11/16/2020 6:15:00 AM 6.52 43.736 0.219 8.19 5 11.67
11/16/2020 6:30:00 AM 6.52 43.736 0.219 8.2 4.97 11.68
11/16/2020 6:45:00 AM 6.53 43.754 0.219 8.21 4.97 11.69
11/16/2020 7:00:00 AM 6.54 43.772 0.219 8.21 5.06 11.7
11/16/2020 7:15:00 AM 6.54 43.772 0.219 8.25 4.99 11.71
11/16/2020 7:30:00 AM 6.55 43.79 0.219 8.23 4.95 11.73
11/16/2020 7:45:00 AM 6.56 43.808 0.219 8.18 4.9 11.76
11/16/2020 8:00:00 AM 6.57 43.826 0.219 8.18 4.83 11.79
11/16/2020 8:15:00 AM 6.59 43.862 0.219 8.2 4.96 11.83
11/16/2020 8:30:00 AM 6.6 43.88 0.218 8.22 4.89 11.88
11/16/2020 8:45:00 AM 6.63 43.934 0.218 8.22 4.88 11.94
11/16/2020 9:00:00 AM 6.64 43.952 0.218 8.24 4.9 11.99
11/16/2020 9:15:00 AM 6.66 43.988 0.218 8.27 4.92 12.05
11/16/2020 9:30:00 AM 6.68 44.024 0.218 8.3 4.79 12.11
11/16/2020 9:45:00 AM 6.71 44.078 0.218 8.3 4.68 12.17
11/16/2020 10:00:00 AM 6.73 44.114 0.218 8.33 4.73 12.24
11/16/2020 10:15:00 AM 6.77 44.186 0.218 8.35 4.81 12.33
11/16/2020 10:30:00 AM 6.81 44.258 0.218 8.39 4.7 12.42
11/16/2020 10:45:00 AM 6.83 44.294 0.217 8.43 4.66 12.51
11/16/2020 11:00:00 AM 6.86 44.348 0.217 8.46 4.77 12.62
11/16/2020 11:15:00 AM 6.87 44.366 0.217 8.46 4.74 12.71
11/16/2020 11:30:00 AM 6.89 44.402 0.217 8.5 4.78 12.8
11/16/2020 11:45:00 AM 6.9 44.42 0.217 8.53 5.89 12.86
11/16/2020 12:00:00 PM 6.9 44.42 0.217 8.54 5.92 12.93
11/16/2020 12:15:00 PM 6.91 44.438 0.217 8.57 5.01 13.02
11/16/2020 12:30:00 PM 6.93 44.474 0.217 8.62 4.9 13.1
11/16/2020 12:45:00 PM 6.96 44.528 0.217 8.68 4.67 13.18
11/16/2020 1:00:00 PM 7.02 44.636 0.217 8.71 4.6 13.26
11/16/2020 1:15:00 PM 7.04 44.672 0.217 8.73 4.58 13.34
11/16/2020 1:30:00 PM 7.07 44.726 0.217 8.78 4.66 13.43
11/16/2020 1:45:00 PM 7.14 44.852 0.216 8.82 4.68 13.52
11/16/2020 2:00:00 PM 7.18 44.924 0.216 8.89 4.59 13.59
11/16/2020 2:15:00 PM 7.2 44.96 0.216 8.97 4.63 13.67
11/16/2020 2:30:00 PM 7.22 44.996 0.216 8.97 4.46 13.74
11/16/2020 2:45:00 PM 7.24 45.032 0.216 9.03 4.52 13.81
11/16/2020 3:00:00 PM 7.24 45.032 0.216 9.06 4.5 13.87
11/16/2020 3:15:00 PM 7.24 45.032 0.216 9.04 4.39 13.92
11/16/2020 3:30:00 PM 7.23 45.014 0.216 9.02 4.56 13.94
11/16/2020 3:45:00 PM 7.22 44.996 0.216 9.03 4.55 13.97
11/16/2020 4:00:00 PM 7.19 44.942 0.216 8.99 4.63 13.95
11/16/2020 4:15:00 PM 7.15 44.87 0.217 9 4.69 13.93
11/16/2020 4:30:00 PM 7.11 44.798 0.217 8.95 4.6 13.88
11/16/2020 4:45:00 PM 7.07 44.726 0.217 8.94 4.5 13.82
11/16/2020 5:00:00 PM 7.02 44.636 0.217 8.89 6.12 13.74
11/16/2020 5:15:00 PM 6.99 44.582 0.217 8.85 4.55 13.67
11/16/2020 5:30:00 PM 6.96 44.528 0.218 8.82 4.5 13.59
11/16/2020 5:45:00 PM 6.92 44.456 0.218 8.78 4.51 13.49
11/16/2020 6:00:00 PM 6.88 44.384 0.218 8.75 4.53 13.39
11/16/2020 6:15:00 PM 6.84 44.312 0.218 8.74 4.57 13.31
11/16/2020 6:30:00 PM 6.8 44.24 0.219 8.73 4.56 13.21
11/16/2020 6:45:00 PM 6.77 44.186 0.219 8.67 4.72 13.12
11/16/2020 7:00:00 PM 6.73 44.114 0.219 8.63 4.58 13.04
11/16/2020 7:15:00 PM 6.68 44.024 0.219 8.61 4.51 12.96
11/16/2020 7:30:00 PM 6.63 43.934 0.22 8.55 4.72 12.89
11/16/2020 7:45:00 PM 6.59 43.862 0.22 8.53 4.69 12.81
11/16/2020 8:00:00 PM 6.56 43.808 0.22 8.5 4.86 12.74
11/16/2020 8:15:00 PM 6.52 43.736 0.22 8.47 4.74 12.67
11/16/2020 8:30:00 PM 6.47 43.646 0.221 8.47 4.66 12.6
11/16/2020 8:45:00 PM 6.43 43.574 0.221 8.43 4.84 12.53
11/16/2020 9:00:00 PM 6.38 43.484 0.221 8.39 4.7 12.46
11/16/2020 9:15:00 PM 6.34 43.412 0.221 8.37 4.58 12.4
11/16/2020 9:30:00 PM 6.28 43.304 0.222 8.34 4.71 12.35
11/16/2020 9:45:00 PM 6.23 43.214 0.222 8.34 4.83 12.3
11/16/2020 10:00:00 PM 6.18 43.124 0.222 8.31 4.79 12.26
11/16/2020 10:15:00 PM 6.13 43.034 0.222 8.3 4.73 12.22
11/16/2020 10:30:00 PM 7.33 45.194 0.231 8.03 11.61 11.07
11/16/2020 10:45:00 PM 6.15 43.07 0.223 8.38 6.6 12.06
11/16/2020 11:00:00 PM 5.99 42.782 0.223 8.42 4.8 12.13
11/16/2020 11:15:00 PM 5.93 42.674 0.223 8.4 4.95 12.13
11/16/2020 11:30:00 PM 5.88 42.584 0.223 8.4 4.89 12.11
11/16/2020 11:45:00 PM 5.83 42.494 0.223 8.37 4.89 12.1
11/17/2020 12:00:00 AM 5.8 42.44 0.224 8.36 4.8 12.1
11/17/2020 12:15:00 AM 5.75 42.35 0.224 8.3 4.84 12.09
11/17/2020 12:30:00 AM 5.73 42.314 0.224 8.27 4.72 12.09
11/17/2020 12:45:00 AM 5.71 42.278 0.224 8.25 4.8 12.08
11/17/2020 1:00:00 AM 5.69 42.242 0.224 8.27 4.65 12.08
11/17/2020 1:15:00 AM 5.68 42.224 0.224 8.23 5.09 12.09
11/17/2020 1:30:00 AM 5.66 42.188 0.224 8.25 4.82 12.08
11/17/2020 1:45:00 AM 5.65 42.17 0.225 8.23 4.95 12.09
11/17/2020 2:00:00 AM 5.64 42.152 0.225 8.25 4.96 12.09
11/17/2020 2:15:00 AM 5.63 42.134 0.225 8.28 4.91 12.1
11/17/2020 2:30:00 AM 5.63 42.134 0.225 8.28 4.84 12.1
11/17/2020 2:45:00 AM 5.62 42.116 0.225 8.28 4.83 12.11
11/17/2020 3:00:00 AM 5.62 42.116 0.225 8.27 5.06 12.12
11/17/2020 3:15:00 AM 5.61 42.098 0.225 8.29 4.8 12.12
11/17/2020 3:30:00 AM 5.61 42.098 0.226 8.27 4.85 12.13
11/17/2020 3:45:00 AM 5.6 42.08 0.226 8.3 4.93 12.14
11/17/2020 4:00:00 AM 5.59 42.062 0.226 8.26 4.71 12.15
11/17/2020 4:15:00 AM 5.58 42.044 0.226 8.25 4.73 12.16
11/17/2020 4:30:00 AM 5.58 42.044 0.226 8.23 4.85 12.15
11/17/2020 4:45:00 AM 5.57 42.026 0.226 8.28 4.84 12.16
11/17/2020 5:00:00 AM 5.57 42.026 0.226 8.27 4.83 12.18
11/17/2020 5:15:00 AM 5.56 42.008 0.227 8.25 4.87 12.18
11/17/2020 5:30:00 AM 5.56 42.008 0.227 8.22 4.86 12.18
11/17/2020 5:45:00 AM 5.55 41.99 0.227 8.23 4.78 12.19
11/17/2020 6:00:00 AM 5.54 41.972 0.227 8.23 4.81 12.19
11/17/2020 6:15:00 AM 5.55 41.99 0.227 8.25 4.97 12.21
11/17/2020 6:30:00 AM 5.54 41.972 0.227 8.24 4.87 12.21
11/17/2020 6:45:00 AM 5.54 41.972 0.227 8.23 4.77 12.22
11/17/2020 7:00:00 AM 5.54 41.972 0.227 8.24 4.82 12.22
11/17/2020 7:15:00 AM 5.54 41.972 0.227 8.27 4.8 12.24
11/17/2020 7:30:00 AM 5.55 41.99 0.228 8.27 4.84 12.27
11/17/2020 7:45:00 AM 5.56 42.008 0.228 8.33 4.86 12.31
11/17/2020 8:00:00 AM 5.57 42.026 0.228 8.34 4.69 12.36
11/17/2020 8:15:00 AM 5.58 42.044 0.228 8.34 4.68 12.41
11/17/2020 8:30:00 AM 5.59 42.062 0.228 8.39 4.66 12.48
11/17/2020 8:45:00 AM 5.61 42.098 0.228 8.4 4.67 12.59
11/17/2020 9:00:00 AM 5.63 42.134 0.228 8.45 4.67 12.69
11/17/2020 9:15:00 AM 5.66 42.188 0.228 8.47 4.56 12.79
11/17/2020 9:30:00 AM 5.68 42.224 0.228 8.49 4.61 12.87
11/17/2020 9:45:00 AM 5.69 42.242 0.228 8.49 4.6 12.95
11/17/2020 10:00:00 AM 5.7 42.26 0.227 8.53 4.53 13.05
11/17/2020 10:15:00 AM 5.71 42.278 0.227 8.55 4.61 13.14
11/17/2020 10:30:00 AM 5.72 42.296 0.227 8.56 4.5 13.21
11/17/2020 10:45:00 AM 5.73 42.314 0.227 8.62 4.51 13.3
11/17/2020 11:00:00 AM 5.76 42.368 0.227 8.65 4.58 13.38
11/17/2020 11:15:00 AM 5.8 42.44 0.227 8.68 4.49 13.47
11/17/2020 11:30:00 AM 5.84 42.512 0.227 8.71 4.51 13.57
11/17/2020 11:45:00 AM 5.88 42.584 0.227 8.75 4.5 13.67
11/17/2020 12:00:00 PM 5.91 42.638 0.227 8.75 4.5 13.76
11/17/2020 12:15:00 PM 5.96 42.728 0.227 8.82 4.41 13.88
11/17/2020 12:30:00 PM 6 42.8 0.227 8.84 4.43 13.98
11/17/2020 12:45:00 PM 6.03 42.854 0.226 8.87 4.44 14.08
11/17/2020 1:00:00 PM 6.04 42.872 0.226 8.89 4.35 14.14
11/17/2020 1:15:00 PM 6.09 42.962 0.226 8.9 4.46 14.22
11/17/2020 1:30:00 PM 6.2 43.16 0.226 8.99 4.6 14.29
11/17/2020 1:45:00 PM 6.29 43.322 0.226 9.03 6.9 14.33
11/17/2020 2:00:00 PM 6.38 43.484 0.226 9 4.59 14.41
11/17/2020 2:15:00 PM 6.44 43.592 0.226 8.97 4.43 14.46
11/17/2020 2:30:00 PM 6.37 43.466 0.226 8.94 4.48 14.47
11/17/2020 2:45:00 PM 6.37 43.466 0.226 8.97 4.44 14.47
11/17/2020 3:00:00 PM 6.38 43.484 0.226 8.99 4.34 14.48
11/17/2020 3:15:00 PM 6.34 43.412 0.226 8.98 4.48 14.46
11/17/2020 3:30:00 PM 6.28 43.304 0.226 8.96 4.39 14.42
11/17/2020 3:45:00 PM 6.26 43.268 0.226 8.97 4.39 14.41
11/17/2020 4:00:00 PM 6.21 43.178 0.226 8.94 4.47 14.38
11/17/2020 4:15:00 PM 6.16 43.088 0.226 8.91 4.39 14.32
11/17/2020 4:30:00 PM 7.5 45.5 0.238 8.24 16.51 12.74
11/17/2020 4:45:00 PM 6.08 42.944 0.227 8.92 4.61 14.08
11/17/2020 5:00:00 PM 5.96 42.728 0.227 8.93 13.89 14.09
11/17/2020 5:15:00 PM 5.89 42.602 0.227 8.9 4.47 14
11/17/2020 5:30:00 PM 5.83 42.494 0.227 8.88 4.35 13.9
11/17/2020 5:45:00 PM 5.76 42.368 0.227 8.88 4.42 13.81
11/17/2020 6:00:00 PM -99999.99 -179968 -99999.99 -99999.99 -99999.99 -99999.99
11/17/2020 6:15:00 PM -99999.99 -179968 -99999.99 -99999.99 -99999.99 -99999.99
11/17/2020 6:30:00 PM -99999.99 -179968 -99999.99 -99999.99 -99999.99 -99999.99
11/17/2020 6:45:00 PM -99999.99 -179968 -99999.99 -99999.99 -99999.99 -99999.99
11/17/2020 7:00:00 PM -99999.99 -179968 -99999.99 -99999.99 -99999.99 -99999.99
11/17/2020 7:15:00 PM -99999.99 -179968 -99999.99 -99999.99 -99999.99 -99999.99
11/17/2020 7:30:00 PM -99999.99 -179968 -99999.99 -99999.99 -99999.99 -99999.99
11/17/2020 7:45:00 PM -99999.99 -179968 -99999.99 -99999.99 -99999.99 -99999.99
11/17/2020 8:00:00 PM -99999.99 -179968 -99999.99 -99999.99 -99999.99 -99999.99
11/17/2020 8:15:00 PM -99999.99 -179968 -99999.99 -99999.99 -99999.99 -99999.99
11/17/2020 8:30:00 PM -99999.99 -179968 -99999.99 -99999.99 -99999.99 -99999.99
11/20/2020 7:00:00 AM 4.06 39.308 0.215 8.72 5.24 13.35
11/20/2020 7:15:00 AM 4.08 39.344 0.215 9.07 4.79 13.36
11/20/2020 7:30:00 AM 4.11 39.398 0.215 8.98 5.03 13.38
11/20/2020 7:45:00 AM 4.14 39.452 0.215 8.99 4.91 13.42
11/20/2020 8:00:00 AM 4.17 39.506 0.215 8.96 6.59 13.46
11/20/2020 8:15:00 AM 4.2 39.56 0.215 8.93 4.85 13.52
11/20/2020 8:30:00 AM 4.23 39.614 0.215 8.92 4.74 13.6
11/20/2020 8:45:00 AM 4.29 39.722 0.214 8.92 5.03 13.69
11/20/2020 9:00:00 AM 4.33 39.794 0.214 8.92 4.97 13.77
11/20/2020 9:15:00 AM 4.38 39.884 0.214 8.91 4.83 13.86
11/20/2020 9:30:00 AM 4.43 39.974 0.214 8.9 4.77 13.95
11/20/2020 9:45:00 AM 4.48 40.064 0.214 8.89 4.67 14.05
11/20/2020 10:00:00 AM 4.53 40.154 0.214 8.91 4.83 14.14
11/20/2020 10:15:00 AM 4.6 40.28 0.214 8.92 4.76 14.23
11/20/2020 10:30:00 AM 4.67 40.406 0.214 8.93 5 14.31
11/20/2020 10:45:00 AM 4.76 40.568 0.214 8.93 4.67 14.4
11/20/2020 11:00:00 AM 4.85 40.73 0.213 8.97 4.75 14.48
11/20/2020 11:15:00 AM 4.93 40.874 0.213 9.07 5.19 14.56
11/20/2020 11:30:00 AM 5 41 0.213 9.05 4.93 14.64
11/20/2020 11:45:00 AM 5.09 41.162 0.213 9.04 4.47 14.74
11/20/2020 12:00:00 PM 5.19 41.342 0.213 9.11 4.56 14.81
11/20/2020 12:15:00 PM 5.27 41.486 0.213 9.17 4.55 14.88
11/20/2020 12:30:00 PM 5.38 41.684 0.213 9.17 6.14 14.91
11/20/2020 12:45:00 PM 5.47 41.846 0.213 9.25 4.74 15.01
11/20/2020 1:00:00 PM 5.55 41.99 0.213 9.23 4.46 15.07
11/20/2020 1:15:00 PM 5.66 42.188 0.213 9.24 4.44 15.12
11/20/2020 1:30:00 PM 5.74 42.332 0.213 9.26 4.36 15.16
11/20/2020 1:45:00 PM 5.87 42.566 0.213 9.38 4.36 15.22
11/20/2020 2:00:00 PM 5.99 42.782 0.213 9.42 4.83 15.26
11/20/2020 2:15:00 PM 6.09 42.962 0.213 9.44 4.31 15.3
11/20/2020 2:30:00 PM 6.17 43.106 0.212 9.34 4.46 15.32
These are provisional data and have not been subject to a quality assurance process, but rather are the raw data reported by the instrument.

Data Availability & Limitations

Uncertainty and potential for error can be associated with environmental monitoring data. Provisional data have not been subject to a quality assurance process, but rather are the raw data reported by the instrument. Data users are cautioned to consider carefully the provisional nature of the information before using it for decisions that concern personal or public safety or the conduct of business that involves substantial monetary or operational consequences.

Approved data are currently available by request by emailing: srbc@srbc.net. Approved data have been subject to a quality assurance process to correct for equipment or fouling drift. Data recorded during equipment malfunctions have been removed.

View Historical Stations that have been been discontinued.